Provisional Data: Little Juniata River near Tipton, PA


Please select a monitoring station.
Please select start date.
Please select start date.

Toggle Unit: C/F Toggle Unit: C/F
Sample Time Temperature (C) Temperature (F) Specific Conductivity (mS/cm) pH   Turbidity (NTU+) DO (mg/L)
4/13/2022 12:00:00 AM 11.29 52.322 0.213 7.56 6.14 10.07
4/13/2022 12:15:00 AM 11.18 52.124 0.211 7.55 6.46 10.09
4/13/2022 12:30:00 AM 11.07 51.926 0.211 7.54 6.59 10.1
4/13/2022 12:45:00 AM 10.96 51.728 0.211 7.54 6.49 10.12
4/13/2022 1:00:00 AM 10.85 51.53 0.21 7.53 6.56 10.14
4/13/2022 1:15:00 AM 10.74 51.332 0.21 7.51 6.37 10.17
4/13/2022 1:30:00 AM 10.63 51.134 0.211 7.52 6.22 10.2
4/13/2022 1:45:00 AM 10.53 50.954 0.212 7.52 6.03 10.22
4/13/2022 2:00:00 AM 10.42 50.756 0.215 7.52 6.17 10.25
4/13/2022 2:15:00 AM 10.32 50.576 0.216 7.52 6.16 10.27
4/13/2022 2:30:00 AM 10.22 50.396 0.215 7.52 5.91 10.29
4/13/2022 2:45:00 AM 10.13 50.234 0.214 7.52 6.05 10.32
4/13/2022 3:00:00 AM 10.04 50.072 0.213 7.51 5.84 10.35
4/13/2022 3:15:00 AM 9.96 49.928 0.212 7.5 5.79 10.37
4/13/2022 3:30:00 AM 9.88 49.784 0.212 7.51 5.81 10.4
4/13/2022 3:45:00 AM 9.8 49.64 0.212 7.51 5.56 10.41
4/13/2022 4:00:00 AM 9.72 49.496 0.212 7.51 5.68 10.45
4/13/2022 4:15:00 AM 9.63 49.334 0.213 7.51 5.93 10.47
4/13/2022 4:30:00 AM 9.55 49.19 0.215 7.51 5.7 10.49
4/13/2022 4:45:00 AM 9.47 49.046 0.217 7.51 5.75 10.51
4/13/2022 5:00:00 AM 9.39 48.902 0.218 7.51 5.5 10.54
4/13/2022 5:15:00 AM 9.31 48.758 0.217 7.51 5.39 10.57
4/13/2022 5:30:00 AM 9.24 48.632 0.216 7.51 5.61 10.59
4/13/2022 5:45:00 AM 9.18 48.524 0.215 7.51 5.63 10.62
4/13/2022 6:00:00 AM 9.12 48.416 0.215 7.49 5.54 10.63
4/13/2022 6:15:00 AM 9.08 48.344 0.214 7.51 5.7 10.65
4/13/2022 6:30:00 AM 9.04 48.272 0.214 7.51 5.78 10.68
4/13/2022 6:45:00 AM 8.99 48.182 0.213 7.49 5.49 10.7
4/13/2022 7:00:00 AM 8.94 48.092 0.213 7.52 5.49 10.74
4/13/2022 7:15:00 AM 8.9 48.02 0.215 7.52 5.34 10.8
4/13/2022 7:30:00 AM 8.88 47.984 0.217 7.54 5.27 10.87
4/13/2022 7:45:00 AM 8.87 47.966 0.217 7.54 5.48 11.02
4/13/2022 8:00:00 AM 8.85 47.93 0.216 7.58 4.96 11.09
4/13/2022 8:15:00 AM 8.85 47.93 0.214 7.6 4.8 11.23
4/13/2022 8:30:00 AM 8.88 47.984 0.213 7.63 4.7 11.42
4/13/2022 8:45:00 AM 8.92 48.056 0.211 7.68 4.55 11.62
4/13/2022 9:00:00 AM 8.96 48.128 0.21 7.72 4.57 11.81
4/13/2022 9:15:00 AM 9 48.2 0.209 7.77 4.47 11.95
4/13/2022 9:30:00 AM 9.08 48.344 0.208 7.82 4.45 12.1
4/13/2022 9:45:00 AM 9.14 48.452 0.209 7.86 4.32 12.26
4/13/2022 10:00:00 AM 9.22 48.596 0.21 7.95 4.3 12.42
4/13/2022 10:15:00 AM 9.31 48.758 0.211 8.02 4.18 12.54
4/13/2022 10:30:00 AM 9.4 48.92 0.211 8.1 4.25 12.66
4/13/2022 10:45:00 AM 9.54 49.172 0.21 8.18 4.23 12.78
4/13/2022 11:00:00 AM 9.69 49.442 0.208 8.27 4.26 12.89
4/13/2022 11:15:00 AM 9.81 49.658 0.207 8.34 4.41 12.97
4/13/2022 11:30:00 AM 9.96 49.928 0.206 8.43 4.33 13.05
4/13/2022 11:45:00 AM 10.08 50.144 0.206 8.5 4.47 13.07
4/13/2022 12:00:00 PM 10.17 50.306 0.205 8.54 4.37 13.07
4/13/2022 12:15:00 PM 10.28 50.504 0.205 8.59 4.54 13.08
4/13/2022 12:30:00 PM 10.35 50.63 0.206 8.61 4.61 13.02
4/13/2022 12:45:00 PM 10.48 50.864 0.208 8.66 4.35 13.07
4/13/2022 1:00:00 PM 10.65 51.17 0.209 8.71 4.28 13.13
4/13/2022 1:15:00 PM 10.78 51.404 0.209 8.76 4.29 13.14
4/13/2022 1:30:00 PM 10.87 51.566 0.208 8.79 4.21 13.13
4/13/2022 1:45:00 PM 10.97 51.746 0.207 8.82 4.22 13.08
4/13/2022 2:00:00 PM 11.09 51.962 0.206 8.85 4.53 13.11
4/13/2022 2:15:00 PM 11.23 52.214 0.205 8.88 4.21 13.12
4/13/2022 2:30:00 PM 11.36 52.448 0.205 8.92 4.29 13.12
4/13/2022 2:45:00 PM 11.5 52.7 0.205 8.95 4.48 13.12
4/13/2022 3:00:00 PM 11.6 52.88 0.206 8.96 4.57 13.09
4/13/2022 3:15:00 PM 11.76 53.168 0.208 8.98 4.35 13.11
4/13/2022 3:30:00 PM 11.98 53.564 0.21 9 4.44 13.1
4/13/2022 3:45:00 PM 12.17 53.906 0.212 9.01 4.31 13.06
4/13/2022 4:00:00 PM 12.33 54.194 0.211 9.02 4.52 12.96
4/13/2022 4:15:00 PM 12.45 54.41 0.21 9.02 4.4 12.87
4/13/2022 4:30:00 PM 12.6 54.68 0.209 9.03 4.47 12.84
4/13/2022 4:45:00 PM 12.7 54.86 0.209 9.03 4.83 12.71
4/13/2022 5:00:00 PM 12.74 54.932 0.209 8.99 4.55 12.45
4/13/2022 5:15:00 PM 12.8 55.04 0.209 8.93 4.53 12.18
4/13/2022 5:30:00 PM 12.83 55.094 0.209 8.87 4.47 11.97
4/13/2022 5:45:00 PM 12.86 55.148 0.209 8.81 4.55 11.77
4/13/2022 6:00:00 PM 12.91 55.238 0.211 8.76 4.5 11.69
4/13/2022 6:15:00 PM 12.93 55.274 0.214 8.72 4.74 11.62
4/13/2022 6:30:00 PM 12.94 55.292 0.217 8.64 5.14 11.47
4/13/2022 6:45:00 PM 12.94 55.292 0.217 8.56 4.71 11.34
4/13/2022 7:00:00 PM 12.94 55.292 0.216 8.48 4.94 11.18
4/13/2022 7:15:00 PM 12.92 55.256 0.215 8.37 4.8 10.99
4/13/2022 7:30:00 PM 12.93 55.274 0.214 8.28 5.17 10.83
4/13/2022 7:45:00 PM 12.92 55.256 0.214 8.16 4.94 10.67
4/13/2022 8:00:00 PM 12.9 55.22 0.213 8.08 5.21 10.53
4/13/2022 8:15:00 PM 12.88 55.184 0.213 7.99 5.23 10.41
4/13/2022 8:30:00 PM 12.86 55.148 0.214 7.93 5.35 10.29
4/13/2022 8:45:00 PM 12.82 55.076 0.217 7.85 5.66 10.2
4/13/2022 9:00:00 PM 12.78 55.004 0.22 7.81 5.43 10.11
4/13/2022 9:15:00 PM 12.73 54.914 0.222 7.77 5.42 10.02
4/13/2022 9:30:00 PM 12.7 54.86 0.222 7.73 5.63 9.95
4/13/2022 9:45:00 PM 12.66 54.788 0.22 7.7 5.46 9.89
4/13/2022 10:00:00 PM 12.62 54.716 0.218 7.67 5.42 9.85
4/13/2022 10:15:00 PM 12.58 54.644 0.217 7.64 5.67 9.81
4/13/2022 10:30:00 PM 12.54 54.572 0.216 7.62 5.38 9.78
4/13/2022 10:45:00 PM 12.48 54.464 0.216 7.6 5.57 9.76
4/13/2022 11:00:00 PM 12.4 54.32 0.215 7.59 5.38 9.75
4/13/2022 11:15:00 PM 12.33 54.194 0.215 7.57 5.58 9.75
4/13/2022 11:30:00 PM 12.25 54.05 0.217 7.56 5.67 9.75
4/13/2022 11:45:00 PM 12.17 53.906 0.219 7.55 5.51 9.74
4/14/2022 12:00:00 AM 12.1 53.78 0.221 7.55 5.7 9.74
4/14/2022 12:15:00 AM 12.03 53.654 0.22 7.54 5.75 9.75
4/14/2022 12:30:00 AM 11.97 53.546 0.219 7.54 8.59 9.75
4/14/2022 12:45:00 AM 11.91 53.438 0.218 7.51 6.11 9.76
4/14/2022 1:00:00 AM 11.86 53.348 0.217 7.52 6.02 9.76
4/14/2022 1:15:00 AM 11.8 53.24 0.217 7.52 5.95 9.77
4/14/2022 1:30:00 AM 11.73 53.114 0.216 7.51 5.66 9.78
4/14/2022 1:45:00 AM 11.66 52.988 0.216 7.51 5.57 9.79
4/14/2022 2:00:00 AM 11.59 52.862 0.217 7.5 5.7 9.8
4/14/2022 2:15:00 AM 11.52 52.736 0.219 7.5 5.87 9.82
4/14/2022 2:30:00 AM 11.45 52.61 0.222 7.49 5.71 9.83
4/14/2022 2:45:00 AM 11.4 52.52 0.223 7.5 5.7 9.84
4/14/2022 3:00:00 AM 11.33 52.394 0.222 7.49 5.59 9.86
4/14/2022 3:15:00 AM 11.27 52.286 0.221 7.49 6.11 9.87
4/14/2022 3:30:00 AM 11.21 52.178 0.22 7.48 5.62 9.88
4/14/2022 3:45:00 AM 11.15 52.07 0.22 7.48 5.55 9.89
4/14/2022 4:00:00 AM 11.09 51.962 0.219 7.5 5.23 9.9
4/14/2022 4:15:00 AM 11.03 51.854 0.218 7.5 5.4 9.92
4/14/2022 4:30:00 AM 10.96 51.728 0.218 7.5 5.38 9.94
4/14/2022 4:45:00 AM 10.9 51.62 0.219 7.49 5.36 9.96
4/14/2022 5:00:00 AM 10.84 51.512 0.221 7.48 5.32 9.98
4/14/2022 5:15:00 AM 10.78 51.404 0.223 7.48 5.48 9.99
4/14/2022 5:30:00 AM 10.72 51.296 0.223 7.48 5.43 10
4/14/2022 5:45:00 AM 10.68 51.224 0.223 7.48 5.25 10.02
4/14/2022 6:00:00 AM 10.64 51.152 0.222 7.48 5.29 10.04
4/14/2022 6:15:00 AM 10.62 51.116 0.221 7.49 5.19 10.05
4/14/2022 6:30:00 AM 10.61 51.098 0.22 7.5 5.24 10.06
4/14/2022 6:45:00 AM 10.59 51.062 0.219 7.51 5.02 10.08
4/14/2022 7:00:00 AM 10.57 51.026 0.218 7.49 4.9 10.15
4/14/2022 7:15:00 AM 10.55 50.99 0.218 7.53 4.94 10.23
4/14/2022 7:30:00 AM 10.53 50.954 0.218 7.54 4.85 10.32
4/14/2022 7:45:00 AM 10.52 50.936 0.22 7.56 4.72 10.43
4/14/2022 8:00:00 AM 10.53 50.954 0.221 7.58 4.66 10.6
4/14/2022 8:15:00 AM 10.57 51.026 0.221 7.63 4.66 10.81
4/14/2022 8:30:00 AM 10.63 51.134 0.219 7.68 4.58 11.03
4/14/2022 8:45:00 AM 10.71 51.278 0.217 7.74 4.46 11.23
4/14/2022 9:00:00 AM 10.83 51.494 0.216 7.81 4.4 11.44
4/14/2022 9:15:00 AM 10.94 51.692 0.215 7.88 4.25 11.65
4/14/2022 9:30:00 AM 11.06 51.908 0.213 7.96 4.24 11.83
4/14/2022 9:45:00 AM 11.19 52.142 0.212 8.03 4.32 11.98
4/14/2022 10:00:00 AM 11.26 52.268 0.212 8.13 4.34 12.1
4/14/2022 10:15:00 AM 11.31 52.358 0.213 8.18 4.22 12.13
4/14/2022 10:30:00 AM 11.36 52.448 0.214 8.21 4.22 12.1
4/14/2022 10:45:00 AM 11.41 52.538 0.215 8.24 4.22 12.13
4/14/2022 11:00:00 AM 11.49 52.682 0.215 8.3 4.23 12.19
4/14/2022 11:15:00 AM 11.55 52.79 0.214 8.33 4.09 12.15
4/14/2022 11:30:00 AM 11.59 52.862 0.213 8.33 3.98 12.06
4/14/2022 11:45:00 AM 11.68 53.024 0.211 8.37 4.15 12.08
4/14/2022 12:00:00 PM 11.77 53.186 0.21 8.42 4.15 12.12
4/14/2022 12:15:00 PM 11.85 53.33 0.21 8.47 4.07 12.17
4/14/2022 12:30:00 PM 11.9 53.42 0.211 8.53 4.41 12.26
4/14/2022 12:45:00 PM 11.9 53.42 0.212 8.57 4.41 12.25
4/14/2022 1:00:00 PM 11.91 53.438 0.213 8.58 4.17 12.22
4/14/2022 1:15:00 PM 11.88 53.384 0.214 8.54 4.21 12.11
4/14/2022 1:30:00 PM 11.88 53.384 0.215 8.54 4.27 12.04
4/14/2022 1:45:00 PM 11.89 53.402 0.214 8.54 4.26 12.04
4/14/2022 2:00:00 PM 11.88 53.384 0.212 8.56 4.33 12.06
4/14/2022 2:15:00 PM 11.88 53.384 0.211 8.57 4.37 12.02
4/14/2022 2:30:00 PM 11.88 53.384 0.211 8.57 4.35 11.97
4/14/2022 2:45:00 PM 11.87 53.366 0.21 8.54 4.44 11.89
4/14/2022 3:00:00 PM 11.89 53.402 0.209 8.57 4.37 11.98
4/14/2022 3:15:00 PM 11.92 53.456 0.209 8.6 4.44 12.04
4/14/2022 3:30:00 PM 11.95 53.51 0.211 8.65 4.77 12.14
4/14/2022 3:45:00 PM 11.99 53.582 0.214 8.68 4.66 12.19
4/14/2022 4:00:00 PM 12.06 53.708 0.216 8.7 4.7 12.26
4/14/2022 4:15:00 PM 12.18 53.924 0.217 8.75 4.55 12.32
4/14/2022 4:30:00 PM 12.28 54.104 0.214 8.78 4.75 12.34
4/14/2022 4:45:00 PM 12.33 54.194 0.211 8.81 4.91 12.34
4/14/2022 5:00:00 PM 12.33 54.194 0.208 8.81 4.92 12.29
4/14/2022 5:15:00 PM 12.31 54.158 0.206 8.82 5.06 12.24
4/14/2022 5:30:00 PM 12.3 54.14 0.204 8.81 4.93 12.18
4/14/2022 5:45:00 PM 12.26 54.068 0.201 8.79 4.82 12.08
4/14/2022 6:00:00 PM 12.2 53.96 0.198 8.75 5.16 11.97
4/14/2022 6:15:00 PM 12.14 53.852 0.199 8.69 5.32 11.84
4/14/2022 6:30:00 PM 12.07 53.726 0.201 8.6 5.18 11.69
4/14/2022 6:45:00 PM 12.03 53.654 0.203 8.55 5.15 11.58
4/14/2022 7:00:00 PM 11.97 53.546 0.203 8.47 5.46 11.44
4/14/2022 7:15:00 PM 11.9 53.42 0.204 8.38 5.6 11.3
4/14/2022 7:30:00 PM 11.83 53.294 0.204 8.29 5.65 11.17
4/14/2022 7:45:00 PM 11.75 53.15 0.205 8.2 5.5 11.04
4/14/2022 8:00:00 PM 11.67 53.006 0.205 8.12 6.17 10.91
4/14/2022 8:15:00 PM 11.59 52.862 0.206 8.03 5.61 10.78
4/14/2022 8:30:00 PM 11.5 52.7 0.206 7.94 5.83 10.68
4/14/2022 8:45:00 PM 11.4 52.52 0.207 7.9 5.74 10.6
4/14/2022 9:00:00 PM 11.3 52.34 0.209 7.84 5.62 10.53
4/14/2022 9:15:00 PM 11.19 52.142 0.212 7.8 5.78 10.46
4/14/2022 9:30:00 PM 11.08 51.944 0.215 7.76 5.64 10.43
4/14/2022 9:45:00 PM 10.97 51.746 0.215 7.73 5.76 10.39
4/14/2022 10:00:00 PM 10.87 51.566 0.214 7.71 5.53 10.36
4/14/2022 10:15:00 PM 10.78 51.404 0.213 7.68 5.49 10.35
4/14/2022 10:30:00 PM 10.69 51.242 0.212 7.67 5.62 10.34
4/14/2022 10:45:00 PM 10.6 51.08 0.212 7.66 5.5 10.34
4/14/2022 11:00:00 PM 10.51 50.918 0.211 7.65 5.4 10.35
4/14/2022 11:15:00 PM 10.4 50.72 0.211 7.64 5.42 10.36
4/14/2022 11:30:00 PM 10.3 50.54 0.211 7.62 5.47 10.37
4/14/2022 11:45:00 PM 10.19 50.342 0.213 7.62 5.49 10.38
4/15/2022 12:00:00 AM 10.08 50.144 0.216 7.62 5.29 10.4
4/15/2022 12:15:00 AM 9.97 49.946 0.218 7.61 5.42 10.42
4/15/2022 12:30:00 AM 9.85 49.73 0.219 7.61 5.35 10.44
4/15/2022 12:45:00 AM 9.74 49.532 0.219 7.6 5.35 10.46
4/15/2022 1:00:00 AM 9.63 49.334 0.219 7.58 5.34 10.48
4/15/2022 1:15:00 AM 9.53 49.154 0.218 7.59 5.66 10.51
4/15/2022 1:30:00 AM 9.43 48.974 0.218 7.59 5.54 10.53
4/15/2022 1:45:00 AM 9.32 48.776 0.217 7.59 5.27 10.56
4/15/2022 2:00:00 AM 9.22 48.596 0.216 7.57 5.18 10.58
4/15/2022 2:15:00 AM 9.12 48.416 0.216 7.58 5.27 10.61
4/15/2022 2:30:00 AM 9.02 48.236 0.218 7.56 5.28 10.63
4/15/2022 2:45:00 AM 8.93 48.074 0.221 7.57 5.19 10.65
4/15/2022 3:00:00 AM 8.84 47.912 0.223 7.58 5.07 10.67
4/15/2022 3:15:00 AM 8.76 47.768 0.223 7.57 5.06 10.7
4/15/2022 3:30:00 AM 8.68 47.624 0.223 7.57 4.98 10.73
4/15/2022 3:45:00 AM 8.6 47.48 0.221 7.56 4.98 10.75
4/15/2022 4:00:00 AM 8.53 47.354 0.22 7.57 4.98 10.78
4/15/2022 4:15:00 AM 8.45 47.21 0.219 7.57 5.07 10.8
4/15/2022 4:30:00 AM 8.36 47.048 0.218 7.57 4.92 10.83
4/15/2022 4:45:00 AM 8.29 46.922 0.218 7.56 5.55 10.86
4/15/2022 5:00:00 AM 8.21 46.778 0.218 7.56 4.8 10.88
4/15/2022 5:15:00 AM 8.13 46.634 0.22 7.56 5.08 10.91
4/15/2022 5:30:00 AM 8.05 46.49 0.222 7.56 4.86 10.94
4/15/2022 5:45:00 AM 7.97 46.346 0.223 7.57 4.86 10.97
4/15/2022 6:00:00 AM 7.89 46.202 0.223 7.57 5.05 10.99
4/15/2022 6:15:00 AM 7.82 46.076 0.222 7.54 4.93 11.02
4/15/2022 6:30:00 AM 7.74 45.932 0.221 7.57 4.64 11.05
4/15/2022 6:45:00 AM 7.66 45.788 0.22 7.57 4.28 11.09
4/15/2022 7:00:00 AM 7.59 45.662 0.219 7.57 4.8 11.15
4/15/2022 7:15:00 AM 7.52 45.536 0.218 7.56 4.4 11.23
4/15/2022 7:30:00 AM 7.46 45.428 0.218 7.59 4.5 11.33
4/15/2022 7:45:00 AM 7.41 45.338 0.218 7.61 4.48 11.43
4/15/2022 8:00:00 AM 7.37 45.266 0.219 7.63 7.41 11.53
4/15/2022 8:15:00 AM 7.36 45.248 0.221 7.65 4.24 11.68
4/15/2022 8:30:00 AM 7.39 45.302 0.222 7.67 4.31 11.85
4/15/2022 8:45:00 AM 7.44 45.392 0.222 7.73 4.02 12.04
4/15/2022 9:00:00 AM 7.51 45.518 0.22 7.77 3.97 12.21
4/15/2022 9:15:00 AM 7.59 45.662 0.219 7.82 3.51 12.38
4/15/2022 9:30:00 AM 7.69 45.842 0.217 7.87 3.35 12.54
4/15/2022 9:45:00 AM 7.8 46.04 0.215 7.93 3.87 12.68
4/15/2022 10:00:00 AM 7.94 46.292 0.214 7.99 3.44 12.82
4/15/2022 10:15:00 AM 8.09 46.562 0.213 8.06 3.99 12.94
4/15/2022 10:30:00 AM 8.25 46.85 0.213 8.13 4.35 13.05
4/15/2022 10:45:00 AM 8.44 47.192 0.214 8.2 3.37 13.15
4/15/2022 11:00:00 AM 8.63 47.534 0.215 8.27 3.23 13.23
4/15/2022 11:15:00 AM 8.84 47.912 0.216 8.35 3.54 13.31
4/15/2022 11:30:00 AM 9.05 48.29 0.215 8.42 3.38 13.37
4/15/2022 11:45:00 AM 9.28 48.704 0.214 8.5 3.74 13.42
4/15/2022 12:00:00 PM 9.53 49.154 0.213 8.56 3.41 13.45
4/15/2022 12:15:00 PM 9.76 49.568 0.211 8.63 3.74 13.49
4/15/2022 12:30:00 PM 10.02 50.036 0.21 8.68 3.28 13.5
4/15/2022 12:45:00 PM 10.26 50.468 0.209 8.74 3.17 13.51
4/15/2022 1:00:00 PM 10.52 50.936 0.209 8.79 3.51 13.52
4/15/2022 1:15:00 PM 10.77 51.386 0.209 8.82 4.51 13.52
4/15/2022 1:30:00 PM 11.03 51.854 0.211 8.87 3.9 13.52
4/15/2022 1:45:00 PM 11.29 52.322 0.212 8.9 3.39 13.51
4/15/2022 2:00:00 PM 11.52 52.736 0.212 8.94 3.28 13.49
4/15/2022 2:15:00 PM 11.75 53.15 0.212 8.97 3.64 13.46
4/15/2022 2:30:00 PM 11.96 53.528 0.211 9 3.58 13.43
4/15/2022 2:45:00 PM 12.14 53.852 0.21 9.01 3.6 13.37
4/15/2022 3:00:00 PM 12.31 54.158 0.209 9.04 3.95 13.33
4/15/2022 3:15:00 PM 12.49 54.482 0.208 9.07 3.69 13.26
4/15/2022 3:30:00 PM 12.64 54.752 0.208 9.08 4.09 13.19
4/15/2022 3:45:00 PM 12.76 54.968 0.208 9.09 3.62 13.12
4/15/2022 4:00:00 PM 12.87 55.166 0.21 9.1 5.51 13.03
4/15/2022 4:15:00 PM 12.97 55.346 0.212 9.1 4.03 12.94
4/15/2022 4:30:00 PM 13.04 55.472 0.214 9.1 3.81 12.84
4/15/2022 4:45:00 PM 13.11 55.598 0.214 9.08 3.54 12.72
4/15/2022 5:00:00 PM 13.16 55.688 0.214 9.07 3.64 12.59
4/15/2022 5:15:00 PM 13.19 55.742 0.214 9.04 4.02 12.45
4/15/2022 5:30:00 PM 13.19 55.742 0.214 9.04 4.16 12.3
4/15/2022 5:45:00 PM 13.19 55.742 0.213 9 5.84 12.15
4/15/2022 6:00:00 PM 13.17 55.706 0.213 8.98 3.96 11.97
4/15/2022 6:15:00 PM 13.16 55.688 0.213 8.94 3.67 11.81
4/15/2022 6:30:00 PM 13.14 55.652 0.214 8.88 3.49 11.64
4/15/2022 6:45:00 PM 13.11 55.598 0.216 8.84 3.71 11.48
4/15/2022 7:00:00 PM 13.07 55.526 0.218 8.76 3.66 11.31
4/15/2022 7:15:00 PM 13.02 55.436 0.22 8.68 4.12 11.12
4/15/2022 7:30:00 PM 12.97 55.346 0.221 8.58 3.89 10.95
4/15/2022 7:45:00 PM 12.92 55.256 0.22 8.48 4.39 10.77
4/15/2022 8:00:00 PM 12.87 55.166 0.22 8.36 4.62 10.6
4/15/2022 8:15:00 PM 12.81 55.058 0.219 8.25 3.84 10.45
4/15/2022 8:30:00 PM 12.74 54.932 0.218 8.15 4.28 10.32
4/15/2022 8:45:00 PM 12.67 54.806 0.218 8.05 4.14 10.22
4/15/2022 9:00:00 PM 12.59 54.662 0.217 7.98 4.02 10.14
4/15/2022 9:15:00 PM 12.51 54.518 0.218 7.91 4.14 10.06
4/15/2022 9:30:00 PM 12.43 54.374 0.22 7.85 4.21 9.99
4/15/2022 9:45:00 PM 12.33 54.194 0.223 7.81 4.25 9.95
4/15/2022 10:00:00 PM 12.24 54.032 0.224 7.76 4.24 9.91
4/15/2022 10:15:00 PM 12.15 53.87 0.225 7.74 4.37 9.89
4/15/2022 10:30:00 PM 12.06 53.708 0.224 7.72 4.05 9.87
4/15/2022 10:45:00 PM 11.97 53.546 0.223 7.68 4.44 9.86
4/15/2022 11:00:00 PM 11.89 53.402 0.222 7.68 4.58 9.86
4/15/2022 11:15:00 PM 11.8 53.24 0.221 7.67 4.18 9.86
4/15/2022 11:30:00 PM 11.7 53.06 0.219 7.63 4.28 9.87
4/15/2022 11:45:00 PM 11.61 52.898 0.219 7.63 4.24 9.88
4/16/2022 12:00:00 AM 11.5 52.7 0.219 7.62 4.1 9.89
4/16/2022 12:15:00 AM 11.4 52.52 0.221 7.61 4.29 9.9
4/16/2022 12:30:00 AM 11.31 52.358 0.223 7.6 4.3 9.92
4/16/2022 12:45:00 AM 11.22 52.196 0.224 7.6 4.19 9.94
4/16/2022 1:00:00 AM 11.13 52.034 0.224 7.59 4.49 9.95
4/16/2022 1:15:00 AM 11.06 51.908 0.224 7.57 4.28 9.97
4/16/2022 1:30:00 AM 10.99 51.782 0.223 7.58 4.24 9.98
4/16/2022 1:45:00 AM 10.91 51.638 0.222 7.58 4.35 10
4/16/2022 2:00:00 AM 10.83 51.494 0.221 7.56 4.35 10.01
4/16/2022 2:15:00 AM 10.75 51.35 0.22 7.56 4.3 10.04
4/16/2022 2:30:00 AM 10.68 51.224 0.22 7.57 4.65 10.06
4/16/2022 2:45:00 AM 10.6 51.08 0.221 7.56 4.8 10.07
4/16/2022 3:00:00 AM 10.53 50.954 0.223 7.55 4.19 10.09
4/16/2022 3:15:00 AM 10.47 50.846 0.225 7.57 4.34 10.11
4/16/2022 3:30:00 AM 10.41 50.738 0.226 7.56 4.61 10.12
4/16/2022 3:45:00 AM 10.36 50.648 0.226 7.56 5.08 10.14
4/16/2022 4:00:00 AM 10.3 50.54 0.225 7.56 5 10.15
4/16/2022 4:15:00 AM 10.25 50.45 0.224 7.56 4.31 10.17
4/16/2022 4:30:00 AM 10.2 50.36 0.222 7.56 4.45 10.19
4/16/2022 4:45:00 AM 10.15 50.27 0.221 7.56 4.33 10.21
4/16/2022 5:00:00 AM 10.1 50.18 0.22 7.57 4.4 10.23
4/16/2022 5:15:00 AM 10.05 50.09 0.22 7.57 4.2 10.25
4/16/2022 5:30:00 AM 10.01 50.018 0.221 7.57 4.23 10.27
4/16/2022 5:45:00 AM 9.97 49.946 0.223 7.57 4.06 10.28
4/16/2022 6:00:00 AM 9.93 49.874 0.224 7.57 4.2 10.29
4/16/2022 6:15:00 AM 9.9 49.82 0.224 7.57 4.07 10.31
4/16/2022 6:30:00 AM 9.87 49.766 0.224 7.57 4.19 10.32
4/16/2022 6:45:00 AM 9.84 49.712 0.223 7.58 4.15 10.33
4/16/2022 7:00:00 AM 9.82 49.676 0.221 7.57 3.99 10.36
4/16/2022 7:15:00 AM 9.79 49.622 0.219 7.58 4.25 10.4
4/16/2022 7:30:00 AM 9.77 49.586 0.218 7.59 4.03 10.46
4/16/2022 7:45:00 AM 9.75 49.55 0.217 7.61 4.02 10.56
4/16/2022 8:00:00 AM 9.73 49.514 0.217 7.63 4.14 10.67
4/16/2022 8:15:00 AM 9.73 49.514 0.219 7.65 3.96 10.8
4/16/2022 8:30:00 AM 9.73 49.514 0.22 7.68 3.91 10.94
4/16/2022 8:45:00 AM 9.74 49.532 0.221 7.71 3.81 11.05
4/16/2022 9:00:00 AM 9.75 49.55 0.221 7.73 3.79 11.09
4/16/2022 9:15:00 AM 9.76 49.568 0.221 7.74 3.76 11.13
4/16/2022 9:30:00 AM 9.79 49.622 0.219 7.77 3.71 11.23
4/16/2022 9:45:00 AM 9.8 49.64 0.218 7.78 4.36 11.26
4/16/2022 10:00:00 AM 9.8 49.64 0.216 7.79 3.95 11.26
4/16/2022 10:15:00 AM 9.81 49.658 0.215 7.8 3.74 11.3
4/16/2022 10:30:00 AM 9.87 49.766 0.214 7.84 3.71 11.5
4/16/2022 10:45:00 AM 10.04 50.072 0.215 7.91 3.86 11.81
4/16/2022 11:00:00 AM 10.09 50.162 0.216 8.01 4.14 11.98
4/16/2022 11:15:00 AM 10.14 50.252 0.217 8.08 3.78 12.07
4/16/2022 11:30:00 AM 10.2 50.36 0.217 8.13 3.84 12.14
4/16/2022 11:45:00 AM 10.21 50.378 0.217 8.14 3.76 12.05
4/16/2022 12:00:00 PM 10.23 50.414 0.217 8.13 3.79 11.98
4/16/2022 12:15:00 PM 10.28 50.504 0.216 8.15 3.84 12
4/16/2022 12:30:00 PM 10.32 50.576 0.216 8.18 3.95 12.03
4/16/2022 12:45:00 PM 10.34 50.612 0.217 8.17 3.89 12.01
4/16/2022 1:00:00 PM 10.35 50.63 0.218 8.19 3.93 11.95
4/16/2022 1:15:00 PM 10.4 50.72 0.221 8.22 3.92 12.01
4/16/2022 1:30:00 PM 10.49 50.882 0.222 8.3 3.74 12.19
4/16/2022 1:45:00 PM 10.56 51.008 0.222 8.38 3.69 12.34
4/16/2022 2:00:00 PM 10.79 51.422 0.222 8.48 3.86 12.53
4/16/2022 2:15:00 PM 10.87 51.566 0.222 8.53 3.68 12.54
4/16/2022 2:30:00 PM 10.91 51.638 0.223 8.55 3.65 12.54
4/16/2022 2:45:00 PM 10.89 51.602 0.224 8.53 3.74 12.37
4/16/2022 3:00:00 PM 10.91 51.638 0.226 8.51 3.73 12.32
4/16/2022 3:15:00 PM 10.94 51.692 0.228 8.54 3.71 12.36
4/16/2022 3:30:00 PM 10.93 51.674 0.23 8.52 3.72 12.22
4/16/2022 3:45:00 PM 10.92 51.656 0.232 8.47 3.92 12.06
4/16/2022 4:00:00 PM 10.93 51.674 0.234 8.45 3.95 12.03
4/16/2022 4:15:00 PM 10.97 51.746 0.236 8.48 3.88 12.07
4/16/2022 4:30:00 PM 10.99 51.782 0.238 8.46 3.81 11.99
4/16/2022 4:45:00 PM 11.04 51.872 0.238 8.44 3.79 11.92
4/16/2022 5:00:00 PM 11.12 52.016 0.238 8.44 3.75 11.9
4/16/2022 5:15:00 PM 11.14 52.052 0.239 8.39 3.84 11.72
4/16/2022 5:30:00 PM 11.17 52.106 0.239 8.34 4.03 11.58
4/16/2022 5:45:00 PM 11.23 52.214 0.237 8.31 4.15 11.56
4/16/2022 6:00:00 PM 11.27 52.286 0.237 8.3 4.05 11.53
4/16/2022 6:15:00 PM 11.29 52.322 0.236 8.26 3.99 11.43
4/16/2022 6:30:00 PM 11.29 52.322 0.236 8.2 4.09 11.29
4/16/2022 6:45:00 PM 11.27 52.286 0.236 8.12 4.11 11.15
4/16/2022 7:00:00 PM 11.26 52.268 0.235 8.07 4.13 11.02
4/16/2022 7:15:00 PM 11.25 52.25 0.235 8 4.25 10.9
4/16/2022 7:30:00 PM 11.24 52.232 0.233 7.94 4.37 10.78
4/16/2022 7:45:00 PM 11.24 52.232 0.231 7.92 4.66 10.69
4/16/2022 8:00:00 PM 11.23 52.214 0.229 7.87 5.12 10.59
4/16/2022 8:15:00 PM 11.22 52.196 0.227 7.84 4.79 10.5
4/16/2022 8:30:00 PM 11.18 52.124 0.225 7.81 4.81 10.44
4/16/2022 8:45:00 PM 11.13 52.034 0.224 7.78 5.13 10.4
4/16/2022 9:00:00 PM 11.07 51.926 0.223 7.75 5.19 10.36
4/16/2022 9:15:00 PM 11 51.8 0.224 7.73 5.24 10.35
4/16/2022 9:30:00 PM 10.93 51.674 0.226 7.72 5.41 10.32
4/16/2022 9:45:00 PM 10.86 51.548 0.228 7.69 5.58 10.31
4/16/2022 10:00:00 PM 10.79 51.422 0.229 7.7 5.32 10.3
4/16/2022 10:15:00 PM 10.72 51.296 0.228 7.69 5.41 10.3
4/16/2022 10:30:00 PM 10.64 51.152 0.227 7.68 5.45 10.31
4/16/2022 10:45:00 PM 10.57 51.026 0.225 7.68 5.31 10.32
4/16/2022 11:00:00 PM 10.49 50.882 0.223 7.67 5.3 10.33
4/16/2022 11:15:00 PM 10.41 50.738 0.222 7.66 5.42 10.34
4/16/2022 11:30:00 PM 10.32 50.576 0.222 7.64 5.55 10.35
4/16/2022 11:45:00 PM 10.22 50.396 0.224 7.65 6.18 10.37
4/17/2022 12:00:00 AM 10.13 50.234 0.227 7.65 5.38 10.38
4/17/2022 12:15:00 AM 10.03 50.054 0.23 7.65 5.36 10.39
4/17/2022 12:30:00 AM 9.95 49.91 0.231 7.65 5.2 10.4
4/17/2022 12:45:00 AM 9.87 49.766 0.231 7.64 5.43 10.42
4/17/2022 1:00:00 AM 9.79 49.622 0.231 7.63 5.12 10.43
4/17/2022 1:15:00 AM 9.71 49.478 0.231 7.64 5.27 10.45
4/17/2022 1:30:00 AM 9.63 49.334 0.23 7.63 5.44 10.46
4/17/2022 1:45:00 AM 9.55 49.19 0.231 7.63 5.08 10.48
4/17/2022 2:00:00 AM 9.46 49.028 0.232 7.62 5.21 10.49
4/17/2022 2:15:00 AM 9.37 48.866 0.236 7.62 5.15 10.51
4/17/2022 2:30:00 AM 9.29 48.722 0.24 7.62 4.95 10.53
4/17/2022 2:45:00 AM 9.2 48.56 0.243 7.62 5.19 10.55
4/17/2022 3:00:00 AM 9.12 48.416 0.245 7.61 5.11 10.57
4/17/2022 3:15:00 AM 9.04 48.272 0.244 7.61 4.98 10.6
4/17/2022 3:30:00 AM 8.96 48.128 0.244 7.61 5.02 10.62
4/17/2022 3:45:00 AM 8.87 47.966 0.244 7.61 5.14 10.64
4/17/2022 4:00:00 AM 8.79 47.822 0.243 7.6 4.8 10.67
4/17/2022 4:15:00 AM 8.71 47.678 0.243 7.61 5.01 10.69
4/17/2022 4:30:00 AM 8.63 47.534 0.242 7.61 4.86 10.72
4/17/2022 4:45:00 AM 8.55 47.39 0.241 7.61 4.87 10.75
4/17/2022 5:00:00 AM 8.46 47.228 0.241 7.59 4.87 10.78
4/17/2022 5:15:00 AM 8.38 47.084 0.242 7.6 4.77 10.79
4/17/2022 5:30:00 AM 8.3 46.94 0.243 7.59 4.88 10.82
4/17/2022 5:45:00 AM 8.21 46.778 0.242 7.6 4.88 10.84
4/17/2022 6:00:00 AM 8.15 46.67 0.241 7.61 4.72 10.87
4/17/2022 6:15:00 AM 8.08 46.544 0.24 7.6 4.57 10.89
4/17/2022 6:30:00 AM 8.03 46.454 0.238 7.6 4.61 10.92
4/17/2022 6:45:00 AM 7.98 46.364 0.237 7.6 4.65 10.95
4/17/2022 7:00:00 AM 7.93 46.274 0.236 7.61 4.58 10.99
4/17/2022 7:15:00 AM 7.88 46.184 0.235 7.61 4.47 11.05
4/17/2022 7:30:00 AM 7.83 46.094 0.235 7.62 4.7 11.12
4/17/2022 7:45:00 AM 7.79 46.022 0.235 7.63 4.31 11.2
4/17/2022 8:00:00 AM 7.76 45.968 0.237 7.65 4.4 11.29
4/17/2022 8:15:00 AM 7.73 45.914 0.239 7.66 4.26 11.39
4/17/2022 8:30:00 AM 7.7 45.86 0.239 7.67 4.17 11.48
4/17/2022 8:45:00 AM 7.65 45.77 0.239 7.69 4.22 11.53
4/17/2022 9:00:00 AM 7.62 45.716 0.236 7.71 4.07 11.65
4/17/2022 9:15:00 AM 7.65 45.77 0.234 7.75 3.95 11.93
4/17/2022 9:30:00 AM 7.69 45.842 0.231 7.84 3.89 12.25
4/17/2022 9:45:00 AM 7.7 45.86 0.228 7.9 3.88 12.45
4/17/2022 10:00:00 AM 7.76 45.968 0.226 7.98 3.87 12.65
4/17/2022 10:15:00 AM 7.76 45.968 0.224 8.04 3.84 12.77
4/17/2022 10:30:00 AM 7.79 46.022 0.223 8.09 3.78 12.89
4/17/2022 10:45:00 AM 7.85 46.13 0.223 8.17 3.65 13
4/17/2022 11:00:00 AM 7.82 46.076 0.224 8.2 3.66 13.03
4/17/2022 11:15:00 AM 7.97 46.346 0.225 8.27 3.68 13.19
4/17/2022 11:30:00 AM 7.94 46.292 0.225 8.34 3.55 13.27
4/17/2022 11:45:00 AM 7.94 46.292 0.224 8.4 3.52 13.35
4/17/2022 12:00:00 PM 8.05 46.49 0.223 8.48 3.57 13.47
4/17/2022 12:15:00 PM 8.09 46.562 0.221 8.55 3.58 13.56
4/17/2022 12:30:00 PM 8.26 46.868 0.219 8.62 3.49 13.68
4/17/2022 12:45:00 PM 8.44 47.192 0.218 8.68 3.54 13.77
4/17/2022 1:00:00 PM 8.65 47.57 0.216 8.74 3.55 13.83
4/17/2022 1:15:00 PM 8.76 47.768 0.216 8.79 3.56 13.84
4/17/2022 1:30:00 PM 8.98 48.164 0.217 8.83 3.48 13.87
4/17/2022 1:45:00 PM 9.11 48.398 0.218 8.86 3.52 13.85
4/17/2022 2:00:00 PM 9.28 48.704 0.219 8.89 3.51 13.85
4/17/2022 2:15:00 PM 9.46 49.028 0.219 8.89 3.71 13.82
4/17/2022 2:30:00 PM 9.7 49.46 0.218 8.94 3.57 13.84
4/17/2022 2:45:00 PM 9.85 49.73 0.217 8.97 3.56 13.81
4/17/2022 3:00:00 PM 10 50 0.216 9 3.79 13.77
4/17/2022 3:15:00 PM 10.19 50.342 0.215 9.02 3.53 13.77
4/17/2022 3:30:00 PM 10.38 50.684 0.214 9.05 3.78 13.74
4/17/2022 3:45:00 PM 10.5 50.9 0.213 9.06 3.65 13.66
4/17/2022 4:00:00 PM 10.54 50.972 0.214 9.06 3.67 13.54
4/17/2022 4:15:00 PM 10.67 51.206 0.215 9.07 3.76 13.48
4/17/2022 4:30:00 PM 10.79 51.422 0.217 9.07 3.75 13.42
4/17/2022 4:45:00 PM 10.87 51.566 0.219 9.08 3.64 13.36
4/17/2022 5:00:00 PM 10.92 51.656 0.219 9.07 3.74 13.24
4/17/2022 5:15:00 PM 10.96 51.728 0.219 9.06 3.94 13.12
4/17/2022 5:30:00 PM 10.97 51.746 0.218 9.05 3.69 13
4/17/2022 5:45:00 PM 10.97 51.746 0.217 9.02 3.69 12.88
4/17/2022 6:00:00 PM 10.97 51.746 0.217 9.01 3.68 12.71
4/17/2022 6:15:00 PM 10.94 51.692 0.216 8.98 3.84 12.58
4/17/2022 6:30:00 PM 10.93 51.674 0.216 8.93 3.73 12.41
4/17/2022 6:45:00 PM 10.91 51.638 0.217 8.9 3.95 12.22
4/17/2022 7:00:00 PM 10.88 51.584 0.22 8.83 3.89 12.05
4/17/2022 7:15:00 PM 10.83 51.494 0.222 8.76 3.96 11.89
4/17/2022 7:30:00 PM 10.78 51.404 0.224 8.67 3.87 11.71
4/17/2022 7:45:00 PM 10.73 51.314 0.225 8.59 3.87 11.55
4/17/2022 8:00:00 PM 10.68 51.224 0.225 8.49 3.98 11.4
4/17/2022 8:15:00 PM 10.6 51.08 0.225 8.38 3.94 11.25
4/17/2022 8:30:00 PM 10.52 50.936 0.224 8.26 4.24 11.13
4/17/2022 8:45:00 PM 10.42 50.756 0.224 8.17 4.38 11.03
4/17/2022 9:00:00 PM 10.32 50.576 0.223 8.09 4.36 10.94
4/17/2022 9:15:00 PM 10.22 50.396 0.223 8.01 4.47 10.88
4/17/2022 9:30:00 PM 10.1 50.18 0.224 7.95 4.85 10.82
4/17/2022 9:45:00 PM 9.99 49.982 0.226 7.89 4.46 10.78
4/17/2022 10:00:00 PM 9.87 49.766 0.229 7.85 4.42 10.75
4/17/2022 10:15:00 PM 9.75 49.55 0.231 7.82 4.22 10.72
4/17/2022 10:30:00 PM 9.64 49.352 0.232 7.79 4.32 10.72
4/17/2022 10:45:00 PM 9.52 49.136 0.231 7.78 4.37 10.72
4/17/2022 11:00:00 PM 9.41 48.938 0.23 7.75 4.14 10.73
4/17/2022 11:15:00 PM 9.29 48.722 0.229 7.73 4.14 10.74
4/17/2022 11:30:00 PM 9.17 48.506 0.228 7.73 4.22 10.75
4/17/2022 11:45:00 PM 9.05 48.29 0.227 7.72 4.25 10.77
4/18/2022 12:00:00 AM 8.92 48.056 0.227 7.7 4.21 10.8
4/18/2022 12:15:00 AM 8.8 47.84 0.228 7.69 4.17 10.81
4/18/2022 12:30:00 AM 8.67 47.606 0.23 7.67 4.28 10.84
4/18/2022 12:45:00 AM 8.55 47.39 0.232 7.68 4.77 10.86
4/18/2022 1:00:00 AM 8.43 47.174 0.232 7.67 4.51 10.89
4/18/2022 1:15:00 AM 8.31 46.958 0.232 7.66 4.65 10.91
4/18/2022 1:30:00 AM 8.19 46.742 0.232 7.65 4.27 10.94
4/18/2022 1:45:00 AM 8.07 46.526 0.231 7.63 4.18 10.98
4/18/2022 2:00:00 AM 7.96 46.328 0.231 7.64 4.59 11
4/18/2022 2:15:00 AM 7.86 46.148 0.232 7.63 4.46 11.03
4/18/2022 2:30:00 AM 7.75 45.95 0.232 7.63 4.04 11.06
4/18/2022 2:45:00 AM 7.65 45.77 0.233 7.62 4.71 11.08
4/18/2022 3:00:00 AM 7.55 45.59 0.235 7.63 4.13 11.11
4/18/2022 3:15:00 AM 7.45 45.41 0.238 7.63 4.32 11.14
4/18/2022 3:30:00 AM 7.36 45.248 0.24 7.62 4.04 11.16
4/18/2022 3:45:00 AM 7.28 45.104 0.241 7.61 3.96 11.19
4/18/2022 4:00:00 AM 7.19 44.942 0.241 7.62 3.81 11.21
4/18/2022 4:15:00 AM 7.11 44.798 0.24 7.62 3.95 11.24
4/18/2022 4:30:00 AM 7.03 44.654 0.237 7.62 4 11.27
4/18/2022 4:45:00 AM 6.96 44.528 0.234 7.6 3.99 11.29
4/18/2022 5:00:00 AM 6.88 44.384 0.232 7.62 4.04 11.32
4/18/2022 5:15:00 AM 6.81 44.258 0.229 7.6 4.25 11.35
4/18/2022 5:30:00 AM 6.74 44.132 0.228 7.62 3.95 11.38
4/18/2022 5:45:00 AM 6.68 44.024 0.228 7.62 3.97 11.4
4/18/2022 6:00:00 AM 6.62 43.916 0.229 7.61 3.73 11.41
4/18/2022 6:15:00 AM 6.56 43.808 0.23 7.61 3.75 11.44
4/18/2022 6:30:00 AM 6.51 43.718 0.231 7.62 3.81 11.46
4/18/2022 6:45:00 AM 6.47 43.646 0.231 7.62 4.43 11.49
4/18/2022 7:00:00 AM 6.43 43.574 0.23 7.63 3.85 11.56
4/18/2022 7:15:00 AM 6.41 43.538 0.229 7.64 3.66 11.63
4/18/2022 7:30:00 AM 6.38 43.484 0.227 7.65 3.56 11.74
4/18/2022 7:45:00 AM 6.35 43.43 0.226 7.66 3.58 11.84
4/18/2022 8:00:00 AM 6.33 43.394 0.225 7.68 3.53 11.91
4/18/2022 8:15:00 AM 6.32 43.376 0.224 7.7 3.45 12.03
4/18/2022 8:30:00 AM 6.31 43.358 0.225 7.73 3.45 12.17
4/18/2022 8:45:00 AM 6.32 43.376 0.226 7.77 3.36 12.32
4/18/2022 9:00:00 AM 6.33 43.394 0.227 7.81 3.28 12.47
4/18/2022 9:15:00 AM 6.37 43.466 0.228 7.86 3.3 12.66
4/18/2022 9:30:00 AM 6.4 43.52 0.228 7.91 3.38 12.81
4/18/2022 9:45:00 AM 6.43 43.574 0.227 7.96 3.15 12.91
4/18/2022 10:00:00 AM 6.44 43.592 0.225 8 3.28 12.99
4/18/2022 10:15:00 AM 6.43 43.574 0.223 8.01 3.2 12.99
4/18/2022 10:30:00 AM 6.43 43.574 0.222 8.03 3.16 13.01
4/18/2022 10:45:00 AM 6.45 43.61 0.22 8.06 3.17 13.07
4/18/2022 11:00:00 AM 6.47 43.646 0.22 8.1 3.19 13.14
4/18/2022 11:15:00 AM 6.49 43.682 0.22 8.14 3.09 13.2
4/18/2022 11:30:00 AM 6.53 43.754 0.221 8.19 3.08 13.29
4/18/2022 11:45:00 AM 6.53 43.754 0.222 8.21 3.08 13.27
4/18/2022 12:00:00 PM 6.53 43.754 0.223 8.19 3.11 13.23
4/18/2022 12:15:00 PM 6.51 43.718 0.222 8.21 3.3 13.19
4/18/2022 12:30:00 PM 6.46 43.628 0.221 8.23 3.01 13.21
4/18/2022 12:45:00 PM 6.41 43.538 0.219 8.24 3.11 13.21
4/18/2022 1:00:00 PM 6.34 43.412 0.218 8.24 3.16 13.18
4/18/2022 1:15:00 PM 6.26 43.268 0.217 8.23 3.2 13.12
4/18/2022 1:30:00 PM 6.12 43.016 0.216 8.2 3.24 13.08
4/18/2022 1:45:00 PM 5.93 42.674 0.216 8.19 3.21 13.04
4/18/2022 2:00:00 PM 5.74 42.332 0.216 8.19 3.27 13.04
4/18/2022 2:15:00 PM 5.52 41.936 0.217 8.19 3.32 13.07
4/18/2022 2:30:00 PM 5.39 41.702 0.217 8.22 3.29 13.14
4/18/2022 2:45:00 PM 5.3 41.54 0.216 8.24 3.34 13.2
4/18/2022 3:00:00 PM 5.2 41.36 0.216 8.24 3.26 13.26
4/18/2022 3:15:00 PM 5.12 41.216 0.214 8.27 3.44 13.3
4/18/2022 3:30:00 PM 5.06 41.108 0.213 8.27 3.42 13.34
4/18/2022 3:45:00 PM 5.05 41.09 0.212 8.29 3.41 13.37
4/18/2022 4:00:00 PM 4.99 40.982 0.211 8.3 3.51 13.39
4/18/2022 4:15:00 PM 4.96 40.928 0.212 8.3 3.35 13.4
4/18/2022 4:30:00 PM 4.93 40.874 0.213 8.3 3.3 13.42
4/18/2022 4:45:00 PM 4.92 40.856 0.215 8.29 3.54 13.42
4/18/2022 5:00:00 PM 4.91 40.838 0.216 8.27 3.57 13.4
4/18/2022 5:15:00 PM 4.9 40.82 0.217 8.24 3.48 13.35
4/18/2022 5:30:00 PM 4.89 40.802 0.217 8.22 3.54 13.32
4/18/2022 5:45:00 PM 4.85 40.73 0.216 8.2 3.54 13.3
4/18/2022 6:00:00 PM 4.87 40.766 0.217 8.18 3.57 13.27
4/18/2022 6:15:00 PM 4.86 40.748 0.218 8.15 3.78 13.22
4/18/2022 6:30:00 PM 4.83 40.694 0.218 8.12 3.63 13.16
4/18/2022 6:45:00 PM 4.8 40.64 0.219 8.09 3.82 13.1
4/18/2022 7:00:00 PM 4.78 40.604 0.224 8.04 3.86 13.01
4/18/2022 7:15:00 PM 4.77 40.586 0.23 7.98 3.94 12.91
4/18/2022 7:30:00 PM 4.76 40.568 0.236 7.95 3.91 12.8
4/18/2022 7:45:00 PM 4.76 40.568 0.24 7.91 3.92 12.71
4/18/2022 8:00:00 PM 4.73 40.514 0.242 7.88 4.23 12.63
4/18/2022 8:15:00 PM 4.7 40.46 0.243 7.85 4.12 12.57
4/18/2022 8:30:00 PM 4.71 40.478 0.243 7.82 4.32 12.51
4/18/2022 8:45:00 PM 4.68 40.424 0.242 7.8 4.3 12.46
4/18/2022 9:00:00 PM 4.66 40.388 0.242 7.78 4.38 12.42
4/18/2022 9:15:00 PM 4.65 40.37 0.244 7.77 4.51 12.38
4/18/2022 9:30:00 PM 4.66 40.388 0.247 7.75 4.47 12.34
4/18/2022 9:45:00 PM 4.67 40.406 0.25 7.74 4.33 12.3
4/18/2022 10:00:00 PM 4.68 40.424 0.252 7.72 4.35 12.28
4/18/2022 10:15:00 PM 4.72 40.496 0.253 7.71 4.47 12.25
4/18/2022 10:30:00 PM 4.75 40.55 0.254 7.71 4.52 12.23
4/18/2022 10:45:00 PM 4.76 40.568 0.255 7.71 4.53 12.22
4/18/2022 11:00:00 PM 4.78 40.604 0.256 7.7 4.54 12.21
4/18/2022 11:15:00 PM 4.82 40.676 0.257 7.68 4.63 12.19
4/18/2022 11:30:00 PM 4.83 40.694 0.259 7.69 4.5 12.17
4/18/2022 11:45:00 PM 4.86 40.748 0.262 7.68 4.81 12.15
4/19/2022 12:00:00 AM 4.9 40.82 0.264 7.68 4.71 12.13
4/19/2022 12:15:00 AM 4.93 40.874 0.267 7.67 4.48 12.1
4/19/2022 12:30:00 AM 4.96 40.928 0.268 7.67 4.62 12.08
4/19/2022 12:45:00 AM 4.99 40.982 0.27 7.67 4.64 12.06
4/19/2022 1:00:00 AM 5.01 41.018 0.271 7.66 4.77 12.05
4/19/2022 1:15:00 AM 5.04 41.072 0.273 7.66 4.64 12.03
4/19/2022 1:30:00 AM 5.06 41.108 0.275 7.65 4.76 12.01
4/19/2022 1:45:00 AM 5.08 41.144 0.277 7.66 4.9 11.99
4/19/2022 2:00:00 AM 5.11 41.198 0.28 7.64 5.26 11.97
4/19/2022 2:15:00 AM 5.14 41.252 0.286 7.65 5.12 11.95
4/19/2022 2:30:00 AM 5.17 41.306 0.291 7.64 4.97 11.92
4/19/2022 2:45:00 AM 5.2 41.36 0.294 7.64 4.98 11.9
4/19/2022 3:00:00 AM 5.22 41.396 0.296 7.64 4.98 11.89
4/19/2022 3:15:00 AM 5.23 41.414 0.296 7.64 5.1 11.88
4/19/2022 3:30:00 AM 5.24 41.432 0.297 7.64 5.21 11.87
4/19/2022 3:45:00 AM 5.23 41.414 0.299 7.62 5.1 11.88
4/19/2022 4:00:00 AM 5.25 41.45 0.303 7.64 5.22 11.87
4/19/2022 4:15:00 AM 5.25 41.45 0.306 7.63 5.2 11.86
4/19/2022 4:30:00 AM 5.26 41.468 0.31 7.63 5.12 11.85
4/19/2022 4:45:00 AM 5.27 41.486 0.316 7.64 5.26 11.85
4/19/2022 5:00:00 AM 5.28 41.504 0.322 7.63 5.44 11.83
4/19/2022 5:15:00 AM 5.3 41.54 0.329 7.63 5.21 11.82
4/19/2022 5:30:00 AM 5.32 41.576 0.337 7.63 5.3 11.8
4/19/2022 5:45:00 AM 5.33 41.594 0.343 7.63 5.21 11.8
4/19/2022 6:00:00 AM 5.33 41.594 0.348 7.63 5.16 11.8
4/19/2022 6:15:00 AM 5.32 41.576 0.351 7.63 5.43 11.81
4/19/2022 6:30:00 AM 5.33 41.594 0.353 7.62 5.42 11.81
4/19/2022 6:45:00 AM 5.33 41.594 0.355 7.63 5.48 11.82
4/19/2022 7:00:00 AM 5.35 41.63 0.358 7.64 5.71 11.84
4/19/2022 7:15:00 AM 5.37 41.666 0.362 7.64 6.32 11.85
4/19/2022 7:30:00 AM 5.39 41.702 0.365 7.65 5.74 11.88
4/19/2022 7:45:00 AM 5.43 41.774 0.366 7.66 5.77 11.98
4/19/2022 8:00:00 AM 5.47 41.846 0.366 7.7 5.66 12.16
4/19/2022 8:15:00 AM 5.48 41.864 0.365 7.73 5.53 12.28
4/19/2022 8:30:00 AM 5.5 41.9 0.364 7.75 5.4 12.4
4/19/2022 8:45:00 AM 5.52 41.936 0.364 7.78 5.35 12.5
4/19/2022 9:00:00 AM 5.53 41.954 0.363 7.79 5.16 12.58
4/19/2022 9:15:00 AM 5.54 41.972 0.362 7.83 5.04 12.65
4/19/2022 9:30:00 AM 5.55 41.99 0.36 7.85 4.93 12.73
4/19/2022 9:45:00 AM 5.42 41.756 0.358 7.86 5.02 12.72
4/19/2022 10:00:00 AM 5.39 41.702 0.355 7.89 4.85 12.81
4/19/2022 10:15:00 AM 5.35 41.63 0.354 7.91 4.95 12.91
4/19/2022 10:30:00 AM 5.41 41.738 0.354 7.95 4.92 13.04
4/19/2022 10:45:00 AM 5.68 42.224 0.354 8.01 4.92 13.27
4/19/2022 11:00:00 AM 5.77 42.386 0.352 8.08 4.95 13.42
4/19/2022 11:15:00 AM 5.78 42.404 0.35 8.12 5.03 13.46
4/19/2022 11:30:00 AM 5.69 42.242 0.347 8.1 5.54 13.36
4/19/2022 11:45:00 AM 5.69 42.242 0.345 8.11 5.46 13.33
4/19/2022 12:00:00 PM 5.69 42.242 0.344 8.11 5.79 13.29
4/19/2022 12:15:00 PM 5.74 42.332 0.344 8.1 6.18 13.23
4/19/2022 12:30:00 PM 5.77 42.386 0.344 8.08 6.72 13.17
4/19/2022 12:45:00 PM 5.81 42.458 0.343 8.09 6.84 13.22
4/19/2022 1:00:00 PM 5.91 42.638 0.341 8.15 6.98 13.43
4/19/2022 1:15:00 PM 5.93 42.674 0.339 8.21 7.25 13.53
4/19/2022 1:30:00 PM 6.15 43.07 0.335 8.28 7.09 13.66
4/19/2022 1:45:00 PM 6.41 43.538 0.332 8.33 7.23 13.76
4/19/2022 2:00:00 PM 6.64 43.952 0.33 8.38 7.73 13.83
4/19/2022 2:15:00 PM 6.86 44.348 0.328 8.42 8.85 13.83
4/19/2022 2:30:00 PM 7.01 44.618 0.324 8.44 10.91 13.79
4/19/2022 2:45:00 PM 7.05 44.69 0.317 8.41 15.12 13.61
4/19/2022 3:00:00 PM 7.15 44.87 0.305 8.36 22.82 13.45
4/19/2022 3:15:00 PM 7.29 45.122 0.295 8.3 32.94 13.31
4/19/2022 3:30:00 PM 7.49 45.482 0.289 8.26 40.58 13.24
4/19/2022 3:45:00 PM 7.45 45.41 0.286 8.23 45.15 13.11
4/19/2022 4:00:00 PM 7.41 45.338 0.283 8.17 50.23 13.03
4/19/2022 4:15:00 PM 7.44 45.392 0.281 8.17 47.22 12.97
4/19/2022 4:30:00 PM 7.53 45.554 0.284 8.15 43.24 12.93
4/19/2022 4:45:00 PM 7.51 45.518 0.286 8.13 41.1 12.81
4/19/2022 5:00:00 PM 7.48 45.464 0.291 8.06 48.6 12.67
4/19/2022 5:15:00 PM 7.57 45.626 0.296 8.05 30.73 12.65
4/19/2022 5:30:00 PM 7.67 45.806 0.303 8.03 35.01 12.62
4/19/2022 5:45:00 PM 7.69 45.842 0.307 8.01 35.85 12.49
4/19/2022 6:00:00 PM 7.66 45.788 0.307 7.97 35.75 12.37
4/19/2022 6:15:00 PM 7.67 45.806 0.313 7.93 34.67 12.29
4/19/2022 6:30:00 PM 7.69 45.842 0.316 7.9 34.51 12.2
4/19/2022 6:45:00 PM 7.7 45.86 0.321 7.86 35.04 12.1
4/19/2022 7:00:00 PM 7.66 45.788 0.321 7.83 33.27 12
4/19/2022 7:15:00 PM 7.63 45.734 0.324 7.79 46.48 11.89
4/19/2022 7:30:00 PM 7.58 45.644 0.327 7.75 33.53 11.82
4/19/2022 7:45:00 PM 7.53 45.554 0.327 7.74 31.04 11.76
4/19/2022 8:00:00 PM 7.43 45.374 0.325 7.72 31.84 11.72
4/19/2022 8:15:00 PM 7.39 45.302 0.325 7.71 31.34 11.68
4/19/2022 8:30:00 PM 7.3 45.14 0.323 7.68 30.48 11.63
4/19/2022 8:45:00 PM 7.23 45.014 0.323 7.66 33.65 11.57
4/19/2022 9:00:00 PM 7.17 44.906 0.325 7.63 31.01 11.51
4/19/2022 9:15:00 PM 7.09 44.762 0.324 7.62 31.13 11.49
4/19/2022 9:30:00 PM 7 44.6 0.321 7.62 27.49 11.5
4/19/2022 9:45:00 PM 6.93 44.474 0.319 7.61 27.6 11.5
4/19/2022 10:00:00 PM 6.84 44.312 0.317 7.59 26.67 11.48
4/19/2022 10:15:00 PM 6.78 44.204 0.318 7.59 27.02 11.44
4/19/2022 10:30:00 PM 6.71 44.078 0.319 7.58 27.83 11.42
4/19/2022 10:45:00 PM 6.65 43.97 0.318 7.58 27.86 11.41
4/19/2022 11:00:00 PM 6.58 43.844 0.315 7.58 27.37 11.45
4/19/2022 11:15:00 PM 6.51 43.718 0.312 7.57 25.67 11.49
4/19/2022 11:30:00 PM 6.43 43.574 0.309 7.58 24.14 11.52
4/19/2022 11:45:00 PM 6.34 43.412 0.306 7.58 22.38 11.55
4/20/2022 12:00:00 AM 6.29 43.322 0.306 7.58 21.33 11.57
4/20/2022 12:15:00 AM 6.21 43.178 0.304 7.58 20.71 11.59
4/20/2022 12:30:00 AM 6.14 43.052 0.303 7.58 19.13 11.62
4/20/2022 12:45:00 AM 6.07 42.926 0.303 7.58 18.04 11.64
4/20/2022 1:00:00 AM 6.02 42.836 0.304 7.58 17.58 11.65
4/20/2022 1:15:00 AM 5.97 42.746 0.305 7.58 17.18 11.64
4/20/2022 1:30:00 AM 5.93 42.674 0.307 7.57 16.69 11.64
4/20/2022 1:45:00 AM 5.88 42.584 0.307 7.58 15.74 11.64
4/20/2022 2:00:00 AM 5.82 42.476 0.304 7.56 15.05 11.67
4/20/2022 2:15:00 AM 5.77 42.386 0.3 7.58 14.94 11.71
4/20/2022 2:30:00 AM 5.7 42.26 0.295 7.58 14.94 11.75
4/20/2022 2:45:00 AM 5.64 42.152 0.293 7.59 13.67 11.79
4/20/2022 3:00:00 AM 5.58 42.044 0.29 7.59 12.87 11.82
4/20/2022 3:15:00 AM 5.52 41.936 0.289 7.59 13.04 11.84
4/20/2022 3:30:00 AM 5.48 41.864 0.289 7.58 12.35 11.87
4/20/2022 3:45:00 AM 5.43 41.774 0.29 7.6 12 11.88
4/20/2022 4:00:00 AM 5.4 41.72 0.292 7.59 11.9 11.87
4/20/2022 4:15:00 AM 5.38 41.684 0.296 7.59 11.71 11.87
4/20/2022 4:30:00 AM 5.35 41.63 0.297 7.59 11.81 11.87
4/20/2022 4:45:00 AM 5.3 41.54 0.297 7.59 11.53 11.89
4/20/2022 5:00:00 AM 5.28 41.504 0.296 7.58 11.03 11.92
4/20/2022 5:15:00 AM 5.23 41.414 0.295 7.6 10.45 11.95
4/20/2022 5:30:00 AM 5.18 41.324 0.294 7.59 9.84 11.98
4/20/2022 5:45:00 AM 5.15 41.27 0.296 7.6 9.72 12
4/20/2022 6:00:00 AM 5.12 41.216 0.298 7.6 10.62 12.01
4/20/2022 6:15:00 AM 5.09 41.162 0.3 7.6 8.74 12.03
4/20/2022 6:30:00 AM 5.06 41.108 0.302 7.6 8.54 12.04
4/20/2022 6:45:00 AM 5.04 41.072 0.304 7.6 8.21 12.06
4/20/2022 7:00:00 AM 5.03 41.054 0.306 7.61 8.12 12.1
4/20/2022 7:15:00 AM 5.01 41.018 0.308 7.62 7.67 12.15
4/20/2022 7:30:00 AM 5 41 0.31 7.62 7.5 12.21
4/20/2022 7:45:00 AM 5.01 41.018 0.31 7.64 7.28 12.28
4/20/2022 8:00:00 AM 5.02 41.036 0.31 7.65 6.99 12.36
4/20/2022 8:15:00 AM 5.07 41.126 0.31 7.67 6.91 12.47
4/20/2022 8:30:00 AM 5.16 41.288 0.313 7.7 6.7 12.62
4/20/2022 8:45:00 AM 5.24 41.432 0.314 7.73 6.55 12.75
4/20/2022 9:00:00 AM 5.34 41.612 0.314 7.76 6.13 12.9
4/20/2022 9:15:00 AM 5.44 41.792 0.313 7.8 5.82 13.04
4/20/2022 9:30:00 AM 5.53 41.954 0.31 7.84 5.64 13.19
4/20/2022 9:45:00 AM 5.65 42.17 0.308 7.88 5.52 13.32
4/20/2022 10:00:00 AM 5.79 42.422 0.307 7.93 5.56 13.45
4/20/2022 10:15:00 AM 5.96 42.728 0.306 7.98 5.5 13.58
4/20/2022 10:30:00 AM 6.13 43.034 0.305 8.04 5.27 13.68
4/20/2022 10:45:00 AM 6.31 43.358 0.304 8.08 5.22 13.77
4/20/2022 11:00:00 AM 6.49 43.682 0.303 8.15 5.05 13.85
4/20/2022 11:15:00 AM 6.69 44.042 0.302 8.19 5.03 13.92
4/20/2022 11:30:00 AM 6.93 44.474 0.301 8.27 5.06 13.97
4/20/2022 11:45:00 AM 7.15 44.87 0.302 8.31 4.87 14.01
4/20/2022 12:00:00 PM 7.41 45.338 0.302 8.36 4.97 14.04
4/20/2022 12:15:00 PM 7.68 45.824 0.3 8.41 4.98 14.04
4/20/2022 12:30:00 PM 7.96 46.328 0.297 8.46 5.08 14.03
4/20/2022 12:45:00 PM 8.23 46.814 0.292 8.51 5.48 14
4/20/2022 1:00:00 PM 8.53 47.354 0.289 8.56 5.47 13.97
4/20/2022 1:15:00 PM 8.83 47.894 0.286 8.6 5.97 13.94
4/20/2022 1:30:00 PM 9.13 48.434 0.284 8.62 6.51 13.89
4/20/2022 1:45:00 PM 9.41 48.938 0.284 8.66 6.68 13.85
4/20/2022 2:00:00 PM 9.68 49.424 0.282 8.69 6.95 13.79
4/20/2022 2:15:00 PM 9.92 49.856 0.28 8.71 6.88 13.72
4/20/2022 2:30:00 PM 10.13 50.234 0.277 8.73 6.79 13.67
4/20/2022 2:45:00 PM 10.36 50.648 0.273 8.75 6.64 13.59
4/20/2022 3:00:00 PM 10.56 51.008 0.27 8.78 7.07 13.54
4/20/2022 3:15:00 PM 10.74 51.332 0.268 8.8 6.98 13.48
4/20/2022 3:30:00 PM 10.89 51.602 0.268 8.81 7.31 13.42
4/20/2022 3:45:00 PM 11.03 51.854 0.265 8.82 7.3 13.34
4/20/2022 4:00:00 PM 11.13 52.034 0.263 8.83 7.38 13.25
4/20/2022 4:15:00 PM 11.21 52.178 0.261 8.83 7.34 13.16
4/20/2022 4:30:00 PM 11.28 52.304 0.257 8.82 7.45 13.04
4/20/2022 4:45:00 PM 11.34 52.412 0.257 8.8 7.37 12.95
4/20/2022 5:00:00 PM 11.39 52.502 0.258 8.78 7.27 12.83
4/20/2022 5:15:00 PM 11.41 52.538 0.259 8.75 7.16 12.71
4/20/2022 5:30:00 PM 11.42 52.556 0.26 8.73 6.9 12.6
4/20/2022 5:45:00 PM 11.4 52.52 0.261 8.69 7.24 12.48
4/20/2022 6:00:00 PM 11.35 52.43 0.261 8.66 6.89 12.35
4/20/2022 6:15:00 PM 11.31 52.358 0.259 8.61 6.93 12.22
4/20/2022 6:30:00 PM 11.26 52.268 0.259 8.56 7 12.08
4/20/2022 6:45:00 PM 11.19 52.142 0.262 8.49 6.96 11.96
4/20/2022 7:00:00 PM 11.12 52.016 0.265 8.41 6.88 11.82
4/20/2022 7:15:00 PM 11.06 51.908 0.269 8.31 7.7 11.69
4/20/2022 7:30:00 PM 10.99 51.782 0.271 8.22 7.22 11.54
4/20/2022 7:45:00 PM 10.91 51.638 0.27 8.14 6.86 11.41
4/20/2022 8:00:00 PM 10.82 51.476 0.27 8.07 6.92 11.27
4/20/2022 8:15:00 PM 10.72 51.296 0.271 8 7.15 11.16
4/20/2022 8:30:00 PM 10.61 51.098 0.271 7.95 7.33 11.06
4/20/2022 8:45:00 PM 10.5 50.9 0.272 7.91 7.27 10.99
4/20/2022 9:00:00 PM 10.38 50.684 0.272 7.86 7.37 10.93
4/20/2022 9:15:00 PM 10.26 50.468 0.271 7.83 7.1 10.87
4/20/2022 9:30:00 PM 10.14 50.252 0.273 7.8 7.13 10.83
4/20/2022 9:45:00 PM 10.02 50.036 0.276 7.75 7.09 10.79
4/20/2022 10:00:00 PM 9.91 49.838 0.276 7.74 6.91 10.78
4/20/2022 10:15:00 PM 9.81 49.658 0.274 7.72 7.03 10.76
4/20/2022 10:30:00 PM 9.71 49.478 0.27 7.7 6.99 10.76
4/20/2022 10:45:00 PM 9.61 49.298 0.267 7.69 6.97 10.77
4/20/2022 11:00:00 PM 9.52 49.136 0.264 7.67 6.57 10.77
4/20/2022 11:15:00 PM 9.43 48.974 0.262 7.65 6.57 10.78
4/20/2022 11:30:00 PM 9.34 48.812 0.26 7.65 6.54 10.78
4/20/2022 11:45:00 PM 9.25 48.65 0.258 7.64 6.71 10.79
4/21/2022 12:00:00 AM 9.15 48.47 0.257 7.63 6.68 10.8
4/21/2022 12:15:00 AM 9.05 48.29 0.258 7.62 6.64 10.8
4/21/2022 12:30:00 AM 8.93 48.074 0.259 7.61 6.63 10.79
4/21/2022 12:45:00 AM 8.82 47.876 0.258 7.6 6.46 10.78
4/21/2022 1:00:00 AM 8.71 47.678 0.257 7.59 6.61 10.8
4/21/2022 1:15:00 AM 8.6 47.48 0.254 7.58 6.46 10.83
4/21/2022 1:30:00 AM 8.51 47.318 0.252 7.58 6.33 10.87
4/21/2022 1:45:00 AM 8.42 47.156 0.25 7.58 6.32 10.91
4/21/2022 2:00:00 AM 8.33 46.994 0.25 7.56 6.66 10.94
4/21/2022 2:15:00 AM 8.25 46.85 0.249 7.58 6.46 10.96
4/21/2022 2:30:00 AM 8.17 46.706 0.247 7.58 6.34 10.99
4/21/2022 2:45:00 AM 8.09 46.562 0.246 7.57 6.26 11.01
4/21/2022 3:00:00 AM 8.02 46.436 0.247 7.57 6.39 11.02
4/21/2022 3:15:00 AM 7.95 46.31 0.248 7.56 6.29 11.02
4/21/2022 3:30:00 AM 7.88 46.184 0.249 7.56 6.41 11.02
4/21/2022 3:45:00 AM 7.82 46.076 0.248 7.55 6.24 11.04
4/21/2022 4:00:00 AM 7.76 45.968 0.246 7.55 6.05 11.07
4/21/2022 4:15:00 AM 7.7 45.86 0.244 7.55 5.98 11.1
4/21/2022 4:30:00 AM 7.64 45.752 0.243 7.55 6.15 11.14
4/21/2022 4:45:00 AM 7.57 45.626 0.242 7.55 5.87 11.17
4/21/2022 5:00:00 AM 7.51 45.518 0.242 7.55 5.94 11.19
4/21/2022 5:15:00 AM 7.45 45.41 0.241 7.54 5.79 11.22
4/21/2022 5:30:00 AM 7.39 45.302 0.24 7.55 5.8 11.23
4/21/2022 5:45:00 AM 7.34 45.212 0.242 7.55 5.74 11.23
4/21/2022 6:00:00 AM 7.29 45.122 0.243 7.54 5.7 11.22
4/21/2022 6:15:00 AM 7.24 45.032 0.244 7.53 5.9 11.2
4/21/2022 6:30:00 AM 7.2 44.96 0.245 7.52 5.82 11.21
4/21/2022 6:45:00 AM 7.16 44.888 0.243 7.53 5.55 11.24
4/21/2022 7:00:00 AM 7.13 44.834 0.241 7.54 5.67 11.32
4/21/2022 7:15:00 AM 7.1 44.78 0.24 7.55 5.54 11.39
4/21/2022 7:30:00 AM 7.08 44.744 0.24 7.57 5.28 11.48
4/21/2022 7:45:00 AM 7.07 44.726 0.238 7.58 5.21 11.59
4/21/2022 8:00:00 AM 7.06 44.708 0.237 7.6 5 11.72
4/21/2022 8:15:00 AM 7.09 44.762 0.237 7.64 4.94 11.91
4/21/2022 8:30:00 AM 7.12 44.816 0.238 7.67 4.97 12.05
4/21/2022 8:45:00 AM 7.16 44.888 0.238 7.69 4.9 12.16
4/21/2022 9:00:00 AM 7.21 44.978 0.238 7.71 4.9 12.3
4/21/2022 9:15:00 AM 7.29 45.122 0.238 7.76 4.81 12.45
4/21/2022 9:30:00 AM 7.33 45.194 0.235 7.79 4.96 12.54
4/21/2022 9:45:00 AM 7.36 45.248 0.234 7.82 4.83 12.55
4/21/2022 10:00:00 AM 7.38 45.284 0.233 7.83 4.57 12.51
4/21/2022 10:15:00 AM 7.41 45.338 0.231 7.84 4.73 12.51
4/21/2022 10:30:00 AM 7.44 45.392 0.231 7.87 4.48 12.58
4/21/2022 10:45:00 AM 7.47 45.446 0.23 7.89 4.44 12.6
4/21/2022 11:00:00 AM 7.51 45.518 0.228 7.91 4.41 12.63
4/21/2022 11:15:00 AM 7.55 45.59 0.228 7.91 4.76 12.62
4/21/2022 11:30:00 AM 7.59 45.662 0.229 7.91 4.72 12.57
4/21/2022 11:45:00 AM 7.62 45.716 0.23 7.91 5.04 12.56
4/21/2022 12:00:00 PM 7.66 45.788 0.227 7.91 5.17 12.53
4/21/2022 12:15:00 PM 7.68 45.824 0.225 7.9 5.72 12.45
4/21/2022 12:30:00 PM 7.69 45.842 0.224 7.89 6.35 12.41
4/21/2022 12:45:00 PM 7.71 45.878 0.223 7.88 6.51 12.38
4/21/2022 1:00:00 PM 7.74 45.932 0.222 7.89 7.03 12.39
4/21/2022 1:15:00 PM 7.76 45.968 0.221 7.91 7.5 12.42
4/21/2022 1:30:00 PM 7.78 46.004 0.222 7.91 7.84 12.43
4/21/2022 1:45:00 PM 7.8 46.04 0.224 7.91 8.01 12.39
4/21/2022 2:00:00 PM 7.82 46.076 0.227 7.9 7.95 12.33
4/21/2022 2:15:00 PM 7.85 46.13 0.229 7.89 7.6 12.32
4/21/2022 2:30:00 PM 7.88 46.184 0.23 7.9 7.47 12.32
4/21/2022 2:45:00 PM 7.91 46.238 0.23 7.91 7.17 12.34
4/21/2022 3:00:00 PM 7.94 46.292 0.229 7.93 6.91 12.37
4/21/2022 3:15:00 PM 7.97 46.346 0.229 7.94 6.73 12.35
4/21/2022 3:30:00 PM 7.99 46.382 0.23 7.93 6.58 12.35
4/21/2022 3:45:00 PM 8.03 46.454 0.229 7.95 6.55 12.36
4/21/2022 4:00:00 PM 8.06 46.508 0.231 7.97 6.52 12.36
4/21/2022 4:15:00 PM 8.09 46.562 0.234 7.95 6.56 12.3
4/21/2022 4:30:00 PM 8.13 46.634 0.239 7.93 6.53 12.23
4/21/2022 4:45:00 PM 8.17 46.706 0.243 7.91 6.61 12.17
4/21/2022 5:00:00 PM 8.2 46.76 0.241 7.89 6.91 12.11
4/21/2022 5:15:00 PM 8.22 46.796 0.24 7.88 6.33 12.09
4/21/2022 5:30:00 PM 8.24 46.832 0.24 7.88 6.46 12.07
4/21/2022 5:45:00 PM 8.26 46.868 0.242 7.87 6.69 12.02
4/21/2022 6:00:00 PM 8.29 46.922 0.244 7.86 6.63 11.96
4/21/2022 6:15:00 PM 8.31 46.958 0.248 7.84 6.46 11.91
4/21/2022 6:30:00 PM 8.34 47.012 0.252 7.81 6.88 11.85
4/21/2022 6:45:00 PM 8.37 47.066 0.255 7.8 6.8 11.79
4/21/2022 7:00:00 PM 8.4 47.12 0.26 7.79 6.79 11.75
4/21/2022 7:15:00 PM 8.42 47.156 0.26 7.77 6.85 11.73
4/21/2022 7:30:00 PM 8.44 47.192 0.258 7.76 7.01 11.68
4/21/2022 7:45:00 PM 8.44 47.192 0.256 7.75 6.76 11.61
4/21/2022 8:00:00 PM 8.44 47.192 0.254 7.71 6.77 11.55
4/21/2022 8:15:00 PM 8.43 47.174 0.252 7.7 6.75 11.49
4/21/2022 8:30:00 PM 8.43 47.174 0.25 7.69 6.84 11.44
4/21/2022 8:45:00 PM 8.42 47.156 0.247 7.67 7.16 11.39
4/21/2022 9:00:00 PM 8.42 47.156 0.244 7.65 7.08 11.37
4/21/2022 9:15:00 PM 8.4 47.12 0.243 7.65 7.03 11.33
4/21/2022 9:30:00 PM 8.39 47.102 0.242 7.62 6.95 11.3
4/21/2022 9:45:00 PM 8.38 47.084 0.242 7.62 7.15 11.26
4/21/2022 10:00:00 PM 8.36 47.048 0.244 7.61 7.25 11.22
4/21/2022 10:15:00 PM 8.33 46.994 0.241 7.6 7.01 11.2
4/21/2022 10:30:00 PM 8.3 46.94 0.239 7.58 6.97 11.18
4/21/2022 10:45:00 PM 8.28 46.904 0.236 7.58 7.01 11.19
4/21/2022 11:00:00 PM 8.26 46.868 0.235 7.58 6.94 11.18
4/21/2022 11:15:00 PM 8.24 46.832 0.234 7.56 6.9 11.18
4/21/2022 11:30:00 PM 8.21 46.778 0.232 7.57 6.94 11.18
4/21/2022 11:45:00 PM 8.18 46.724 0.231 7.56 6.9 11.19
4/22/2022 12:00:00 AM 8.15 46.67 0.231 7.56 6.75 11.19
4/22/2022 12:15:00 AM 8.12 46.616 0.231 7.56 6.71 11.19
4/22/2022 12:30:00 AM 8.08 46.544 0.233 7.56 6.69 11.18
4/22/2022 12:45:00 AM 8.06 46.508 0.235 7.55 6.56 11.19
4/22/2022 1:00:00 AM 8.03 46.454 0.233 7.55 6.58 11.19
4/22/2022 1:15:00 AM 8.01 46.418 0.232 7.55 6.42 11.2
4/22/2022 1:30:00 AM 7.98 46.364 0.23 7.55 6.64 11.21
4/22/2022 1:45:00 AM 7.95 46.31 0.23 7.55 6.64 11.21
4/22/2022 2:00:00 AM 7.91 46.238 0.228 7.55 6.25 11.22
4/22/2022 2:15:00 AM 7.87 46.166 0.228 7.54 6.29 11.23
4/22/2022 2:30:00 AM 7.83 46.094 0.227 7.54 6.22 11.24
4/22/2022 2:45:00 AM 7.8 46.04 0.226 7.54 6.18 11.25
4/22/2022 3:00:00 AM 7.76 45.968 0.228 7.54 6.21 11.25
4/22/2022 3:15:00 AM 7.73 45.914 0.231 7.53 6.26 11.24
4/22/2022 3:30:00 AM 7.69 45.842 0.231 7.53 6.02 11.24
4/22/2022 3:45:00 AM 7.64 45.752 0.23 7.53 6.1 11.26
4/22/2022 4:00:00 AM 7.59 45.662 0.229 7.52 6.08 11.27
4/22/2022 4:15:00 AM 7.54 45.572 0.227 7.53 5.97 11.29
4/22/2022 4:30:00 AM 7.49 45.482 0.227 7.53 6.04 11.32
4/22/2022 4:45:00 AM 7.44 45.392 0.227 7.53 6.02 11.33
4/22/2022 5:00:00 AM 7.39 45.302 0.225 7.53 5.92 11.35
4/22/2022 5:15:00 AM 7.35 45.23 0.225 7.53 5.66 11.37
4/22/2022 5:30:00 AM 7.3 45.14 0.225 7.54 5.72 11.39
4/22/2022 5:45:00 AM 7.26 45.068 0.227 7.53 5.58 11.39
4/22/2022 6:00:00 AM 7.22 44.996 0.228 7.53 5.5 11.41
4/22/2022 6:15:00 AM 7.19 44.942 0.229 7.54 5.51 11.42
4/22/2022 6:30:00 AM 7.15 44.87 0.228 7.53 5.45 11.44
4/22/2022 6:45:00 AM 7.11 44.798 0.226 7.54 5.43 11.49
4/22/2022 7:00:00 AM 7.08 44.744 0.225 7.56 5.3 11.56
4/22/2022 7:15:00 AM 7.05 44.69 0.224 7.57 5.26 11.64
4/22/2022 7:30:00 AM 7.02 44.636 0.222 7.58 5.39 11.72
4/22/2022 7:45:00 AM 7.02 44.636 0.222 7.6 5.16 11.83
4/22/2022 8:00:00 AM 7.02 44.636 0.221 7.62 4.98 11.95
4/22/2022 8:15:00 AM 7.06 44.708 0.221 7.66 4.78 12.11
4/22/2022 8:30:00 AM 7.13 44.834 0.221 7.69 4.75 12.29
4/22/2022 8:45:00 AM 7.22 44.996 0.223 7.73 4.64 12.44
4/22/2022 9:00:00 AM 7.32 45.176 0.222 7.78 4.62 12.59
4/22/2022 9:15:00 AM 7.44 45.392 0.221 7.84 4.65 12.75
4/22/2022 9:30:00 AM 7.57 45.626 0.219 7.9 4.42 12.88
4/22/2022 9:45:00 AM 7.71 45.878 0.218 7.96 4.37 13.01
4/22/2022 10:00:00 AM 7.88 46.184 0.217 8.05 4.29 13.14
4/22/2022 10:15:00 AM 8.07 46.526 0.215 8.12 4.2 13.25
4/22/2022 10:30:00 AM 8.27 46.886 0.215 8.2 4.25 13.32
4/22/2022 10:45:00 AM 8.49 47.282 0.214 8.29 4.38 13.4
4/22/2022 11:00:00 AM 8.7 47.66 0.215 8.36 4.45 13.46
4/22/2022 11:15:00 AM 8.95 48.11 0.216 8.44 4.26 13.52
4/22/2022 11:30:00 AM 9.22 48.596 0.216 8.49 4.36 13.55
4/22/2022 11:45:00 AM 9.48 49.064 0.216 8.57 4.26 13.58
4/22/2022 12:00:00 PM 9.71 49.478 0.215 8.63 4.39 13.61
4/22/2022 12:15:00 PM 9.93 49.874 0.214 8.7 4.11 13.63
4/22/2022 12:30:00 PM 10.18 50.324 0.212 8.76 4.28 13.64
4/22/2022 12:45:00 PM 10.45 50.81 0.212 8.81 4.28 13.66
4/22/2022 1:00:00 PM 10.72 51.296 0.211 8.85 4.24 13.66
4/22/2022 1:15:00 PM 10.91 51.638 0.211 8.89 4.27 13.67
4/22/2022 1:30:00 PM 11.07 51.926 0.211 8.93 4.42 13.65
4/22/2022 1:45:00 PM 11.15 52.07 0.212 8.96 4.37 13.61
4/22/2022 2:00:00 PM 11.32 52.376 0.216 8.99 4.32 13.65
4/22/2022 2:15:00 PM 11.53 52.754 0.215 9.02 4.33 13.65
4/22/2022 2:30:00 PM 11.76 53.168 0.214 9.03 4.34 13.63
4/22/2022 2:45:00 PM 11.96 53.528 0.214 9.08 4.49 13.61
4/22/2022 3:00:00 PM 12.17 53.906 0.212 9.09 4.52 13.55
4/22/2022 3:15:00 PM 12.31 54.158 0.212 9.11 4.41 13.5
4/22/2022 3:30:00 PM 12.41 54.338 0.213 9.13 4.42 13.42
4/22/2022 3:45:00 PM 12.52 54.536 0.212 9.12 4.5 13.34
4/22/2022 4:00:00 PM 12.62 54.716 0.213 9.15 4.49 13.28
4/22/2022 4:15:00 PM 12.69 54.842 0.213 9.15 4.48 13.19
4/22/2022 4:30:00 PM 12.77 54.986 0.217 9.14 4.69 13.11
4/22/2022 4:45:00 PM 12.84 55.112 0.219 9.14 4.57 13.01
4/22/2022 5:00:00 PM 12.89 55.202 0.22 9.12 4.53 12.91
4/22/2022 5:15:00 PM 12.93 55.274 0.219 9.11 4.77 12.78
4/22/2022 5:30:00 PM 12.92 55.256 0.217 9.09 4.93 12.6
4/22/2022 5:45:00 PM 12.93 55.274 0.216 9.06 4.86 12.43
4/22/2022 6:00:00 PM 12.91 55.238 0.215 9.02 4.79 12.26
4/22/2022 6:15:00 PM 12.88 55.184 0.215 8.98 4.89 12.08
4/22/2022 6:30:00 PM 12.86 55.148 0.215 8.93 4.78 11.91
4/22/2022 6:45:00 PM 12.82 55.076 0.214 8.87 4.9 11.7
4/22/2022 7:00:00 PM 12.77 54.986 0.216 8.77 4.91 11.51
4/22/2022 7:15:00 PM 12.72 54.896 0.218 8.66 5.04 11.33
4/22/2022 7:30:00 PM 12.65 54.77 0.221 8.53 5.04 11.16
4/22/2022 7:45:00 PM 12.57 54.626 0.222 8.4 5.12 10.98
4/22/2022 8:00:00 PM 12.49 54.482 0.221 8.26 5.03 10.83
4/22/2022 8:15:00 PM 12.4 54.32 0.219 8.14 5.21 10.68
4/22/2022 8:30:00 PM 12.32 54.176 0.218 8.05 5.27 10.57
4/22/2022 8:45:00 PM 12.23 54.014 0.217 7.97 5.47 10.48
4/22/2022 9:00:00 PM 12.13 53.834 0.217 7.9 5.61 10.41
4/22/2022 9:15:00 PM 12.03 53.654 0.217 7.85 5.7 10.36
4/22/2022 9:30:00 PM 11.92 53.456 0.216 7.8 5.78 10.32
4/22/2022 9:45:00 PM 11.8 53.24 0.217 7.77 5.85 10.29
4/22/2022 10:00:00 PM 11.68 53.024 0.217 7.73 5.73 10.27
4/22/2022 10:15:00 PM 11.57 52.826 0.218 7.7 5.94 10.25
4/22/2022 10:30:00 PM 11.46 52.628 0.22 7.68 5.99 10.25
4/22/2022 10:45:00 PM 11.36 52.448 0.22 7.66 5.83 10.25
4/22/2022 11:00:00 PM 11.27 52.286 0.221 7.65 5.74 10.25
4/22/2022 11:15:00 PM 11.18 52.124 0.219 7.63 5.48 10.26
4/22/2022 11:30:00 PM 11.1 51.98 0.217 7.62 5.5 10.26
4/22/2022 11:45:00 PM 11.02 51.836 0.217 7.6 5.68 10.27
4/23/2022 12:00:00 AM 10.95 51.71 0.216 7.59 5.5 10.28
4/23/2022 12:15:00 AM 10.87 51.566 0.216 7.59 5.56 10.29
4/23/2022 12:30:00 AM 10.79 51.422 0.216 7.57 5.56 10.28
4/23/2022 12:45:00 AM 10.71 51.278 0.217 7.56 5.5 10.29
4/23/2022 1:00:00 AM 10.63 51.134 0.219 7.55 5.57 10.3
4/23/2022 1:15:00 AM 10.55 50.99 0.22 7.55 5.51 10.31
4/23/2022 1:30:00 AM 10.49 50.882 0.221 7.54 5.37 10.32
4/23/2022 1:45:00 AM 10.42 50.756 0.22 7.54 5.33 10.33
4/23/2022 2:00:00 AM 10.36 50.648 0.219 7.52 5.19 10.35
4/23/2022 2:15:00 AM 10.3 50.54 0.218 7.53 5.32 10.36
4/23/2022 2:30:00 AM 10.24 50.432 0.217 7.53 5.3 10.37
4/23/2022 2:45:00 AM 10.18 50.324 0.216 7.53 5.44 10.38
4/23/2022 3:00:00 AM 10.12 50.216 0.216 7.52 5.38 10.4
4/23/2022 3:15:00 AM 10.06 50.108 0.216 7.52 5.38 10.42
4/23/2022 3:30:00 AM 10 50 0.218 7.52 5.32 10.44
4/23/2022 3:45:00 AM 9.95 49.91 0.219 7.52 5.18 10.45
4/23/2022 4:00:00 AM 9.89 49.802 0.221 7.51 5.32 10.46
4/23/2022 4:15:00 AM 9.84 49.712 0.221 7.52 5.43 10.48
4/23/2022 4:30:00 AM 9.79 49.622 0.219 7.52 5.32 10.5
4/23/2022 4:45:00 AM 9.75 49.55 0.218 7.52 5.75 10.51
4/23/2022 5:00:00 AM 9.71 49.478 0.217 7.51 5.22 10.53
4/23/2022 5:15:00 AM 9.67 49.406 0.217 7.51 5.52 10.54
4/23/2022 5:30:00 AM 9.62 49.316 0.216 7.52 5.23 10.55
4/23/2022 5:45:00 AM 9.58 49.244 0.216 7.52 5.02 10.56
4/23/2022 6:00:00 AM 9.54 49.172 0.216 7.51 5.13 10.58
4/23/2022 6:15:00 AM 9.5 49.1 0.217 7.52 5.05 10.59
4/23/2022 6:30:00 AM 9.46 49.028 0.219 7.52 5.18 10.6
4/23/2022 6:45:00 AM 9.42 48.956 0.219 7.52 5.04 10.63
4/23/2022 7:00:00 AM 9.39 48.902 0.218 7.52 4.96 10.65
4/23/2022 7:15:00 AM 9.36 48.848 0.217 7.51 4.87 10.68
4/23/2022 7:30:00 AM 9.34 48.812 0.216 7.54 4.81 10.73
4/23/2022 7:45:00 AM 9.31 48.758 0.215 7.55 4.94 10.79
4/23/2022 8:00:00 AM 9.29 48.722 0.214 7.56 4.72 10.83
4/23/2022 8:15:00 AM 9.27 48.686 0.214 7.56 4.83 10.89
4/23/2022 8:30:00 AM 9.25 48.65 0.212 7.57 4.49 10.96
4/23/2022 8:45:00 AM 9.24 48.632 0.212 7.59 4.54 11.03
4/23/2022 9:00:00 AM 9.23 48.614 0.214 7.6 4.37 11.07
4/23/2022 9:15:00 AM 9.22 48.596 0.216 7.61 4.62 11.12
4/23/2022 9:30:00 AM 9.22 48.596 0.215 7.64 4.42 11.3
4/23/2022 9:45:00 AM 9.23 48.614 0.213 7.67 4.16 11.45
4/23/2022 10:00:00 AM 9.23 48.614 0.212 7.72 4.36 11.58
4/23/2022 10:15:00 AM 9.23 48.614 0.211 7.73 4.29 11.58
4/23/2022 10:30:00 AM 9.24 48.632 0.209 7.77 4.27 11.75
4/23/2022 10:45:00 AM 9.28 48.704 0.208 7.83 4.12 11.99
4/23/2022 11:00:00 AM 9.31 48.758 0.207 7.92 4.27 12.19
4/23/2022 11:15:00 AM 9.36 48.848 0.207 8.01 4.25 12.39
4/23/2022 11:30:00 AM 9.42 48.956 0.208 8.1 4.35 12.55
4/23/2022 11:45:00 AM 9.54 49.172 0.21 8.21 4.23 12.74
4/23/2022 12:00:00 PM 9.65 49.37 0.212 8.32 4.14 12.92
4/23/2022 12:15:00 PM 9.67 49.406 0.212 8.33 4.62 12.85
4/23/2022 12:30:00 PM 9.74 49.532 0.211 8.39 4.23 12.88
4/23/2022 12:45:00 PM 9.8 49.64 0.209 8.46 4.37 12.94
4/23/2022 1:00:00 PM 9.91 49.838 0.207 8.56 4.19 13.09
4/23/2022 1:15:00 PM 10.1 50.18 0.205 8.67 4.33 13.27
4/23/2022 1:30:00 PM 10.26 50.468 0.203 8.76 4.45 13.37
4/23/2022 1:45:00 PM 10.44 50.792 0.202 8.83 4.42 13.42
4/23/2022 2:00:00 PM 10.66 51.188 0.201 8.87 4.47 13.45
4/23/2022 2:15:00 PM 10.9 51.62 0.202 8.91 4.39 13.47
4/23/2022 2:30:00 PM 11.11 51.998 0.203 8.95 4.67 13.5
4/23/2022 2:45:00 PM 11.31 52.358 0.202 8.98 4.68 13.49
4/23/2022 3:00:00 PM 11.47 52.646 0.201 9.01 4.39 13.47
4/23/2022 3:15:00 PM 11.66 52.988 0.2 9.04 4.58 13.46
4/23/2022 3:30:00 PM 11.88 53.384 0.2 9.08 4.46 13.44
4/23/2022 3:45:00 PM 12.06 53.708 0.199 9.1 4.55 13.4
4/23/2022 4:00:00 PM 12.22 53.996 0.199 9.1 4.82 13.31
4/23/2022 4:15:00 PM 12.37 54.266 0.198 9.11 4.43 13.21
4/23/2022 4:30:00 PM 12.48 54.464 0.198 9.11 4.59 13.1
4/23/2022 4:45:00 PM 12.57 54.626 0.2 9.1 4.66 13
4/23/2022 5:00:00 PM 12.64 54.752 0.202 9.07 4.62 12.89
4/23/2022 5:15:00 PM 12.72 54.896 0.203 9.07 4.83 12.76
4/23/2022 5:30:00 PM 12.77 54.986 0.203 9.05 4.61 12.61
4/23/2022 5:45:00 PM 12.81 55.058 0.202 9.03 4.67 12.46
4/23/2022 6:00:00 PM 12.84 55.112 0.201 8.99 4.73 12.28
4/23/2022 6:15:00 PM 12.84 55.112 0.201 8.96 4.84 12.13
4/23/2022 6:30:00 PM 12.84 55.112 0.201 8.91 4.82 11.95
4/23/2022 6:45:00 PM 12.83 55.094 0.201 8.85 4.8 11.77
4/23/2022 7:00:00 PM 12.82 55.076 0.2 8.77 4.78 11.59
4/23/2022 7:15:00 PM 12.79 55.022 0.201 8.69 5.13 11.4
4/23/2022 7:30:00 PM 12.77 54.986 0.202 8.59 4.93 11.22
4/23/2022 7:45:00 PM 12.73 54.914 0.205 8.47 4.96 11.05
4/23/2022 8:00:00 PM 12.69 54.842 0.206 8.33 5.15 10.87
4/23/2022 8:15:00 PM 12.65 54.77 0.206 8.19 5.23 10.69
4/23/2022 8:30:00 PM 12.59 54.662 0.205 8.08 5.38 10.55
4/23/2022 8:45:00 PM 12.53 54.554 0.204 8 5.64 10.44
4/23/2022 9:00:00 PM 12.46 54.428 0.204 7.93 5.93 10.35
4/23/2022 9:15:00 PM 12.4 54.32 0.203 7.87 5.79 10.28
4/23/2022 9:30:00 PM 12.32 54.176 0.202 7.82 5.89 10.21
4/23/2022 9:45:00 PM 12.23 54.014 0.202 7.77 5.83 10.17
4/23/2022 10:00:00 PM 12.15 53.87 0.202 7.74 6.07 10.13
4/23/2022 10:15:00 PM 12.06 53.708 0.204 7.71 6.01 10.11
4/23/2022 10:30:00 PM 11.96 53.528 0.207 7.68 6.06 10.09
4/23/2022 10:45:00 PM 11.87 53.366 0.207 7.66 6.17 10.08
4/23/2022 11:00:00 PM 11.78 53.204 0.206 7.65 6.16 10.08
4/23/2022 11:15:00 PM 11.69 53.042 0.205 7.63 5.95 10.08
4/23/2022 11:30:00 PM 11.61 52.898 0.204 7.62 5.81 10.08
4/23/2022 11:45:00 PM 11.53 52.754 0.203 7.6 5.67 10.08
4/24/2022 12:00:00 AM 11.44 52.592 0.203 7.59 5.6 10.08
4/24/2022 12:15:00 AM 11.34 52.412 0.202 7.58 5.56 10.1
4/24/2022 12:30:00 AM 11.25 52.25 0.202 7.56 5.57 10.11
4/24/2022 12:45:00 AM 11.15 52.07 0.202 7.56 5.67 10.12
4/24/2022 1:00:00 AM 11.05 51.89 0.205 7.55 5.58 10.13
4/24/2022 1:15:00 AM 10.95 51.71 0.206 7.53 5.81 10.13
4/24/2022 1:30:00 AM 10.86 51.548 0.206 7.54 5.49 10.15
4/24/2022 1:45:00 AM 10.77 51.386 0.205 7.53 5.52 10.17
4/24/2022 2:00:00 AM 10.69 51.242 0.204 7.52 5.55 10.19
4/24/2022 2:15:00 AM 10.61 51.098 0.203 7.51 5.75 10.2
4/24/2022 2:30:00 AM 10.54 50.972 0.203 7.51 5.48 10.21
4/24/2022 2:45:00 AM 10.46 50.828 0.202 7.5 5.46 10.23
4/24/2022 3:00:00 AM 10.37 50.666 0.201 7.48 5.37 10.25
4/24/2022 3:15:00 AM 10.29 50.522 0.202 7.49 5.65 10.27
4/24/2022 3:30:00 AM 10.21 50.378 0.203 7.49 5.52 10.28
4/24/2022 3:45:00 AM 10.14 50.252 0.205 7.49 5.4 10.3
4/24/2022 4:00:00 AM 10.06 50.108 0.206 7.49 5.51 10.32
4/24/2022 4:15:00 AM 9.99 49.982 0.206 7.48 5.38 10.34
4/24/2022 4:30:00 AM 9.92 49.856 0.205 7.48 5.67 10.37
4/24/2022 4:45:00 AM 9.85 49.73 0.204 7.48 5.31 10.39
4/24/2022 5:00:00 AM 9.79 49.622 0.203 7.48 5.33 10.41
4/24/2022 5:15:00 AM 9.73 49.514 0.203 7.48 5.35 10.42
4/24/2022 5:30:00 AM 9.67 49.406 0.202 7.47 5.17 10.45
4/24/2022 5:45:00 AM 9.6 49.28 0.202 7.47 5.17 10.47
4/24/2022 6:00:00 AM 9.54 49.172 0.202 7.45 5.08 10.49
4/24/2022 6:15:00 AM 9.48 49.064 0.203 7.47 5.43 10.51
4/24/2022 6:30:00 AM 9.42 48.956 0.205 7.47 5.06 10.54
4/24/2022 6:45:00 AM 9.37 48.866 0.206 7.47 4.96 10.61
4/24/2022 7:00:00 AM 9.33 48.794 0.206 7.5 4.91 10.72
4/24/2022 7:15:00 AM 9.29 48.722 0.205 7.52 4.73 10.84
4/24/2022 7:30:00 AM 9.27 48.686 0.204 7.54 4.68 10.96
4/24/2022 7:45:00 AM 9.25 48.65 0.203 7.57 4.52 11.09
4/24/2022 8:00:00 AM 9.24 48.632 0.202 7.6 4.51 11.25
4/24/2022 8:15:00 AM 9.26 48.668 0.2 7.64 4.46 11.44
4/24/2022 8:30:00 AM 9.3 48.74 0.199 7.69 4.36 11.66
4/24/2022 8:45:00 AM 9.35 48.83 0.199 7.75 4.35 11.87
4/24/2022 9:00:00 AM 9.42 48.956 0.2 7.83 4.18 12.05
4/24/2022 9:15:00 AM 9.5 49.1 0.201 7.91 4.18 12.23
4/24/2022 9:30:00 AM 9.6 49.28 0.202 8 3.98 12.41
4/24/2022 9:45:00 AM 9.72 49.496 0.201 8.1 3.97 12.57
4/24/2022 10:00:00 AM 9.87 49.766 0.199 8.2 4 12.73
4/24/2022 10:15:00 AM 10.03 50.054 0.198 8.32 4.09 12.87
4/24/2022 10:30:00 AM 10.21 50.378 0.197 8.42 4.04 12.97
4/24/2022 10:45:00 AM 10.4 50.72 0.195 8.51 4.17 13.08
4/24/2022 11:00:00 AM 10.61 51.098 0.195 8.61 4.02 13.16
4/24/2022 11:15:00 AM 10.83 51.494 0.194 8.68 4.05 13.22
4/24/2022 11:30:00 AM 11.06 51.908 0.194 8.75 4.18 13.28
4/24/2022 11:45:00 AM 11.32 52.376 0.195 8.82 4.06 13.34
4/24/2022 12:00:00 PM 11.58 52.844 0.196 8.86 4.08 13.38
4/24/2022 12:15:00 PM 11.87 53.366 0.196 8.93 4.04 13.41
4/24/2022 12:30:00 PM 12.06 53.708 0.195 8.96 4.17 13.34
4/24/2022 12:45:00 PM 12.32 54.176 0.195 8.99 4.17 13.35
4/24/2022 1:00:00 PM 12.59 54.662 0.194 9.03 4.02 13.36
4/24/2022 1:15:00 PM 12.88 55.184 0.193 9.08 4.08 13.35
4/24/2022 1:30:00 PM 13.12 55.616 0.192 9.11 4.22 13.3
4/24/2022 1:45:00 PM 13.3 55.94 0.192 9.12 4.15 13.2
4/24/2022 2:00:00 PM 13.44 56.192 0.192 9.12 4.57 13.15
4/24/2022 2:15:00 PM 13.66 56.588 0.193 9.13 4.21 13.06
4/24/2022 2:30:00 PM 13.89 57.002 0.194 9.15 4.17 13.05
4/24/2022 2:45:00 PM 14.05 57.29 0.195 9.16 4.13 12.98
4/24/2022 3:00:00 PM 14.3 57.74 0.195 9.19 4.5 13.03
4/24/2022 3:15:00 PM 14.5 58.1 0.194 9.19 4.21 13.03
4/24/2022 3:30:00 PM 14.7 58.46 0.194 9.22 4.28 12.95
4/24/2022 3:45:00 PM 14.9 58.82 0.193 9.24 4.23 12.86
4/24/2022 4:00:00 PM 15.14 59.252 0.193 9.24 4.42 12.84
4/24/2022 4:15:00 PM 15.37 59.666 0.192 9.27 4.33 12.75
4/24/2022 4:30:00 PM 15.53 59.954 0.193 9.27 4.51 12.63
4/24/2022 4:45:00 PM 15.61 60.098 0.194 9.25 4.45 12.43
4/24/2022 5:00:00 PM 15.74 60.332 0.196 9.24 4.66 12.33
4/24/2022 5:15:00 PM 15.82 60.476 0.198 9.22 4.53 12.2
4/24/2022 5:30:00 PM 15.88 60.584 0.2 9.21 4.74 12.06
4/24/2022 5:45:00 PM 15.9 60.62 0.2 9.18 4.48 11.89
4/24/2022 6:00:00 PM 15.93 60.674 0.199 9.15 4.62 11.72
4/24/2022 6:15:00 PM 15.91 60.638 0.199 9.11 4.76 11.51
4/24/2022 6:30:00 PM 15.91 60.638 0.199 9.07 4.96 11.3
4/24/2022 6:45:00 PM 15.91 60.638 0.199 9.01 4.83 11.07
4/24/2022 7:00:00 PM 15.89 60.602 0.198 8.95 4.75 10.87
4/24/2022 7:15:00 PM 15.85 60.53 0.198 8.87 4.67 10.64
4/24/2022 7:30:00 PM 15.81 60.458 0.199 8.76 5.01 10.42
4/24/2022 7:45:00 PM 15.76 60.368 0.201 8.64 4.87 10.21
4/24/2022 8:00:00 PM 15.7 60.26 0.203 8.49 4.94 10
4/24/2022 8:15:00 PM 15.62 60.116 0.204 8.33 5.06 9.82
4/24/2022 8:30:00 PM 15.54 59.972 0.204 8.19 5.07 9.68
4/24/2022 8:45:00 PM 15.46 59.828 0.203 8.06 5.37 9.55
4/24/2022 9:00:00 PM 15.37 59.666 0.203 7.97 5.33 9.46
4/24/2022 9:15:00 PM 15.27 59.486 0.202 7.88 5.43 9.38
4/24/2022 9:30:00 PM 15.16 59.288 0.202 7.83 5.46 9.31
4/24/2022 9:45:00 PM 15.04 59.072 0.201 7.78 5.67 9.27
4/24/2022 10:00:00 PM 14.92 58.856 0.201 7.73 5.71 9.24
4/24/2022 10:15:00 PM 14.79 58.622 0.202 7.69 5.41 9.22
4/24/2022 10:30:00 PM 14.67 58.406 0.205 7.66 5.57 9.21
4/24/2022 10:45:00 PM 14.55 58.19 0.207 7.63 5.37 9.2
4/24/2022 11:00:00 PM 14.44 57.992 0.208 7.62 5.34 9.2
4/24/2022 11:15:00 PM 14.35 57.83 0.207 7.6 5.22 9.2
4/24/2022 11:30:00 PM 14.26 57.668 0.207 7.58 5.46 9.2
4/24/2022 11:45:00 PM 14.18 57.524 0.206 7.57 5.5 9.2
4/25/2022 12:00:00 AM 14.09 57.362 0.205 7.55 5.39 9.2
4/25/2022 12:15:00 AM 13.99 57.182 0.204 7.54 5.53 9.21
4/25/2022 12:30:00 AM 13.89 57.002 0.204 7.51 5.53 9.23
4/25/2022 12:45:00 AM 13.79 56.822 0.204 7.52 5.56 9.23
4/25/2022 1:00:00 AM 13.68 56.624 0.205 7.49 5.61 9.26
4/25/2022 1:15:00 AM 13.57 56.426 0.207 7.5 5.46 9.27
4/25/2022 1:30:00 AM 13.46 56.228 0.208 7.5 5.8 9.28
4/25/2022 1:45:00 AM 13.35 56.03 0.209 7.5 5.6 9.3
4/25/2022 2:00:00 AM 13.26 55.868 0.209 7.49 5.52 9.32
4/25/2022 2:15:00 AM 13.17 55.706 0.208 7.49 5.42 9.34
4/25/2022 2:30:00 AM 13.09 55.562 0.207 7.46 5.67 9.36
4/25/2022 2:45:00 AM 13 55.4 0.206 7.48 5.59 9.38
4/25/2022 3:00:00 AM 12.91 55.238 0.206 7.47 5.32 9.4
4/25/2022 3:15:00 AM 12.83 55.094 0.205 7.48 5.25 9.42
4/25/2022 3:30:00 AM 12.73 54.914 0.206 7.47 5.59 9.44
4/25/2022 3:45:00 AM 12.65 54.77 0.207 7.47 5.44 9.47
4/25/2022 4:00:00 AM 12.56 54.608 0.209 7.47 5.36 9.49
4/25/2022 4:15:00 AM 12.47 54.446 0.21 7.47 5.33 9.51
4/25/2022 4:30:00 AM 12.39 54.302 0.21 7.47 5.25 9.53
4/25/2022 4:45:00 AM 12.31 54.158 0.21 7.46 5.12 9.56
4/25/2022 5:00:00 AM 12.23 54.014 0.209 7.46 5.1 9.58
4/25/2022 5:15:00 AM 12.16 53.888 0.209 7.46 5.34 9.6
4/25/2022 5:30:00 AM 12.09 53.762 0.208 7.43 5.12 9.63
4/25/2022 5:45:00 AM 12.01 53.618 0.207 7.45 5.11 9.65
4/25/2022 6:00:00 AM 11.93 53.474 0.206 7.45 5.11 9.67
4/25/2022 6:15:00 AM 11.85 53.33 0.207 7.45 5.08 9.7
4/25/2022 6:30:00 AM 11.77 53.186 0.208 7.45 4.95 9.73
4/25/2022 6:45:00 AM 11.7 53.06 0.209 7.45 4.93 9.79
4/25/2022 7:00:00 AM 11.63 52.934 0.21 7.46 4.8 9.87
4/25/2022 7:15:00 AM 11.57 52.826 0.21 7.48 4.78 9.98
4/25/2022 7:30:00 AM 11.53 52.754 0.21 7.5 4.8 10.11
4/25/2022 7:45:00 AM 11.5 52.7 0.208 7.52 4.71 10.25
4/25/2022 8:00:00 AM 11.48 52.664 0.207 7.53 4.48 10.44
4/25/2022 8:15:00 AM 11.48 52.664 0.206 7.59 4.39 10.67
4/25/2022 8:30:00 AM 11.51 52.718 0.204 7.67 4.39 10.96
4/25/2022 8:45:00 AM 11.54 52.772 0.203 7.75 4.46 11.22
4/25/2022 9:00:00 AM 11.59 52.862 0.203 7.84 4.26 11.45
4/25/2022 9:15:00 AM 11.66 52.988 0.203 7.91 4.27 11.66
4/25/2022 9:30:00 AM 11.74 53.132 0.205 8.04 4.23 11.88
4/25/2022 9:45:00 AM 11.84 53.312 0.205 8.14 4.12 12.08
4/25/2022 10:00:00 AM 11.96 53.528 0.204 8.27 4.06 12.27
4/25/2022 10:15:00 AM 12.11 53.798 0.203 8.4 4.12 12.44
4/25/2022 10:30:00 AM 12.26 54.068 0.202 8.5 4.11 12.58
4/25/2022 10:45:00 AM 12.44 54.392 0.2 8.62 4.02 12.71
4/25/2022 11:00:00 AM 12.61 54.698 0.199 8.7 4.01 12.8
4/25/2022 11:15:00 AM 12.8 55.04 0.197 8.78 4.06 12.9
4/25/2022 11:30:00 AM 13.01 55.418 0.197 8.83 4.06 12.97
4/25/2022 11:45:00 AM 13.21 55.778 0.197 8.9 4.24 13.04
4/25/2022 12:00:00 PM 13.45 56.21 0.197 8.95 4.13 13.09
4/25/2022 12:15:00 PM 13.7 56.66 0.199 9 4.12 13.16
4/25/2022 12:30:00 PM 13.94 57.092 0.199 9.04 4.07 13.18
4/25/2022 12:45:00 PM 14.2 57.56 0.199 9.08 4.2 13.2
4/25/2022 1:00:00 PM 14.45 58.01 0.198 9.12 4.31 13.2
4/25/2022 1:15:00 PM 14.71 58.478 0.197 9.15 4.13 13.21
4/25/2022 1:30:00 PM 14.97 58.946 0.196 9.19 4.15 13.18
4/25/2022 1:45:00 PM 15.21 59.378 0.195 9.19 4.29 13.16
4/25/2022 2:00:00 PM 15.45 59.81 0.195 9.23 4.16 13.11
4/25/2022 2:15:00 PM 15.67 60.206 0.195 9.23 4.33 13.08
4/25/2022 2:30:00 PM 15.89 60.602 0.196 9.26 4.37 13.01
4/25/2022 2:45:00 PM 16.08 60.944 0.198 9.27 4.32 12.96
4/25/2022 3:00:00 PM 16.27 61.286 0.199 9.28 4.37 12.9
4/25/2022 3:15:00 PM 16.46 61.628 0.199 9.28 4.7 12.82
4/25/2022 3:30:00 PM 16.61 61.898 0.199 9.3 4.55 12.74
4/25/2022 3:45:00 PM 16.73 62.114 0.198 9.3 4.79 12.64
4/25/2022 4:00:00 PM 16.8 62.24 0.198 9.29 4.81 12.48
4/25/2022 4:15:00 PM 16.91 62.438 0.197 9.29 4.81 12.36
4/25/2022 4:30:00 PM 16.93 62.474 0.198 9.29 5.12 12.24
4/25/2022 4:45:00 PM 17 62.6 0.197 9.28 4.66 12.16
4/25/2022 5:00:00 PM 17.04 62.672 0.198 9.26 4.65 11.97
4/25/2022 5:15:00 PM 17.02 62.636 0.201 9.24 5.18 11.75
4/25/2022 5:30:00 PM 17.05 62.69 0.203 9.2 4.7 11.64
4/25/2022 5:45:00 PM 17.08 62.744 0.205 9.2 5.21 11.57
4/25/2022 6:00:00 PM 17.06 62.708 0.205 9.16 4.72 11.35
4/25/2022 6:15:00 PM 17.02 62.636 0.205 9.12 4.88 11.11
4/25/2022 6:30:00 PM 16.96 62.528 0.204 9.07 4.93 10.85
4/25/2022 6:45:00 PM 16.91 62.438 0.204 9.01 4.89 10.62
4/25/2022 7:00:00 PM 16.86 62.348 0.203 8.95 4.84 10.44
4/25/2022 7:15:00 PM 16.8 62.24 0.202 8.89 4.83 10.27
4/25/2022 7:30:00 PM 16.71 62.078 0.203 8.8 5.06 10.06
4/25/2022 7:45:00 PM 16.62 61.916 0.204 8.7 4.96 9.87
4/25/2022 8:00:00 PM 16.52 61.736 0.207 8.57 5.05 9.69
4/25/2022 8:15:00 PM 16.41 61.538 0.21 8.43 5.19 9.53
4/25/2022 8:30:00 PM 16.31 61.358 0.212 8.28 5.16 9.38
4/25/2022 8:45:00 PM 16.19 61.142 0.213 8.17 5.82 9.28
4/25/2022 9:00:00 PM 16.08 60.944 0.213 8.06 5.76 9.18
4/25/2022 9:15:00 PM 15.98 60.764 0.213 7.99 5.64 9.11
4/25/2022 9:30:00 PM 15.86 60.548 0.213 7.91 5.69 9.05
4/25/2022 9:45:00 PM 15.74 60.332 0.213 7.85 5.43 9.01
4/25/2022 10:00:00 PM 15.61 60.098 0.213 7.8 7.52 8.98
4/25/2022 10:15:00 PM 15.47 59.846 0.213 7.76 12.37 8.97
4/25/2022 10:30:00 PM 15.34 59.612 0.215 7.74 8.66 8.96
4/25/2022 10:45:00 PM 15.22 59.396 0.217 7.69 18.11 8.96
4/25/2022 11:00:00 PM 15.1 59.18 0.22 7.68 5.52 8.96
4/25/2022 11:15:00 PM 14.97 58.946 0.221 7.66 21.62 8.97
4/25/2022 11:30:00 PM 14.86 58.748 0.222 7.64 7.33 8.98
4/25/2022 11:45:00 PM 14.76 58.568 0.222 7.62 8.31 8.99
4/26/2022 12:00:00 AM 14.66 58.388 0.222 7.6 5.14 9
4/26/2022 12:15:00 AM 14.56 58.208 0.221 7.59 4.96 9.01
4/26/2022 12:30:00 AM 14.45 58.01 0.22 7.58 5.09 9.02
4/26/2022 12:45:00 AM 14.33 57.794 0.22 7.57 5.16 9.05
4/26/2022 1:00:00 AM 14.22 57.596 0.22 7.54 5 9.06
4/26/2022 1:15:00 AM 14.12 57.416 0.221 7.54 5.09 9.08
4/26/2022 1:30:00 AM 14.01 57.218 0.223 7.54 5.11 9.09
4/26/2022 1:45:00 AM 13.9 57.02 0.224 7.52 4.88 9.11
4/26/2022 2:00:00 AM 13.8 56.84 0.225 7.53 5.14 9.12
4/26/2022 2:15:00 AM 13.71 56.678 0.225 7.52 5.01 9.15
4/26/2022 2:30:00 AM 13.63 56.534 0.225 7.52 4.95 9.16
4/26/2022 2:45:00 AM 13.56 56.408 0.224 7.51 4.93 9.18
4/26/2022 3:00:00 AM 13.49 56.282 0.223 7.49 5.15 9.19
4/26/2022 3:15:00 AM 13.41 56.138 0.221 7.5 5 9.21
4/26/2022 3:30:00 AM 13.33 55.994 0.221 7.5 5.21 9.24
4/26/2022 3:45:00 AM 13.26 55.868 0.22 7.49 4.96 9.25
4/26/2022 4:00:00 AM 13.18 55.724 0.221 7.49 5.13 9.28
4/26/2022 4:15:00 AM 13.12 55.616 0.222 7.49 5.01 9.29
4/26/2022 4:30:00 AM 13.06 55.508 0.223 7.49 5 9.3
4/26/2022 4:45:00 AM 13 55.4 0.223 7.49 4.83 9.31
4/26/2022 5:00:00 AM 12.95 55.31 0.222 7.48 4.86 9.33
4/26/2022 5:15:00 AM 12.91 55.238 0.222 7.49 5.14 9.35
4/26/2022 5:30:00 AM 12.87 55.166 0.221 7.5 4.88 9.36
4/26/2022 5:45:00 AM 12.82 55.076 0.22 7.5 5.04 9.38
4/26/2022 6:00:00 AM 12.76 54.968 0.218 7.5 5.04 9.39
4/26/2022 6:15:00 AM 12.71 54.878 0.218 7.5 4.98 9.42
4/26/2022 6:30:00 AM 12.65 54.77 0.218 7.5 5.04 9.44
4/26/2022 6:45:00 AM 12.6 54.68 0.219 7.49 4.83 9.48
4/26/2022 7:00:00 AM 12.55 54.59 0.22 7.51 4.91 9.54
4/26/2022 7:15:00 AM 12.51 54.518 0.222 7.53 4.74 9.6
4/26/2022 7:30:00 AM 12.48 54.464 0.222 7.54 4.64 9.68
4/26/2022 7:45:00 AM 12.45 54.41 0.221 7.56 4.65 9.77
4/26/2022 8:00:00 AM 12.43 54.374 0.22 7.55 4.72 9.85
4/26/2022 8:15:00 AM 12.41 54.338 0.218 7.58 4.69 9.95
4/26/2022 8:30:00 AM 12.39 54.302 0.217 7.61 4.72 10.03
4/26/2022 8:45:00 AM 12.36 54.248 0.215 7.63 4.46 10.12
4/26/2022 9:00:00 AM 12.35 54.23 0.214 7.65 4.41 10.33
4/26/2022 9:15:00 AM 12.34 54.212 0.214 7.72 4.41 10.55
4/26/2022 9:30:00 AM 12.34 54.212 0.215 7.75 4.23 10.68
4/26/2022 9:45:00 AM 12.32 54.176 0.216 7.78 4.18 10.67
4/26/2022 10:00:00 AM 12.29 54.122 0.216 7.77 4.36 10.62
4/26/2022 10:15:00 AM 12.3 54.14 0.215 7.79 4.29 10.75
4/26/2022 10:30:00 AM 12.33 54.194 0.214 7.86 4.21 11.01
4/26/2022 10:45:00 AM 12.35 54.23 0.212 7.97 4.35 11.23
4/26/2022 11:00:00 AM 12.36 54.248 0.211 8.02 4.27 11.34
4/26/2022 11:15:00 AM 12.36 54.248 0.211 8.06 4.46 11.36
4/26/2022 11:30:00 AM 12.38 54.284 0.211 8.1 4.48 11.45
4/26/2022 11:45:00 AM 12.37 54.266 0.212 8.13 4.73 11.46
4/26/2022 12:00:00 PM 12.39 54.302 0.213 8.17 4.52 11.54
4/26/2022 12:15:00 PM 12.4 54.32 0.215 8.21 4.56 11.65
4/26/2022 12:30:00 PM 12.4 54.32 0.216 8.23 4.54 11.61
4/26/2022 12:45:00 PM 12.38 54.284 0.217 8.18 4.67 11.47
4/26/2022 1:00:00 PM 12.37 54.266 0.218 8.15 4.65 11.39
4/26/2022 1:15:00 PM 12.37 54.266 0.217 8.15 4.8 11.36
4/26/2022 1:30:00 PM 12.36 54.248 0.217 8.14 4.8 11.35
4/26/2022 1:45:00 PM 12.37 54.266 0.216 8.19 4.76 11.43
4/26/2022 2:00:00 PM 12.34 54.212 0.216 8.19 5.05 11.4
4/26/2022 2:15:00 PM 12.32 54.176 0.216 8.14 5.33 11.29
4/26/2022 2:30:00 PM 12.32 54.176 0.218 8.18 6.64 11.36
4/26/2022 2:45:00 PM 12.3 54.14 0.22 8.16 5.62 11.3
4/26/2022 3:00:00 PM 12.28 54.104 0.222 8.09 5.44 11.17
4/26/2022 3:15:00 PM 12.28 54.104 0.223 8.14 5.76 11.28
4/26/2022 3:30:00 PM 12.28 54.104 0.222 8.16 5.66 11.31
4/26/2022 3:45:00 PM 12.28 54.104 0.222 8.16 5.29 11.27
4/26/2022 4:00:00 PM 12.27 54.086 0.222 8.16 5.39 11.29
4/26/2022 4:15:00 PM 12.26 54.068 0.222 8.14 5.79 11.22
4/26/2022 4:30:00 PM 12.25 54.05 0.222 8.1 5.06 11.1
4/26/2022 4:45:00 PM 12.23 54.014 0.225 8.08 5.32 11.09
4/26/2022 5:00:00 PM 12.26 54.068 0.227 8.16 5.41 11.32
4/26/2022 5:15:00 PM 12.25 54.05 0.23 8.2 5.14 11.37
4/26/2022 5:30:00 PM 12.23 54.014 0.232 8.22 5.18 11.41
4/26/2022 5:45:00 PM 12.22 53.996 0.234 8.21 5.26 11.37
4/26/2022 6:00:00 PM 12.22 53.996 0.236 8.23 5.14 11.41
4/26/2022 6:15:00 PM 12.2 53.96 0.238 8.21 5.36 11.36
4/26/2022 6:30:00 PM 12.17 53.906 0.241 8.15 5.17 11.2
4/26/2022 6:45:00 PM 12.14 53.852 0.243 8.08 6.01 11.04
4/26/2022 7:00:00 PM 12.1 53.78 0.244 8.03 5.9 10.93
4/26/2022 7:15:00 PM 12.06 53.708 0.245 7.99 5.32 10.89
4/26/2022 7:30:00 PM 12.01 53.618 0.246 7.96 5.37 10.83
4/26/2022 7:45:00 PM 11.96 53.528 0.247 7.91 5.54 10.73
4/26/2022 8:00:00 PM 11.92 53.456 0.248 7.87 5.3 10.61
4/26/2022 8:15:00 PM 11.87 53.366 0.249 7.82 5.5 10.48
4/26/2022 8:30:00 PM 11.82 53.276 0.249 7.78 5.36 10.37
4/26/2022 8:45:00 PM 11.76 53.168 0.247 7.75 5.79 10.3
4/26/2022 9:00:00 PM 11.69 53.042 0.246 7.72 5.82 10.24
4/26/2022 9:15:00 PM 11.63 52.934 0.244 7.7 5.77 10.19
4/26/2022 9:30:00 PM 11.58 52.844 0.243 7.69 5.59 10.16
4/26/2022 9:45:00 PM 11.5 52.7 0.24 7.67 5.7 10.13
4/26/2022 10:00:00 PM 11.43 52.574 0.237 7.66 5.88 10.12
4/26/2022 10:15:00 PM 11.37 52.466 0.235 7.65 5.52 10.11
4/26/2022 10:30:00 PM 11.29 52.322 0.233 7.64 5.66 10.11
4/26/2022 10:45:00 PM 11.22 52.196 0.233 7.64 5.79 10.11
4/26/2022 11:00:00 PM 11.16 52.088 0.233 7.63 5.56 10.1
4/26/2022 11:15:00 PM 11.11 51.998 0.233 7.62 5.55 10.1
4/26/2022 11:30:00 PM 11.06 51.908 0.231 7.6 5.43 10.1
4/26/2022 11:45:00 PM 11 51.8 0.23 7.61 5.62 10.1
4/27/2022 12:00:00 AM 10.94 51.692 0.228 7.61 5.46 10.12
4/27/2022 12:15:00 AM 10.88 51.584 0.227 7.61 5.4 10.12
4/27/2022 12:30:00 AM 10.81 51.458 0.225 7.59 5.45 10.13
4/27/2022 12:45:00 AM 10.74 51.332 0.224 7.6 5.6 10.15
4/27/2022 1:00:00 AM 10.68 51.224 0.223 7.59 5.35 10.16
4/27/2022 1:15:00 AM 10.61 51.098 0.224 7.59 5.31 10.17
4/27/2022 1:30:00 AM 10.55 50.99 0.225 7.59 5.28 10.18
4/27/2022 1:45:00 AM 10.47 50.846 0.227 7.59 5.2 10.19
4/27/2022 2:00:00 AM 10.39 50.702 0.228 7.59 5.09 10.2
4/27/2022 2:15:00 AM 10.33 50.594 0.228 7.59 4.95 10.22
4/27/2022 2:30:00 AM 10.25 50.45 0.227 7.59 4.98 10.23
4/27/2022 2:45:00 AM 10.17 50.306 0.227 7.59 4.91 10.24
4/27/2022 3:00:00 AM 10.09 50.162 0.225 7.59 5.03 10.27
4/27/2022 3:15:00 AM 10.03 50.054 0.224 7.57 4.92 10.28
4/27/2022 3:30:00 AM 9.96 49.928 0.224 7.58 4.98 10.31
4/27/2022 3:45:00 AM 9.89 49.802 0.223 7.58 4.82 10.33
4/27/2022 4:00:00 AM 9.81 49.658 0.224 7.58 5.04 10.35
4/27/2022 4:15:00 AM 9.73 49.514 0.225 7.58 4.94 10.37
4/27/2022 4:30:00 AM 9.64 49.352 0.227 7.59 4.96 10.38
4/27/2022 4:45:00 AM 9.56 49.208 0.228 7.59 4.86 10.4
4/27/2022 5:00:00 AM 9.5 49.1 0.228 7.59 4.53 10.42
4/27/2022 5:15:00 AM 9.43 48.974 0.228 7.59 4.71 10.44
4/27/2022 5:30:00 AM 9.38 48.884 0.227 7.59 4.67 10.47
4/27/2022 5:45:00 AM 9.33 48.794 0.226 7.59 4.63 10.48
4/27/2022 6:00:00 AM 9.27 48.686 0.224 7.58 4.7 10.51
4/27/2022 6:15:00 AM 9.21 48.578 0.223 7.58 4.82 10.54
4/27/2022 6:30:00 AM 9.13 48.434 0.223 7.59 4.68 10.57
4/27/2022 6:45:00 AM 9.08 48.344 0.223 7.58 4.71 10.62
4/27/2022 7:00:00 AM 9.03 48.254 0.224 7.61 4.4 10.7
4/27/2022 7:15:00 AM 8.97 48.146 0.226 7.62 4.4 10.78
4/27/2022 7:30:00 AM 8.92 48.056 0.227 7.64 4.4 10.87
4/27/2022 7:45:00 AM 8.87 47.966 0.227 7.66 4.19 10.98
4/27/2022 8:00:00 AM 8.82 47.876 0.227 7.68 4.14 11.15
4/27/2022 8:15:00 AM 8.79 47.822 0.225 7.73 4.07 11.31
4/27/2022 8:30:00 AM 8.76 47.768 0.224 7.76 3.91 11.42
4/27/2022 8:45:00 AM 8.74 47.732 0.222 7.78 3.89 11.5
4/27/2022 9:00:00 AM 8.72 47.696 0.221 7.81 3.83 11.59
4/27/2022 9:15:00 AM 8.71 47.678 0.22 7.85 3.84 11.77
4/27/2022 9:30:00 AM 8.7 47.66 0.219 7.89 3.77 11.93
4/27/2022 9:45:00 AM 8.68 47.624 0.221 7.94 3.85 12.01
4/27/2022 10:00:00 AM 8.64 47.552 0.221 7.96 3.75 12.05
4/27/2022 10:15:00 AM 8.61 47.498 0.222 7.97 3.79 12.05
4/27/2022 10:30:00 AM 8.58 47.444 0.222 7.99 3.9 12.11
4/27/2022 10:45:00 AM 8.57 47.426 0.221 8.04 3.7 12.22
4/27/2022 11:00:00 AM 8.59 47.462 0.219 8.12 3.77 12.42
4/27/2022 11:15:00 AM 8.58 47.444 0.218 8.16 3.79 12.49
4/27/2022 11:30:00 AM 8.56 47.408 0.216 8.2 3.74 12.54
4/27/2022 11:45:00 AM 8.55 47.39 0.215 8.23 3.76 12.58
4/27/2022 12:00:00 PM 8.54 47.372 0.214 8.28 3.83 12.66
4/27/2022 12:15:00 PM 8.52 47.336 0.215 8.29 3.68 12.65
4/27/2022 12:30:00 PM 8.51 47.318 0.216 8.32 3.72 12.71
4/27/2022 12:45:00 PM 8.53 47.354 0.216 8.35 3.73 12.8
4/27/2022 1:00:00 PM 8.58 47.444 0.216 8.47 3.79 12.97
4/27/2022 1:15:00 PM 8.6 47.48 0.216 8.53 3.66 13.06
4/27/2022 1:30:00 PM 8.61 47.498 0.215 8.57 3.71 13.11
4/27/2022 1:45:00 PM 8.62 47.516 0.214 8.61 3.8 13.13
4/27/2022 2:00:00 PM 8.62 47.516 0.213 8.62 3.88 13.15
4/27/2022 2:15:00 PM 8.64 47.552 0.212 8.68 3.68 13.22
4/27/2022 2:30:00 PM 8.66 47.588 0.212 8.71 3.72 13.29
4/27/2022 2:45:00 PM 8.66 47.588 0.211 8.74 3.76 13.27
4/27/2022 3:00:00 PM 8.66 47.588 0.213 8.73 3.8 13.2
4/27/2022 3:15:00 PM 8.66 47.588 0.215 8.71 3.8 13.12
4/27/2022 3:30:00 PM 8.64 47.552 0.217 8.64 3.84 12.96
4/27/2022 3:45:00 PM 8.62 47.516 0.217 8.61 3.72 12.83
4/27/2022 4:00:00 PM 8.62 47.516 0.218 8.57 3.81 12.75
4/27/2022 4:15:00 PM 8.61 47.498 0.217 8.57 3.81 12.77
4/27/2022 4:30:00 PM 8.61 47.498 0.216 8.58 3.83 12.75
4/27/2022 4:45:00 PM 8.61 47.498 0.216 8.58 3.88 12.73
4/27/2022 5:00:00 PM 8.58 47.444 0.216 8.51 4.1 12.58
4/27/2022 5:15:00 PM 8.57 47.426 0.215 8.43 3.96 12.43
4/27/2022 5:30:00 PM 8.54 47.372 0.216 8.35 3.83 12.31
4/27/2022 5:45:00 PM 8.53 47.354 0.217 8.33 3.81 12.32
4/27/2022 6:00:00 PM 8.52 47.336 0.219 8.32 3.84 12.33
4/27/2022 6:15:00 PM 8.5 47.3 0.221 8.29 3.74 12.28
4/27/2022 6:30:00 PM 8.48 47.264 0.222 8.21 3.83 12.13
4/27/2022 6:45:00 PM 8.44 47.192 0.222 8.17 3.96 12.07
4/27/2022 7:00:00 PM 8.42 47.156 0.221 8.14 3.82 12.04
4/27/2022 7:15:00 PM 8.38 47.084 0.22 8.1 3.85 11.96
4/27/2022 7:30:00 PM 8.34 47.012 0.219 8.05 3.97 11.86
4/27/2022 7:45:00 PM 8.31 46.958 0.219 7.99 3.85 11.75
4/27/2022 8:00:00 PM 8.27 46.886 0.218 7.93 4.01 11.62
4/27/2022 8:15:00 PM 8.23 46.814 0.219 7.88 4.98 11.52
4/27/2022 8:30:00 PM 8.19 46.742 0.221 7.85 4.13 11.45
4/27/2022 8:45:00 PM 8.15 46.67 0.224 7.83 4.2 11.39
4/27/2022 9:00:00 PM 8.11 46.598 0.225 7.79 4.29 11.34
4/27/2022 9:15:00 PM 8.06 46.508 0.226 7.77 4.12 11.3
4/27/2022 9:30:00 PM 8.01 46.418 0.226 7.75 4.67 11.28
4/27/2022 9:45:00 PM 7.96 46.328 0.225 7.74 4.24 11.26
4/27/2022 10:00:00 PM 7.91 46.238 0.224 7.73 4.16 11.24
4/27/2022 10:15:00 PM 7.86 46.148 0.224 7.7 4.16 11.22
4/27/2022 10:30:00 PM 7.8 46.04 0.223 7.7 4.1 11.22
4/27/2022 10:45:00 PM 7.75 45.95 0.223 7.69 4.65 11.21
4/27/2022 11:00:00 PM 7.7 45.86 0.224 7.69 4.29 11.21
4/27/2022 11:15:00 PM 7.66 45.788 0.226 7.68 4.07 11.21
4/27/2022 11:30:00 PM 7.62 45.716 0.228 7.66 4.17 11.2
4/27/2022 11:45:00 PM 7.58 45.644 0.229 7.67 4.06 11.21
4/28/2022 12:00:00 AM 7.54 45.572 0.23 7.66 4.01 11.21
4/28/2022 12:15:00 AM 7.5 45.5 0.229 7.66 3.95 11.22
4/28/2022 12:30:00 AM 7.46 45.428 0.229 7.65 4.16 11.22
4/28/2022 12:45:00 AM 7.41 45.338 0.228 7.65 4.14 11.24
4/28/2022 1:00:00 AM 7.36 45.248 0.227 7.65 4.05 11.25
4/28/2022 1:15:00 AM 7.32 45.176 0.226 7.64 4.1 11.26
4/28/2022 1:30:00 AM 7.27 45.086 0.225 7.63 4.01 11.27
4/28/2022 1:45:00 AM 7.24 45.032 0.226 7.62 3.94 11.27
4/28/2022 2:00:00 AM 7.2 44.96 0.228 7.64 3.99 11.28
4/28/2022 2:15:00 AM 7.15 44.87 0.229 7.64 3.93 11.29
4/28/2022 2:30:00 AM 7.11 44.798 0.23 7.64 4.07 11.29
4/28/2022 2:45:00 AM 7.05 44.69 0.231 7.63 3.88 11.31
4/28/2022 3:00:00 AM 7.01 44.618 0.23 7.63 4.09 11.31
4/28/2022 3:15:00 AM 6.97 44.546 0.229 7.63 4.19 11.33
4/28/2022 3:30:00 AM 6.94 44.492 0.228 7.62 3.83 11.33
4/28/2022 3:45:00 AM 6.89 44.402 0.226 7.62 3.87 11.35
4/28/2022 4:00:00 AM 6.86 44.348 0.225 7.62 3.91 11.37
4/28/2022 4:15:00 AM 6.82 44.276 0.225 7.61 3.85 11.38
4/28/2022 4:30:00 AM 6.77 44.186 0.226 7.6 3.74 11.39
4/28/2022 4:45:00 AM 6.73 44.114 0.228 7.62 3.86 11.4
4/28/2022 5:00:00 AM 6.7 44.06 0.229 7.61 3.91 11.41
4/28/2022 5:15:00 AM 6.67 44.006 0.23 7.61 3.73 11.42
4/28/2022 5:30:00 AM 6.64 43.952 0.23 7.61 3.76 11.42
4/28/2022 5:45:00 AM 6.61 43.898 0.229 7.61 3.79 11.44
4/28/2022 6:00:00 AM 6.57 43.826 0.228 7.61 3.86 11.45
4/28/2022 6:15:00 AM 6.53 43.754 0.227 7.62 3.77 11.47
4/28/2022 6:30:00 AM 6.5 43.7 0.225 7.62 3.8 11.5
4/28/2022 6:45:00 AM 6.48 43.664 0.224 7.62 5.98 11.55
4/28/2022 7:00:00 AM 6.46 43.628 0.224 7.62 3.71 11.62
4/28/2022 7:15:00 AM 6.44 43.592 0.225 7.66 3.64 11.73
4/28/2022 7:30:00 AM 6.43 43.574 0.226 7.68 3.57 11.86
4/28/2022 7:45:00 AM 6.43 43.574 0.228 7.71 3.47 12.01
4/28/2022 8:00:00 AM 6.43 43.574 0.229 7.76 3.52 12.18
4/28/2022 8:15:00 AM 6.45 43.61 0.229 7.8 3.43 12.38
4/28/2022 8:30:00 AM 6.48 43.664 0.228 7.89 3.45 12.61
4/28/2022 8:45:00 AM 6.55 43.79 0.227 7.96 3.35 12.85
4/28/2022 9:00:00 AM 6.65 43.97 0.225 8.06 3.39 13.07
4/28/2022 9:15:00 AM 6.7 44.06 0.224 8.14 3.3 13.22
4/28/2022 9:30:00 AM 6.78 44.204 0.222 8.2 3.28 13.35
4/28/2022 9:45:00 AM 6.87 44.366 0.221 8.3 3.25 13.49
4/28/2022 10:00:00 AM 7.05 44.69 0.221 8.4 3.28 13.63
4/28/2022 10:15:00 AM 7.24 45.032 0.222 8.48 3.3 13.77
4/28/2022 10:30:00 AM 7.43 45.374 0.222 8.54 3.39 13.86
4/28/2022 10:45:00 AM 7.62 45.716 0.222 8.62 3.39 13.93
4/28/2022 11:00:00 AM 7.81 46.058 0.221 8.68 3.22 13.99
4/28/2022 11:15:00 AM 8.02 46.436 0.22 8.73 3.26 14.03
4/28/2022 11:30:00 AM 8.24 46.832 0.218 8.77 3.3 14.04
4/28/2022 11:45:00 AM 8.45 47.21 0.217 8.81 3.35 14.05
4/28/2022 12:00:00 PM 8.67 47.606 0.215 8.85 3.32 14.06
4/28/2022 12:15:00 PM 8.9 48.02 0.214 8.88 3.34 14.05
4/28/2022 12:30:00 PM 9.15 48.47 0.214 8.91 3.43 14.05
4/28/2022 12:45:00 PM 9.4 48.92 0.214 8.94 3.4 14.04
4/28/2022 1:00:00 PM 9.66 49.388 0.215 8.97 3.51 14.03
4/28/2022 1:15:00 PM 9.91 49.838 0.216 9 3.4 14.01
4/28/2022 1:30:00 PM 10.16 50.288 0.216 9.02 3.51 13.99
4/28/2022 1:45:00 PM 10.42 50.756 0.216 9.04 4.33 13.96
4/28/2022 2:00:00 PM 10.65 51.17 0.215 9.07 3.48 13.92
4/28/2022 2:15:00 PM 10.86 51.548 0.214 9.09 3.64 13.86
4/28/2022 2:30:00 PM 11.06 51.908 0.212 9.11 3.61 13.81
4/28/2022 2:45:00 PM 11.27 52.286 0.211 9.12 3.64 13.74
4/28/2022 3:00:00 PM 11.45 52.61 0.211 9.14 3.8 13.67
4/28/2022 3:15:00 PM 11.62 52.916 0.211 9.13 3.77 13.61
4/28/2022 3:30:00 PM 11.77 53.186 0.213 9.16 3.85 13.54
4/28/2022 3:45:00 PM 11.89 53.402 0.214 9.16 3.9 13.47
4/28/2022 4:00:00 PM 11.99 53.582 0.215 9.15 3.8 13.39
4/28/2022 4:15:00 PM 12.08 53.744 0.216 9.16 3.9 13.3
4/28/2022 4:30:00 PM 12.12 53.816 0.216 9.16 3.73 13.2
4/28/2022 4:45:00 PM 12.15 53.87 0.215 9.15 3.9 13.08
4/28/2022 5:00:00 PM 12.19 53.942 0.214 9.14 3.89 12.95
4/28/2022 5:15:00 PM 12.18 53.924 0.214 9.12 3.95 12.82
4/28/2022 5:30:00 PM 12.18 53.924 0.213 9.11 3.95 12.68
4/28/2022 5:45:00 PM 12.15 53.87 0.214 9.09 4.02 12.54
4/28/2022 6:00:00 PM 12.13 53.834 0.216 9.06 3.96 12.4
4/28/2022 6:15:00 PM 12.09 53.762 0.218 9.03 3.91 12.25
4/28/2022 6:30:00 PM 12.03 53.654 0.22 8.98 3.84 12.1
4/28/2022 6:45:00 PM 11.98 53.564 0.222 8.92 4.01 11.93
4/28/2022 7:00:00 PM 11.95 53.51 0.223 8.87 4.03 11.75
4/28/2022 7:15:00 PM 11.89 53.402 0.222 8.79 4.04 11.56
4/28/2022 7:30:00 PM 11.83 53.294 0.222 8.73 3.99 11.39
4/28/2022 7:45:00 PM 11.75 53.15 0.221 8.64 4.01 11.2
4/28/2022 8:00:00 PM 11.67 53.006 0.22 8.53 4.23 11.03
4/28/2022 8:15:00 PM 11.59 52.862 0.219 8.41 4.32 10.86
4/28/2022 8:30:00 PM 11.5 52.7 0.22 8.28 4.4 10.71
4/28/2022 8:45:00 PM 11.4 52.52 0.221 8.18 4.3 10.59
4/28/2022 9:00:00 PM 11.3 52.34 0.223 8.09 4.39 10.51
4/28/2022 9:15:00 PM 11.19 52.142 0.225 7.99 4.52 10.43
4/28/2022 9:30:00 PM 11.08 51.944 0.226 7.95 4.66 10.38
4/28/2022 9:45:00 PM 10.97 51.746 0.227 7.9 4.64 10.34
4/28/2022 10:00:00 PM 10.85 51.53 0.226 7.87 4.62 10.3
4/28/2022 10:15:00 PM 10.74 51.332 0.225 7.84 4.47 10.29
4/28/2022 10:30:00 PM 10.63 51.134 0.224 7.81 4.7 10.28
4/28/2022 10:45:00 PM 10.51 50.918 0.223 7.78 4.65 10.28
4/28/2022 11:00:00 PM 10.39 50.702 0.222 7.74 4.68 10.29
4/28/2022 11:15:00 PM 10.28 50.504 0.222 7.74 4.45 10.3
4/28/2022 11:30:00 PM 10.16 50.288 0.223 7.73 4.36 10.31
4/28/2022 11:45:00 PM 10.04 50.072 0.225 7.72 4.7 10.33
4/29/2022 12:00:00 AM 9.93 49.874 0.227 7.69 4.72 10.35
4/29/2022 12:15:00 AM 9.81 49.658 0.228 7.7 4.37 10.37
4/29/2022 12:30:00 AM 9.7 49.46 0.228 7.68 4.51 10.39
4/29/2022 12:45:00 AM 9.57 49.226 0.227 7.65 4.65 10.41
4/29/2022 1:00:00 AM 9.45 49.01 0.226 7.67 5.33 10.45
4/29/2022 1:15:00 AM 9.33 48.794 0.225 7.66 4.48 10.48
4/29/2022 1:30:00 AM 9.2 48.56 0.224 7.63 4.52 10.51
4/29/2022 1:45:00 AM 9.07 48.326 0.223 7.64 4.7 10.54
4/29/2022 2:00:00 AM 8.95 48.11 0.223 7.63 4.41 10.56
4/29/2022 2:15:00 AM 8.83 47.894 0.225 7.63 4.2 10.59
4/29/2022 2:30:00 AM 8.71 47.678 0.226 7.62 4.27 10.63
4/29/2022 2:45:00 AM 8.6 47.48 0.228 7.62 4.53 10.65
4/29/2022 3:00:00 AM 8.49 47.282 0.229 7.61 4.46 10.68
4/29/2022 3:15:00 AM 8.38 47.084 0.229 7.59 4.26 10.71
4/29/2022 3:30:00 AM 8.27 46.886 0.228 7.61 4.23 10.75
4/29/2022 3:45:00 AM 8.16 46.688 0.227 7.59 4.28 10.78
4/29/2022 4:00:00 AM 8.06 46.508 0.226 7.6 4.19 10.81
4/29/2022 4:15:00 AM 7.94 46.292 0.225 7.6 4.13 10.86
4/29/2022 4:30:00 AM 7.84 46.112 0.225 7.6 4.2 10.89
4/29/2022 4:45:00 AM 7.74 45.932 0.226 7.6 4.17 10.92
4/29/2022 5:00:00 AM 7.64 45.752 0.227 7.59 4.06 10.94
4/29/2022 5:15:00 AM 7.55 45.59 0.229 7.58 4.2 10.97
4/29/2022 5:30:00 AM 7.46 45.428 0.23 7.59 3.97 11
4/29/2022 5:45:00 AM 7.38 45.284 0.231 7.59 3.98 11.03
4/29/2022 6:00:00 AM 7.3 45.14 0.231 7.59 3.99 11.06
4/29/2022 6:15:00 AM 7.22 44.996 0.23 7.59 4 11.1
4/29/2022 6:30:00 AM 7.15 44.87 0.229 7.6 3.98 11.16
4/29/2022 6:45:00 AM 7.08 44.744 0.227 7.6 4.06 11.25
4/29/2022 7:00:00 AM 7.01 44.618 0.226 7.62 3.81 11.37
4/29/2022 7:15:00 AM 6.96 44.528 0.226 7.64 3.75 11.5
4/29/2022 7:30:00 AM 6.91 44.438 0.227 7.67 3.79 11.64
4/29/2022 7:45:00 AM 6.88 44.384 0.228 7.7 3.64 11.81
4/29/2022 8:00:00 AM 6.88 44.384 0.229 7.74 3.57 12.01
4/29/2022 8:15:00 AM 6.9 44.42 0.23 7.79 3.51 12.25
4/29/2022 8:30:00 AM 6.96 44.528 0.23 7.88 3.46 12.52
4/29/2022 8:45:00 AM 7.04 44.672 0.229 7.97 3.54 12.76
4/29/2022 9:00:00 AM 7.12 44.816 0.228 8.07 3.45 12.97
4/29/2022 9:15:00 AM 7.21 44.978 0.226 8.17 3.42 13.17
4/29/2022 9:30:00 AM 7.32 45.176 0.224 8.26 3.38 13.36
4/29/2022 9:45:00 AM 7.44 45.392 0.222 8.37 3.34 13.51
4/29/2022 10:00:00 AM 7.58 45.644 0.222 8.46 4.03 13.63
4/29/2022 10:15:00 AM 7.75 45.95 0.222 8.53 3.76 13.74
4/29/2022 10:30:00 AM 7.93 46.274 0.222 8.6 3.33 13.82
4/29/2022 10:45:00 AM 8.13 46.634 0.223 8.66 3.3 13.9
4/29/2022 11:00:00 AM 8.34 47.012 0.223 8.7 3.35 13.97
4/29/2022 11:15:00 AM 8.55 47.39 0.223 8.77 3.36 14.02
4/29/2022 11:30:00 AM 8.76 47.768 0.222 8.8 3.5 14.05
4/29/2022 11:45:00 AM 8.96 48.128 0.22 8.84 3.42 14.05
4/29/2022 12:00:00 PM 9.19 48.542 0.218 8.89 3.48 14.04
4/29/2022 12:15:00 PM 9.44 48.992 0.216 8.91 3.52 14.04
4/29/2022 12:30:00 PM 9.69 49.442 0.215 8.96 3.72 14.03
4/29/2022 12:45:00 PM 9.94 49.892 0.215 8.98 3.39 14.02
4/29/2022 1:00:00 PM 10.2 50.36 0.215 9.01 3.52 14.01
4/29/2022 1:15:00 PM 10.48 50.864 0.214 9.03 3.59 13.98
4/29/2022 1:30:00 PM 10.76 51.368 0.213 9.05 3.69 13.94
4/29/2022 1:45:00 PM 11.03 51.854 0.213 9.08 3.62 13.89
4/29/2022 2:00:00 PM 11.28 52.304 0.211 9.1 3.64 13.84
4/29/2022 2:15:00 PM 11.52 52.736 0.21 9.13 3.56 13.77
4/29/2022 2:30:00 PM 11.75 53.15 0.208 9.14 3.58 13.71
4/29/2022 2:45:00 PM 11.95 53.51 0.207 9.14 3.6 13.63
4/29/2022 3:00:00 PM 12.15 53.87 0.206 9.17 3.73 13.56
4/29/2022 3:15:00 PM 12.35 54.23 0.206 9.18 3.8 13.49
4/29/2022 3:30:00 PM 12.5 54.5 0.207 9.17 3.65 13.42
4/29/2022 3:45:00 PM 12.65 54.77 0.208 9.2 3.87 13.35
4/29/2022 4:00:00 PM 12.77 54.986 0.209 9.19 3.99 13.26
4/29/2022 4:15:00 PM 12.86 55.148 0.21 9.2 4.12 13.17
4/29/2022 4:30:00 PM 12.93 55.274 0.21 9.19 4.07 13.06
4/29/2022 4:45:00 PM 12.96 55.328 0.21 9.17 3.95 12.93
4/29/2022 5:00:00 PM 12.99 55.382 0.209 9.18 3.92 12.8
4/29/2022 5:15:00 PM 13.01 55.418 0.208 9.16 4.06 12.66
4/29/2022 5:30:00 PM 13.01 55.418 0.208 9.14 4.21 12.52
4/29/2022 5:45:00 PM 13 55.4 0.207 9.11 4.36 12.35
4/29/2022 6:00:00 PM 12.99 55.382 0.208 9.08 4.38 12.19
4/29/2022 6:15:00 PM 12.96 55.328 0.21 9.04 4.25 12.03
4/29/2022 6:30:00 PM 12.94 55.292 0.212 9 4.01 11.87
4/29/2022 6:45:00 PM 12.9 55.22 0.215 8.94 4.03 11.7
4/29/2022 7:00:00 PM 12.86 55.148 0.217 8.88 4.3 11.51
4/29/2022 7:15:00 PM 12.81 55.058 0.218 8.79 4.53 11.32
4/29/2022 7:30:00 PM 12.75 54.95 0.218 8.72 4.59 11.14
4/29/2022 7:45:00 PM 12.68 54.824 0.217 8.63 4.12 10.95
4/29/2022 8:00:00 PM 12.59 54.662 0.216 8.51 5.39 10.75
4/29/2022 8:15:00 PM 12.5 54.5 0.215 8.38 7.87 10.57
4/29/2022 8:30:00 PM 12.4 54.32 0.214 8.24 4.66 10.42
4/29/2022 8:45:00 PM 12.3 54.14 0.215 8.13 4.59 10.3
4/29/2022 9:00:00 PM 12.19 53.942 0.216 8.05 4.64 10.2
4/29/2022 9:15:00 PM 12.07 53.726 0.218 7.97 4.6 10.13
4/29/2022 9:30:00 PM 11.95 53.51 0.22 7.9 4.73 10.08
4/29/2022 9:45:00 PM 11.84 53.312 0.222 7.86 4.69 10.03
4/29/2022 10:00:00 PM 11.71 53.078 0.222 7.82 4.62 10.01
4/29/2022 10:15:00 PM 11.59 52.862 0.221 7.78 4.49 9.99
4/29/2022 10:30:00 PM 11.46 52.628 0.219 7.76 4.64 9.99
4/29/2022 10:45:00 PM 11.33 52.394 0.218 7.73 4.58 9.99
4/29/2022 11:00:00 PM 11.2 52.16 0.216 7.71 4.93 9.99
4/29/2022 11:15:00 PM 11.07 51.926 0.216 7.67 4.74 10.01
4/29/2022 11:30:00 PM 10.93 51.674 0.216 7.67 4.54 10.02
4/29/2022 11:45:00 PM 10.8 51.44 0.217 7.66 4.56 10.04
4/30/2022 12:00:00 AM 10.66 51.188 0.219 7.65 4.56 10.07
4/30/2022 12:15:00 AM 10.53 50.954 0.221 7.63 4.48 10.09
4/30/2022 12:30:00 AM 10.41 50.738 0.223 7.63 4.46 10.12
4/30/2022 12:45:00 AM 10.28 50.504 0.223 7.63 4.47 10.14
4/30/2022 1:00:00 AM 10.15 50.27 0.222 7.62 4.44 10.17
4/30/2022 1:15:00 AM 10.02 50.036 0.22 7.61 4.38 10.21
4/30/2022 1:30:00 AM 9.89 49.802 0.218 7.61 4.44 10.24
4/30/2022 1:45:00 AM 9.76 49.568 0.217 7.6 4.39 10.27
4/30/2022 2:00:00 AM 9.64 49.352 0.217 7.59 4.44 10.3
4/30/2022 2:15:00 AM 9.51 49.118 0.217 7.59 4.56 10.33
4/30/2022 2:30:00 AM 9.39 48.902 0.218 7.59 4.2 10.37
4/30/2022 2:45:00 AM 9.28 48.704 0.22 7.58 4.24 10.39
4/30/2022 3:00:00 AM 9.17 48.506 0.222 7.58 4.26 10.42
4/30/2022 3:15:00 AM 9.06 48.308 0.223 7.58 4.66 10.45
4/30/2022 3:30:00 AM 8.95 48.11 0.223 7.57 4.28 10.48
4/30/2022 3:45:00 AM 8.84 47.912 0.221 7.56 4.31 10.51
4/30/2022 4:00:00 AM 8.74 47.732 0.22 7.57 4.37 10.55
4/30/2022 4:15:00 AM 8.63 47.534 0.218 7.57 4.2 10.58
4/30/2022 4:30:00 AM 8.52 47.336 0.217 7.56 4.24 10.62
4/30/2022 4:45:00 AM 8.42 47.156 0.217 7.54 4.13 10.65
4/30/2022 5:00:00 AM 8.32 46.976 0.218 7.56 4.07 10.69
4/30/2022 5:15:00 AM 8.22 46.796 0.219 7.56 4.21 10.71
4/30/2022 5:30:00 AM 8.13 46.634 0.221 7.56 4 10.75
4/30/2022 5:45:00 AM 8.04 46.472 0.222 7.56 4.12 10.77
4/30/2022 6:00:00 AM 7.95 46.31 0.223 7.56 3.96 10.8
4/30/2022 6:15:00 AM 7.87 46.166 0.222 7.56 3.92 10.84
4/30/2022 6:30:00 AM 7.79 46.022 0.221 7.57 3.92 10.9
4/30/2022 6:45:00 AM 7.71 45.878 0.219 7.57 3.94 10.99
4/30/2022 7:00:00 AM 7.63 45.734 0.218 7.59 3.88 11.12
4/30/2022 7:15:00 AM 7.57 45.626 0.217 7.61 3.86 11.26
4/30/2022 7:30:00 AM 7.52 45.536 0.216 7.63 3.78 11.4
4/30/2022 7:45:00 AM 7.48 45.464 0.217 7.67 3.83 11.58
4/30/2022 8:00:00 AM 7.46 45.428 0.218 7.72 3.68 11.8
4/30/2022 8:15:00 AM 7.47 45.446 0.219 7.77 3.7 12.02
4/30/2022 8:30:00 AM 7.52 45.536 0.221 7.85 3.67 12.28
4/30/2022 8:45:00 AM 7.58 45.644 0.22 7.94 3.62 12.53
4/30/2022 9:00:00 AM 7.65 45.77 0.219 8.01 3.56 12.75
4/30/2022 9:15:00 AM 7.75 45.95 0.218 8.13 3.63 12.94
4/30/2022 9:30:00 AM 7.87 46.166 0.216 8.25 3.52 13.13
4/30/2022 9:45:00 AM 8.01 46.418 0.214 8.36 3.49 13.3
4/30/2022 10:00:00 AM 8.16 46.688 0.213 8.46 3.51 13.44
4/30/2022 10:15:00 AM 8.34 47.012 0.213 8.55 3.53 13.57
4/30/2022 10:30:00 AM 8.54 47.372 0.213 8.64 3.52 13.69
4/30/2022 10:45:00 AM 8.74 47.732 0.214 8.7 3.66 13.78
4/30/2022 11:00:00 AM 8.93 48.074 0.215 8.76 3.56 13.84
4/30/2022 11:15:00 AM 9.14 48.452 0.215 8.82 3.58 13.91
4/30/2022 11:30:00 AM 9.37 48.866 0.215 8.87 3.85 13.96
4/30/2022 11:45:00 AM 9.6 49.28 0.213 8.91 3.64 13.97
4/30/2022 12:00:00 PM 9.84 49.712 0.212 8.95 3.69 14
4/30/2022 12:15:00 PM 10.1 50.18 0.21 9 3.66 14
4/30/2022 12:30:00 PM 10.37 50.666 0.209 9.03 3.57 14
4/30/2022 12:45:00 PM 10.64 51.152 0.208 9.07 3.65 13.99
4/30/2022 1:00:00 PM 10.92 51.656 0.208 9.1 3.63 13.97
4/30/2022 1:15:00 PM 11.2 52.16 0.208 9.11 3.58 13.96
4/30/2022 1:30:00 PM 11.48 52.664 0.209 9.15 3.79 13.93
4/30/2022 1:45:00 PM 11.76 53.168 0.21 9.17 3.64 13.91
4/30/2022 2:00:00 PM 12.04 53.672 0.21 9.19 3.81 13.87
4/30/2022 2:15:00 PM 12.27 54.086 0.209 9.2 4 13.81
4/30/2022 2:30:00 PM 12.47 54.446 0.208 9.23 3.78 13.74
4/30/2022 2:45:00 PM 12.66 54.788 0.207 9.24 3.77 13.68
4/30/2022 3:00:00 PM 12.88 55.184 0.206 9.26 3.8 13.62
4/30/2022 3:15:00 PM 13.08 55.544 0.205 9.27 3.77 13.56
4/30/2022 3:30:00 PM 13.23 55.814 0.205 9.27 3.92 13.49
4/30/2022 3:45:00 PM 13.34 56.012 0.205 9.28 3.99 13.4
4/30/2022 4:00:00 PM 13.41 56.138 0.206 9.28 3.88 13.3
4/30/2022 4:15:00 PM 13.5 56.3 0.208 9.29 3.89 13.22
4/30/2022 4:30:00 PM 13.56 56.408 0.209 9.28 3.88 13.12
4/30/2022 4:45:00 PM 13.58 56.444 0.209 9.26 3.92 13.01
4/30/2022 5:00:00 PM 13.64 56.552 0.208 9.28 4 12.92
4/30/2022 5:15:00 PM 13.7 56.66 0.207 9.27 4 12.8
4/30/2022 5:30:00 PM 13.71 56.678 0.206 9.26 4.03 12.65
4/30/2022 5:45:00 PM 13.72 56.696 0.205 9.24 4.22 12.49
4/30/2022 6:00:00 PM 13.71 56.678 0.205 9.2 4.09 12.32
4/30/2022 6:15:00 PM 13.68 56.624 0.206 9.19 4.08 12.14
4/30/2022 6:30:00 PM 13.65 56.57 0.207 9.14 4.35 11.93
4/30/2022 6:45:00 PM 13.61 56.498 0.209 9.08 4.14 11.69
4/30/2022 7:00:00 PM 13.59 56.462 0.211 9.04 4.18 11.49
4/30/2022 7:15:00 PM 13.55 56.39 0.212 8.97 5.18 11.32
4/30/2022 7:30:00 PM 13.51 56.318 0.213 8.91 4.52 11.09
4/30/2022 7:45:00 PM 13.46 56.228 0.212 8.82 4.23 10.86
4/30/2022 8:00:00 PM 13.39 56.102 0.212 8.71 4.18 10.64
4/30/2022 8:15:00 PM 13.31 55.958 0.212 8.58 4.27 10.43
4/30/2022 8:30:00 PM 13.21 55.778 0.211 8.44 4.41 10.24
4/30/2022 8:45:00 PM 13.12 55.616 0.212 8.3 4.82 10.1
4/30/2022 9:00:00 PM 13.03 55.454 0.213 8.19 4.67 9.99
4/30/2022 9:15:00 PM 12.93 55.274 0.214 8.08 4.69 9.9
4/30/2022 9:30:00 PM 12.84 55.112 0.217 8 5.57 9.83
4/30/2022 9:45:00 PM 12.73 54.914 0.219 7.93 4.5 9.78
4/30/2022 10:00:00 PM 12.63 54.734 0.22 7.88 4.62 9.74
4/30/2022 10:15:00 PM 12.53 54.554 0.22 7.83 4.96 9.71
4/30/2022 10:30:00 PM 12.42 54.356 0.22 7.8 4.68 9.7
4/30/2022 10:45:00 PM 12.31 54.158 0.218 7.75 4.49 9.68
4/30/2022 11:00:00 PM 12.19 53.942 0.217 7.74 4.53 9.69
4/30/2022 11:15:00 PM 12.07 53.726 0.217 7.71 4.95 9.68
4/30/2022 11:30:00 PM 11.96 53.528 0.217 7.69 4.59 9.69
4/30/2022 11:45:00 PM 11.86 53.348 0.218 7.68 4.47 9.7
5/1/2022 12:00:00 AM 11.76 53.168 0.219 7.66 4.4 9.72
5/1/2022 12:15:00 AM 11.66 52.988 0.221 7.66 4.45 9.73
5/1/2022 12:30:00 AM 11.57 52.826 0.223 7.65 4.71 9.74
5/1/2022 12:45:00 AM 11.49 52.682 0.223 7.62 4.45 9.76
5/1/2022 1:00:00 AM 11.41 52.538 0.223 7.62 4.48 9.77
5/1/2022 1:15:00 AM 11.32 52.376 0.221 7.62 4.32 9.8
5/1/2022 1:30:00 AM 11.23 52.214 0.219 7.6 5.02 9.82
5/1/2022 1:45:00 AM 11.15 52.07 0.218 7.58 4.41 9.85
5/1/2022 2:00:00 AM 11.07 51.926 0.217 7.59 4.38 9.85
5/1/2022 2:15:00 AM 10.98 51.764 0.217 7.59 4.42 9.87
5/1/2022 2:30:00 AM 10.89 51.602 0.217 7.58 4.45 9.89
5/1/2022 2:45:00 AM 10.8 51.44 0.219 7.58 4.43 9.9
5/1/2022 3:00:00 AM 10.74 51.332 0.221 7.58 4.51 9.92
5/1/2022 3:15:00 AM 10.67 51.206 0.222 7.57 4.36 9.93
5/1/2022 3:30:00 AM 10.61 51.098 0.223 7.57 4.41 9.95
5/1/2022 3:45:00 AM 10.54 50.972 0.222 7.57 4.52 9.96
5/1/2022 4:00:00 AM 10.48 50.864 0.22 7.54 4.53 9.98
5/1/2022 4:15:00 AM 10.41 50.738 0.219 7.56 4.49 10
5/1/2022 4:30:00 AM 10.35 50.63 0.218 7.56 4.38 10.02
5/1/2022 4:45:00 AM 10.3 50.54 0.217 7.56 4.37 10.04
5/1/2022 5:00:00 AM 10.24 50.432 0.217 7.55 4.37 10.05
5/1/2022 5:15:00 AM 10.18 50.324 0.218 7.56 4.47 10.07
5/1/2022 5:30:00 AM 10.11 50.198 0.22 7.56 4.18 10.09
5/1/2022 5:45:00 AM 10.04 50.072 0.221 7.55 4.26 10.1
5/1/2022 6:00:00 AM 9.99 49.982 0.222 7.55 4.41 10.12
5/1/2022 6:15:00 AM 9.95 49.91 0.222 7.56 4.16 10.14
5/1/2022 6:30:00 AM 9.91 49.838 0.221 7.55 4.29 10.18
5/1/2022 6:45:00 AM 9.87 49.766 0.219 7.57 4.29 10.26
5/1/2022 7:00:00 AM 9.82 49.676 0.217 7.59 5.42 10.4
5/1/2022 7:15:00 AM 9.78 49.604 0.216 7.63 4.15 10.61
5/1/2022 7:30:00 AM 9.77 49.586 0.215 7.68 4.08 10.88
5/1/2022 7:45:00 AM 9.76 49.568 0.215 7.74 5.12 11.11
5/1/2022 8:00:00 AM 9.75 49.55 0.215 7.81 4.19 11.36
5/1/2022 8:15:00 AM 9.76 49.568 0.216 7.88 3.93 11.63
5/1/2022 8:30:00 AM 9.78 49.604 0.217 8.01 3.88 11.9
5/1/2022 8:45:00 AM 9.82 49.676 0.218 8.12 3.91 12.16
5/1/2022 9:00:00 AM 9.91 49.838 0.217 8.27 3.89 12.46
5/1/2022 9:15:00 AM 10 50 0.216 8.42 3.8 12.71
5/1/2022 9:30:00 AM 10.1 50.18 0.214 8.55 3.72 12.92
5/1/2022 9:45:00 AM 10.12 50.216 0.212 8.61 3.75 12.98
5/1/2022 10:00:00 AM 10.11 50.198 0.211 8.61 3.83 12.83
5/1/2022 10:15:00 AM 10.07 50.126 0.211 8.51 4.1 12.55
5/1/2022 10:30:00 AM 10.05 50.09 0.211 8.39 3.82 12.32
5/1/2022 10:45:00 AM 10.04 50.072 0.211 8.35 4.01 12.22
5/1/2022 11:00:00 AM 10.04 50.072 0.213 8.32 3.79 12.15
5/1/2022 11:15:00 AM 10.06 50.108 0.214 8.31 3.61 12.13
5/1/2022 11:30:00 AM 10.08 50.144 0.214 8.28 4.16 12.07
5/1/2022 11:45:00 AM 10.09 50.162 0.213 8.26 3.8 11.99
5/1/2022 12:00:00 PM 10.11 50.198 0.212 8.25 3.95 11.96
5/1/2022 12:15:00 PM 10.14 50.252 0.21 8.27 3.81 12
5/1/2022 12:30:00 PM 10.17 50.306 0.209 8.32 3.93 12.08
5/1/2022 12:45:00 PM 10.2 50.36 0.208 8.35 4.04 12.12
5/1/2022 1:00:00 PM 10.21 50.378 0.207 8.36 3.79 12.1
5/1/2022 1:15:00 PM 10.21 50.378 0.207 8.27 4.14 11.9
5/1/2022 1:30:00 PM 10.23 50.414 0.207 8.27 4.07 11.92
5/1/2022 1:45:00 PM 10.26 50.468 0.208 8.34 4.14 12.06
5/1/2022 2:00:00 PM 10.27 50.486 0.208 8.31 4.15 11.99
5/1/2022 2:15:00 PM 10.26 50.468 0.206 8.24 4.57 11.84
5/1/2022 2:30:00 PM 10.25 50.45 0.204 8.15 5.1 11.66
5/1/2022 2:45:00 PM 10.27 50.486 0.201 8.11 5.71 11.58
5/1/2022 3:00:00 PM 10.29 50.522 0.199 8.04 7 11.51
5/1/2022 3:15:00 PM 10.37 50.666 0.196 8 26.59 11.43
5/1/2022 3:30:00 PM 10.41 50.738 0.19 7.88 57.84 11.21
5/1/2022 3:45:00 PM 10.43 50.774 0.187 7.78 105.72 11.07
5/1/2022 4:00:00 PM 10.43 50.774 0.185 7.8 108.35 11.09
5/1/2022 4:15:00 PM 10.44 50.792 0.185 7.81 82.58 11.13
5/1/2022 4:30:00 PM 10.46 50.828 0.191 7.8 72.02 11.07
5/1/2022 4:45:00 PM 10.47 50.846 0.201 7.82 60.81 11.01
5/1/2022 5:00:00 PM 10.48 50.864 0.204 7.81 51.82 10.98
5/1/2022 5:15:00 PM 10.49 50.882 0.203 7.81 39.95 10.97
5/1/2022 5:30:00 PM 10.49 50.882 0.2 7.81 34.49 10.97
5/1/2022 5:45:00 PM 10.5 50.9 0.198 7.82 33.04 10.98
5/1/2022 6:00:00 PM 10.5 50.9 0.2 7.83 26.37 10.99
5/1/2022 6:15:00 PM 10.5 50.9 0.202 7.82 32.67 10.95
5/1/2022 6:30:00 PM 10.48 50.864 0.206 7.81 26.28 10.89
5/1/2022 6:45:00 PM 10.47 50.846 0.208 7.77 25.4 10.83
5/1/2022 7:00:00 PM 10.47 50.846 0.213 7.77 25.85 10.76
5/1/2022 7:15:00 PM 10.48 50.864 0.221 7.75 24.31 10.69
5/1/2022 7:30:00 PM 10.5 50.9 0.231 7.74 24.56 10.62
5/1/2022 7:45:00 PM 10.52 50.936 0.243 7.73 22.63 10.55
5/1/2022 8:00:00 PM 10.54 50.972 0.253 7.71 21.49 10.5
5/1/2022 8:15:00 PM 10.56 51.008 0.264 7.7 18.93 10.45
5/1/2022 8:30:00 PM 10.57 51.026 0.273 7.69 19.17 10.41
5/1/2022 8:45:00 PM 10.59 51.062 0.281 7.66 18.36 10.36
5/1/2022 9:00:00 PM 10.6 51.08 0.287 7.66 17.29 10.31
5/1/2022 9:15:00 PM 10.6 51.08 0.29 7.65 16.52 10.27
5/1/2022 9:30:00 PM 10.6 51.08 0.289 7.63 15.87 10.23
5/1/2022 9:45:00 PM 10.59 51.062 0.285 7.61 16.23 10.19
5/1/2022 10:00:00 PM 10.58 51.044 0.279 7.61 15.28 10.16
5/1/2022 10:15:00 PM 10.57 51.026 0.272 7.6 14.8 10.13
5/1/2022 10:30:00 PM 10.56 51.008 0.265 7.59 14.83 10.12
5/1/2022 10:45:00 PM 10.55 50.99 0.26 7.58 15.55 10.11
5/1/2022 11:00:00 PM 10.55 50.99 0.255 7.58 14.53 10.09
5/1/2022 11:15:00 PM 10.54 50.972 0.252 7.57 14.8 10.08
5/1/2022 11:30:00 PM 10.54 50.972 0.25 7.56 14.42 10.07
5/1/2022 11:45:00 PM 10.54 50.972 0.247 7.55 14.94 10.05
5/2/2022 12:00:00 AM 10.53 50.954 0.244 7.53 14.97 10.05
5/2/2022 12:15:00 AM 10.53 50.954 0.241 7.54 14.06 10.05
5/2/2022 12:30:00 AM 10.53 50.954 0.24 7.54 14.81 10.04
5/2/2022 12:45:00 AM 10.53 50.954 0.241 7.54 15.03 10.03
5/2/2022 1:00:00 AM 10.53 50.954 0.242 7.53 15.6 10.02
5/2/2022 1:15:00 AM 10.53 50.954 0.243 7.54 15.75 10.02
5/2/2022 1:30:00 AM 10.53 50.954 0.243 7.53 16.27 10.02
5/2/2022 1:45:00 AM 10.53 50.954 0.243 7.53 17.31 10.02
5/2/2022 2:00:00 AM 10.52 50.936 0.242 7.54 17.78 10.02
5/2/2022 2:15:00 AM 10.52 50.936 0.242 7.53 18.3 10.02
5/2/2022 2:30:00 AM 10.52 50.936 0.241 7.53 18 10.01
5/2/2022 2:45:00 AM 10.52 50.936 0.24 7.53 17.08 10.02
5/2/2022 3:00:00 AM 10.51 50.918 0.239 7.53 16.28 10.02
5/2/2022 3:15:00 AM 10.5 50.9 0.237 7.53 15.18 10.03
5/2/2022 3:30:00 AM 10.5 50.9 0.237 7.53 14.21 10.03
5/2/2022 3:45:00 AM 10.49 50.882 0.238 7.52 13.24 10.03
5/2/2022 4:00:00 AM 10.49 50.882 0.24 7.52 12.31 10.03
5/2/2022 4:15:00 AM 10.49 50.882 0.241 7.52 11.64 10.03
5/2/2022 4:30:00 AM 10.49 50.882 0.242 7.52 10.79 10.03
5/2/2022 4:45:00 AM 10.49 50.882 0.241 7.52 10.22 10.03
5/2/2022 5:00:00 AM 10.49 50.882 0.241 7.52 9.94 10.04
5/2/2022 5:15:00 AM 10.49 50.882 0.24 7.52 9.62 10.04
5/2/2022 5:30:00 AM 10.49 50.882 0.238 7.52 9.71 10.05
5/2/2022 5:45:00 AM 10.48 50.864 0.237 7.52 9.14 10.06
5/2/2022 6:00:00 AM 10.48 50.864 0.236 7.52 8.93 10.06
5/2/2022 6:15:00 AM 10.47 50.846 0.236 7.5 8.8 10.06
5/2/2022 6:30:00 AM 10.47 50.846 0.237 7.52 8.31 10.08
5/2/2022 6:45:00 AM 10.48 50.864 0.238 7.52 7.96 10.1
5/2/2022 7:00:00 AM 10.48 50.864 0.239 7.53 7.75 10.13
5/2/2022 7:15:00 AM 10.48 50.864 0.239 7.54 8 10.19
5/2/2022 7:30:00 AM 10.5 50.9 0.238 7.56 7.37 10.34
5/2/2022 7:45:00 AM 10.51 50.918 0.237 7.6 7.08 10.52
5/2/2022 8:00:00 AM 10.52 50.936 0.236 7.62 7.23 10.69
5/2/2022 8:15:00 AM 10.57 51.026 0.234 7.68 6.83 10.92
5/2/2022 8:30:00 AM 10.63 51.134 0.232 7.73 6.52 11.15
5/2/2022 8:45:00 AM 10.7 51.26 0.23 7.82 6.47 11.38
5/2/2022 9:00:00 AM 10.79 51.422 0.228 7.89 6.41 11.6
5/2/2022 9:15:00 AM 10.9 51.62 0.227 7.98 6.33 11.82
5/2/2022 9:30:00 AM 10.97 51.746 0.228 8.06 6.22 11.96
5/2/2022 9:45:00 AM 11.05 51.89 0.228 8.16 6.17 12.12
5/2/2022 10:00:00 AM 11.25 52.25 0.228 8.28 5.98 12.37
5/2/2022 10:15:00 AM 11.3 52.34 0.229 8.35 6.26 12.42
5/2/2022 10:30:00 AM 11.3 52.34 0.228 8.37 5.8 12.36
5/2/2022 10:45:00 AM 11.27 52.286 0.227 8.29 5.78 12.09
5/2/2022 11:00:00 AM 11.25 52.25 0.225 8.24 5.96 11.93
5/2/2022 11:15:00 AM 11.28 52.304 0.223 8.25 5.72 11.92
5/2/2022 11:30:00 AM 11.31 52.358 0.22 8.26 5.89 11.94
5/2/2022 11:45:00 AM 11.34 52.412 0.218 8.28 5.61 11.93
5/2/2022 12:00:00 PM 11.4 52.52 0.217 8.35 5.56 12.03
5/2/2022 12:15:00 PM 11.55 52.79 0.216 8.5 5.6 12.31
5/2/2022 12:30:00 PM 11.75 53.15 0.216 8.63 5.51 12.59
5/2/2022 12:45:00 PM 12.06 53.708 0.216 8.76 5.69 12.82
5/2/2022 1:00:00 PM 12.21 53.978 0.216 8.82 5.46 12.89
5/2/2022 1:15:00 PM 12.42 54.356 0.215 8.87 5.46 12.97
5/2/2022 1:30:00 PM 12.51 54.518 0.214 8.91 5.48 12.97
5/2/2022 1:45:00 PM 12.7 54.86 0.213 8.95 5.36 13.04
5/2/2022 2:00:00 PM 12.85 55.13 0.212 9 5.32 13.07
5/2/2022 2:15:00 PM 13.03 55.454 0.211 9.03 5.45 13.1
5/2/2022 2:30:00 PM 13.11 55.598 0.209 9.04 5.45 13.07
5/2/2022 2:45:00 PM 13.32 55.976 0.208 9.09 5.53 13.09
5/2/2022 3:00:00 PM 13.53 56.354 0.207 9.11 5.42 13.08
5/2/2022 3:15:00 PM 13.76 56.768 0.207 9.14 5.4 13.07
5/2/2022 3:30:00 PM 13.94 57.092 0.207 9.14 5.38 13.03
5/2/2022 3:45:00 PM 14.05 57.29 0.209 9.15 5.51 12.97
5/2/2022 4:00:00 PM 14.12 57.416 0.21 9.16 5.56 12.87
5/2/2022 4:15:00 PM 14.12 57.416 0.211 9.14 5.39 12.71
5/2/2022 4:30:00 PM 14.09 57.362 0.211 9.13 5.53 12.53
5/2/2022 4:45:00 PM 14.16 57.488 0.211 9.12 5.27 12.46
5/2/2022 5:00:00 PM 14.25 57.65 0.209 9.11 5.36 12.34
5/2/2022 5:15:00 PM 14.33 57.794 0.208 9.11 5.4 12.25
5/2/2022 5:30:00 PM 14.38 57.884 0.206 9.09 5.22 12.12
5/2/2022 5:45:00 PM 14.42 57.956 0.205 9.07 5.39 11.97
5/2/2022 6:00:00 PM 14.43 57.974 0.205 9.03 5.3 11.77
5/2/2022 6:15:00 PM 14.46 58.028 0.206 9.01 5.32 11.68
5/2/2022 6:30:00 PM 14.42 57.956 0.207 8.96 5.36 11.51
5/2/2022 6:45:00 PM 14.34 57.812 0.209 8.9 5.35 11.31
5/2/2022 7:00:00 PM 14.27 57.686 0.21 8.82 5.23 11.12
5/2/2022 7:15:00 PM 14.2 57.56 0.21 8.74 5.36 10.92
5/2/2022 7:30:00 PM 14.13 57.434 0.208 8.63 5.55 10.73
5/2/2022 7:45:00 PM 14.06 57.308 0.207 8.53 5.62 10.56
5/2/2022 8:00:00 PM 13.99 57.182 0.205 8.42 5.45 10.39
5/2/2022 8:15:00 PM 13.92 57.056 0.204 8.29 6.61 10.2
5/2/2022 8:30:00 PM 13.85 56.93 0.204 8.16 6.77 10.04
5/2/2022 8:45:00 PM 13.76 56.768 0.204 8.06 6.64 9.92
5/2/2022 9:00:00 PM 13.67 56.606 0.205 7.97 5.97 9.83
5/2/2022 9:15:00 PM 13.58 56.444 0.207 7.9 6.17 9.75
5/2/2022 9:30:00 PM 13.48 56.264 0.209 7.85 6.06 9.68
5/2/2022 9:45:00 PM 13.38 56.084 0.21 7.81 6.13 9.64
5/2/2022 10:00:00 PM 13.29 55.922 0.21 7.76 5.96 9.59
5/2/2022 10:15:00 PM 13.18 55.724 0.209 7.74 6.04 9.56
5/2/2022 10:30:00 PM 13.07 55.526 0.208 7.71 5.94 9.55
5/2/2022 10:45:00 PM 12.96 55.328 0.206 7.69 5.95 9.54
5/2/2022 11:00:00 PM 12.84 55.112 0.205 7.66 5.93 9.54
5/2/2022 11:15:00 PM 12.73 54.914 0.205 7.64 5.44 9.55
5/2/2022 11:30:00 PM 12.61 54.698 0.206 7.6 5.78 9.56
5/2/2022 11:45:00 PM 12.5 54.5 0.207 7.62 5.64 9.57
5/3/2022 12:00:00 AM 12.38 54.284 0.21 7.61 5.43 9.59
5/3/2022 12:15:00 AM 12.27 54.086 0.212 7.6 5.59 9.6
5/3/2022 12:30:00 AM 12.16 53.888 0.214 7.59 5.76 9.62
5/3/2022 12:45:00 AM 12.05 53.69 0.215 7.59 5.55 9.64
5/3/2022 1:00:00 AM 11.95 53.51 0.215 7.57 5.51 9.65
5/3/2022 1:15:00 AM 11.84 53.312 0.214 7.57 5.21 9.68
5/3/2022 1:30:00 AM 11.73 53.114 0.213 7.56 5.41 9.71
5/3/2022 1:45:00 AM 11.62 52.916 0.213 7.55 5.23 9.73
5/3/2022 2:00:00 AM 11.52 52.736 0.213 7.55 5.28 9.75
5/3/2022 2:15:00 AM 11.42 52.556 0.214 7.55 5.31 9.77
5/3/2022 2:30:00 AM 11.31 52.358 0.216 7.54 5.11 9.8
5/3/2022 2:45:00 AM 11.22 52.196 0.218 7.53 5.14 9.81
5/3/2022 3:00:00 AM 11.13 52.034 0.22 7.54 5.2 9.82
5/3/2022 3:15:00 AM 11.04 51.872 0.221 7.53 5.44 9.85
5/3/2022 3:30:00 AM 10.96 51.728 0.221 7.54 5.17 9.86
5/3/2022 3:45:00 AM 10.87 51.566 0.22 7.51 5.25 9.89
5/3/2022 4:00:00 AM 10.77 51.386 0.218 7.53 5.18 9.93
5/3/2022 4:15:00 AM 10.68 51.224 0.217 7.52 5.08 9.95
5/3/2022 4:30:00 AM 10.6 51.08 0.216 7.53 5.03 9.97
5/3/2022 4:45:00 AM 10.51 50.918 0.216 7.5 5.34 9.99
5/3/2022 5:00:00 AM 10.43 50.774 0.217 7.52 4.96 10.01
5/3/2022 5:15:00 AM 10.35 50.63 0.218 7.5 4.97 10.03
5/3/2022 5:30:00 AM 10.28 50.504 0.22 7.52 4.97 10.06
5/3/2022 5:45:00 AM 10.2 50.36 0.222 7.52 4.86 10.07
5/3/2022 6:00:00 AM 10.13 50.234 0.222 7.49 4.78 10.09
5/3/2022 6:15:00 AM 10.06 50.108 0.222 7.52 4.95 10.13
5/3/2022 6:30:00 AM 10.01 50.018 0.22 7.53 4.79 10.22
5/3/2022 6:45:00 AM 9.95 49.91 0.219 7.52 4.79 10.34
5/3/2022 7:00:00 AM 9.92 49.856 0.218 7.56 4.63 10.48
5/3/2022 7:15:00 AM 9.89 49.802 0.217 7.59 4.5 10.7
5/3/2022 7:30:00 AM 9.88 49.784 0.216 7.63 4.62 10.87
5/3/2022 7:45:00 AM 9.86 49.748 0.217 7.67 4.45 11.04
5/3/2022 8:00:00 AM 9.84 49.712 0.218 7.7 4.29 11.16
5/3/2022 8:15:00 AM 9.84 49.712 0.22 7.75 4.23 11.34
5/3/2022 8:30:00 AM 9.89 49.802 0.221 7.83 4.24 11.64
5/3/2022 8:45:00 AM 9.95 49.91 0.222 7.94 4.18 11.9
5/3/2022 9:00:00 AM 9.97 49.946 0.221 8 4.17 12.03
5/3/2022 9:15:00 AM 10 50 0.219 8.08 4.17 12.18
5/3/2022 9:30:00 AM 10.04 50.072 0.217 8.14 4.21 12.35
5/3/2022 9:45:00 AM 10.1 50.18 0.216 8.29 4.15 12.55
5/3/2022 10:00:00 AM 10.18 50.324 0.215 8.41 3.94 12.74
5/3/2022 10:15:00 AM 10.29 50.522 0.214 8.54 3.97 12.95
5/3/2022 10:30:00 AM 10.45 50.81 0.214 8.65 4.08 13.12
5/3/2022 10:45:00 AM 10.57 51.026 0.214 8.73 4.09 13.24
5/3/2022 11:00:00 AM 10.72 51.296 0.216 8.8 4.01 13.35
5/3/2022 11:15:00 AM 10.89 51.602 0.216 8.85 4.07 13.44
5/3/2022 11:30:00 AM 11.07 51.926 0.216 8.91 4.12 13.51
5/3/2022 11:45:00 AM 11.2 52.16 0.214 8.95 4.11 13.55
5/3/2022 12:00:00 PM 11.29 52.322 0.213 8.98 4.14 13.52
5/3/2022 12:15:00 PM 11.39 52.502 0.211 9.01 4.25 13.52
5/3/2022 12:30:00 PM 11.6 52.88 0.21 9.04 4.84 13.54
5/3/2022 12:45:00 PM 11.93 53.474 0.208 9.08 4.13 13.58
5/3/2022 1:00:00 PM 12.12 53.816 0.208 9.11 4.24 13.56
5/3/2022 1:15:00 PM 12.31 54.158 0.208 9.14 4.27 13.56
5/3/2022 1:30:00 PM 12.4 54.32 0.209 9.15 4.18 13.46
5/3/2022 1:45:00 PM 12.41 54.338 0.211 9.13 4.19 13.26
5/3/2022 2:00:00 PM 12.43 54.374 0.211 9.09 4.21 13.05
5/3/2022 2:15:00 PM 12.53 54.554 0.211 9.11 4.32 13
5/3/2022 2:30:00 PM 12.63 54.734 0.211 9.1 4.34 12.95
5/3/2022 2:45:00 PM 12.75 54.95 0.209 9.13 4.38 12.96
5/3/2022 3:00:00 PM 12.85 55.13 0.207 9.14 4.58 12.92
5/3/2022 3:15:00 PM 12.92 55.256 0.206 9.15 4.37 12.86
5/3/2022 3:30:00 PM 12.99 55.382 0.205 9.16 5.17 12.81
5/3/2022 3:45:00 PM 13.06 55.508 0.205 9.14 4.41 12.74
5/3/2022 4:00:00 PM 13.14 55.652 0.205 9.16 4.26 12.71
5/3/2022 4:15:00 PM 13.24 55.832 0.206 9.15 4.3 12.72
5/3/2022 4:30:00 PM 13.33 55.994 0.207 9.17 4.35 12.71
5/3/2022 4:45:00 PM 13.38 56.084 0.208 9.15 4.38 12.63
5/3/2022 5:00:00 PM 13.39 56.102 0.208 9.14 4.43 12.46
5/3/2022 5:15:00 PM 13.43 56.174 0.207 9.12 4.32 12.31
5/3/2022 5:30:00 PM 13.44 56.192 0.206 9.08 4.24 12.11
5/3/2022 5:45:00 PM 13.48 56.264 0.205 9.07 4.43 12.03
5/3/2022 6:00:00 PM 13.52 56.336 0.204 9.04 4.41 11.95
5/3/2022 6:15:00 PM 13.53 56.354 0.203 9.03 4.5 11.84
5/3/2022 6:30:00 PM 13.54 56.372 0.204 8.99 4.4 11.7
5/3/2022 6:45:00 PM 13.55 56.39 0.205 8.94 4.43 11.54
5/3/2022 7:00:00 PM 13.55 56.39 0.207 8.87 4.36 11.33
5/3/2022 7:15:00 PM 13.55 56.39 0.21 8.79 4.33 11.15
5/3/2022 7:30:00 PM 13.54 56.372 0.211 8.7 4.49 10.99
5/3/2022 7:45:00 PM 13.53 56.354 0.211 8.6 4.54 10.79
5/3/2022 8:00:00 PM 13.51 56.318 0.21 8.47 4.88 10.55
5/3/2022 8:15:00 PM 13.49 56.282 0.209 8.31 4.77 10.33
5/3/2022 8:30:00 PM 13.48 56.264 0.206 8.17 5 10.14
5/3/2022 8:45:00 PM 13.45 56.21 0.204 8.04 5.23 9.99
5/3/2022 9:00:00 PM 13.43 56.174 0.203 7.95 5.36 9.87
5/3/2022 9:15:00 PM 13.39 56.102 0.204 7.88 5.63 9.78
5/3/2022 9:30:00 PM 13.36 56.048 0.205 7.82 5.6 9.69
5/3/2022 9:45:00 PM 13.36 56.048 0.205 7.77 6.03 9.6
5/3/2022 10:00:00 PM 13.37 56.066 0.204 7.71 7.91 9.55
5/3/2022 10:15:00 PM 13.36 56.048 0.2 7.7 9.8 9.56
5/3/2022 10:30:00 PM 13.37 56.066 0.195 7.63 15.05 9.53
5/3/2022 10:45:00 PM 13.44 56.192 0.19 7.6 46.97 9.49
5/3/2022 11:00:00 PM 13.56 56.408 0.163 7.49 240.45 9.5
5/3/2022 11:15:00 PM 13.62 56.516 0.149 7.43 441.34 9.56
5/3/2022 11:30:00 PM 13.57 56.426 0.149 7.44 366.12 9.63
5/3/2022 11:45:00 PM 13.5 56.3 0.155 7.45 295.38 9.66
5/4/2022 12:00:00 AM 13.45 56.21 0.154 7.43 244.22 9.65
5/4/2022 12:15:00 AM 13.39 56.102 0.157 7.45 211.88 9.64
5/4/2022 12:30:00 AM 13.3 55.94 0.16 7.44 178.46 9.64
5/4/2022 12:45:00 AM 13.19 55.742 0.165 7.47 151.48 9.63
5/4/2022 1:00:00 AM 13.08 55.544 0.173 7.47 125.7 9.6
5/4/2022 1:15:00 AM 12.96 55.328 0.188 7.51 132.28 9.57
5/4/2022 1:30:00 AM 12.9 55.22 0.203 7.49 133.9 9.51
5/4/2022 1:45:00 AM 12.92 55.256 0.223 7.48 144.03 9.38
5/4/2022 2:00:00 AM 12.99 55.382 0.251 7.45 155.89 9.24
5/4/2022 2:15:00 AM 13.07 55.526 0.269 7.41 161.65 9.08
5/4/2022 2:30:00 AM 13.21 55.778 0.259 7.43 173.07 8.91
5/4/2022 2:45:00 AM 13.34 56.012 0.234 7.44 176.2 8.85
5/4/2022 3:00:00 AM 13.42 56.156 0.214 7.47 165.24 8.87
5/4/2022 3:15:00 AM 13.43 56.174 0.2 7.46 160.08 8.95
5/4/2022 3:30:00 AM 13.4 56.12 0.19 7.46 156.3 9.06
5/4/2022 3:45:00 AM 13.36 56.048 0.186 7.44 153.29 9.13
5/4/2022 4:00:00 AM 13.3 55.94 0.185 7.45 144.74 9.19
5/4/2022 4:15:00 AM 13.24 55.832 0.186 7.44 141.3 9.22
5/4/2022 4:30:00 AM 13.16 55.688 0.188 7.43 134.75 9.22
5/4/2022 4:45:00 AM 13.09 55.562 0.19 7.42 124.24 9.22
5/4/2022 5:00:00 AM 13.02 55.436 0.192 7.41 114.61 9.22
5/4/2022 5:15:00 AM 12.96 55.328 0.192 7.42 108.22 9.25
5/4/2022 5:30:00 AM 12.9 55.22 0.192 7.43 99.95 9.3
5/4/2022 5:45:00 AM 12.85 55.13 0.191 7.43 92.49 9.36
5/4/2022 6:00:00 AM 12.8 55.04 0.192 7.41 88.43 9.39
5/4/2022 6:15:00 AM 12.75 54.95 0.194 7.44 80.88 9.42
5/4/2022 6:30:00 AM 12.7 54.86 0.197 7.45 75.51 9.43
5/4/2022 6:45:00 AM 12.65 54.77 0.203 7.44 68.88 9.4
5/4/2022 7:00:00 AM 12.6 54.68 0.208 7.44 65.63 9.39
5/4/2022 7:15:00 AM 12.56 54.608 0.211 7.43 61.97 9.39
5/4/2022 7:30:00 AM 12.52 54.536 0.213 7.45 58.81 9.42
5/4/2022 7:45:00 AM 12.48 54.464 0.213 7.46 54.29 9.48
5/4/2022 8:00:00 AM 12.45 54.41 0.212 7.46 52.34 9.53
5/4/2022 8:15:00 AM 12.42 54.356 0.211 7.46 47.46 9.58
5/4/2022 8:30:00 AM 12.4 54.32 0.211 7.46 44.2 9.62
5/4/2022 8:45:00 AM 12.38 54.284 0.212 7.48 42.25 9.66
5/4/2022 9:00:00 AM 12.35 54.23 0.213 7.49 39.72 9.68
5/4/2022 9:15:00 AM 12.36 54.248 0.215 7.5 38.34 9.73
5/4/2022 9:30:00 AM 12.37 54.266 0.218 7.5 37.01 9.78
5/4/2022 9:45:00 AM 12.39 54.302 0.22 7.52 33.29 9.82
5/4/2022 10:00:00 AM 12.41 54.338 0.224 7.53 32.41 9.85
5/4/2022 10:15:00 AM 12.4 54.32 0.226 7.53 30.91 9.86
5/4/2022 10:30:00 AM 12.39 54.302 0.226 7.53 31.06 9.87
5/4/2022 10:45:00 AM 12.39 54.302 0.224 7.53 28.67 9.89
5/4/2022 11:00:00 AM 12.42 54.356 0.222 7.55 26.77 9.96
5/4/2022 11:15:00 AM 12.44 54.392 0.22 7.57 26.52 10.02
5/4/2022 11:30:00 AM 12.5 54.5 0.22 7.58 26.55 10.11
5/4/2022 11:45:00 AM 12.56 54.608 0.22 7.6 24.09 10.18
5/4/2022 12:00:00 PM 12.57 54.626 0.219 7.59 22.75 10.18
5/4/2022 12:15:00 PM 12.59 54.662 0.22 7.62 22.59 10.17
5/4/2022 12:30:00 PM 12.6 54.68 0.222 7.59 21.74 10.15
5/4/2022 12:45:00 PM 12.66 54.788 0.226 7.62 21.84 10.2
5/4/2022 1:00:00 PM 12.84 55.112 0.224 7.66 21.43 10.38
5/4/2022 1:15:00 PM 12.89 55.202 0.222 7.68 20.99 10.4
5/4/2022 1:30:00 PM 12.92 55.256 0.22 7.69 20.55 10.39
5/4/2022 1:45:00 PM 12.91 55.238 0.219 7.67 19.96 10.29
5/4/2022 2:00:00 PM 12.91 55.238 0.218 7.67 16.65 10.25
5/4/2022 2:15:00 PM 12.93 55.274 0.217 7.67 18.42 10.29
5/4/2022 2:30:00 PM 12.97 55.346 0.218 7.69 18.22 10.34
5/4/2022 2:45:00 PM 13.22 55.796 0.217 7.75 18.03 10.56
5/4/2022 3:00:00 PM 13.3 55.94 0.218 7.77 17.26 10.63
5/4/2022 3:15:00 PM 13.54 56.372 0.219 7.84 19.23 10.76
5/4/2022 3:30:00 PM 13.79 56.822 0.219 7.89 16.59 10.88
5/4/2022 3:45:00 PM 13.85 56.93 0.22 7.88 15.93 10.82
5/4/2022 4:00:00 PM 13.83 56.894 0.221 7.88 15.96 10.69
5/4/2022 4:15:00 PM 13.85 56.93 0.224 7.84 15.04 10.62
5/4/2022 4:30:00 PM 13.86 56.948 0.228 7.84 15.55 10.53
5/4/2022 4:45:00 PM 13.83 56.894 0.23 7.81 15.39 10.39
5/4/2022 5:00:00 PM 13.8 56.84 0.23 7.79 15.9 10.31
5/4/2022 5:15:00 PM 13.82 56.876 0.227 7.79 14.89 10.33
5/4/2022 5:30:00 PM 13.86 56.948 0.224 7.79 15.25 10.31
5/4/2022 5:45:00 PM 13.89 57.002 0.224 7.79 14.79 10.31
5/4/2022 6:00:00 PM 13.95 57.11 0.222 7.78 14.87 10.31
5/4/2022 6:15:00 PM 13.93 57.074 0.223 7.76 15.15 10.19
5/4/2022 6:30:00 PM 13.92 57.056 0.224 7.74 15.15 10.11
5/4/2022 6:45:00 PM 13.9 57.02 0.222 7.7 15.04 10.07
5/4/2022 7:00:00 PM 13.86 56.948 0.222 7.72 14.68 10.04
5/4/2022 7:15:00 PM 13.81 56.858 0.222 7.7 14.62 9.98
5/4/2022 7:30:00 PM 13.74 56.732 0.225 7.65 14.92 9.9
5/4/2022 7:45:00 PM 13.67 56.606 0.226 7.65 14.81 9.84
5/4/2022 8:00:00 PM 13.6 56.48 0.226 7.64 14.79 9.81
5/4/2022 8:15:00 PM 13.55 56.39 0.223 7.61 15.12 9.77
5/4/2022 8:30:00 PM 13.49 56.282 0.221 7.6 15.71 9.74
5/4/2022 8:45:00 PM 13.44 56.192 0.219 7.6 14.04 9.71
5/4/2022 9:00:00 PM 13.39 56.102 0.218 7.59 15.82 9.69
5/4/2022 9:15:00 PM 13.34 56.012 0.217 7.58 15.29 9.68
5/4/2022 9:30:00 PM 13.29 55.922 0.215 7.58 15.4 9.68
5/4/2022 9:45:00 PM 13.24 55.832 0.213 7.57 14.79 9.69
5/4/2022 10:00:00 PM 13.18 55.724 0.212 7.56 14.06 9.68
5/4/2022 10:15:00 PM 13.12 55.616 0.213 7.56 14.77 9.67
5/4/2022 10:30:00 PM 13.05 55.49 0.215 7.53 15.37 9.65
5/4/2022 10:45:00 PM 12.99 55.382 0.216 7.55 14.32 9.66
5/4/2022 11:00:00 PM 12.92 55.256 0.213 7.54 14.73 9.67
5/4/2022 11:15:00 PM 12.87 55.166 0.21 7.54 14.44 9.69
5/4/2022 11:30:00 PM 12.82 55.076 0.208 7.53 14.12 9.71
5/4/2022 11:45:00 PM 12.77 54.986 0.206 7.54 14.56 9.72
5/5/2022 12:00:00 AM 12.72 54.896 0.206 7.53 14.19 9.74
5/5/2022 12:15:00 AM 12.67 54.806 0.206 7.54 13.95 9.75
5/5/2022 12:30:00 AM 12.62 54.716 0.206 7.54 14 9.77
5/5/2022 12:45:00 AM 12.57 54.626 0.205 7.53 13.75 9.78
5/5/2022 1:00:00 AM 12.51 54.518 0.207 7.51 13.8 9.77
5/5/2022 1:15:00 AM 12.46 54.428 0.21 7.53 13.55 9.76
5/5/2022 1:30:00 AM 12.4 54.32 0.21 7.53 14.17 9.76
5/5/2022 1:45:00 AM 12.36 54.248 0.21 7.53 13.72 9.77
5/5/2022 2:00:00 AM 12.31 54.158 0.207 7.53 13.34 9.8
5/5/2022 2:15:00 AM 12.27 54.086 0.205 7.53 13.12 9.82
5/5/2022 2:30:00 AM 12.24 54.032 0.205 7.53 13.39 9.84
5/5/2022 2:45:00 AM 12.21 53.978 0.204 7.53 13 9.85
5/5/2022 3:00:00 AM 12.17 53.906 0.204 7.52 13.23 9.87
5/5/2022 3:15:00 AM 12.13 53.834 0.203 7.52 12.73 9.88
5/5/2022 3:30:00 AM 12.09 53.762 0.204 7.53 12.98 9.88
5/5/2022 3:45:00 AM 12.05 53.69 0.206 7.52 12.94 9.87
5/5/2022 4:00:00 AM 12.01 53.618 0.208 7.51 12.57 9.85
5/5/2022 4:15:00 AM 11.97 53.546 0.209 7.51 12.46 9.85
5/5/2022 4:30:00 AM 11.93 53.474 0.208 7.5 12.25 9.86
5/5/2022 4:45:00 AM 11.9 53.42 0.205 7.5 12.13 9.89
5/5/2022 5:00:00 AM 11.87 53.366 0.205 7.49 12.1 9.92
5/5/2022 5:15:00 AM 11.84 53.312 0.203 7.51 12.06 9.94
5/5/2022 5:30:00 AM 11.81 53.258 0.203 7.51 11.81 9.96
5/5/2022 5:45:00 AM 11.78 53.204 0.202 7.51 11.73 9.97
5/5/2022 6:00:00 AM 11.75 53.15 0.201 7.51 11.86 9.99
5/5/2022 6:15:00 AM 11.71 53.078 0.202 7.5 11.67 9.99
5/5/2022 6:30:00 AM 11.68 53.024 0.203 7.49 11.49 9.98
5/5/2022 6:45:00 AM 11.65 52.97 0.205 7.5 11.2 9.98
5/5/2022 7:00:00 AM 11.63 52.934 0.206 7.51 10.94 10.03
5/5/2022 7:15:00 AM 11.62 52.916 0.204 7.51 10.77 10.11
5/5/2022 7:30:00 AM 11.61 52.898 0.201 7.52 10.5 10.2
5/5/2022 7:45:00 AM 11.61 52.898 0.2 7.56 10.06 10.32
5/5/2022 8:00:00 AM 11.63 52.934 0.199 7.56 9.66 10.46
5/5/2022 8:15:00 AM 11.64 52.952 0.198 7.62 9.42 10.58
5/5/2022 8:30:00 AM 11.67 53.006 0.198 7.65 9.07 10.72
5/5/2022 8:45:00 AM 11.72 53.096 0.196 7.68 8.96 10.84
5/5/2022 9:00:00 AM 11.77 53.186 0.198 7.73 8.95 10.95
5/5/2022 9:15:00 AM 11.85 53.33 0.199 7.75 8.93 11.06
5/5/2022 9:30:00 AM 11.95 53.51 0.201 7.79 8.98 11.17
5/5/2022 9:45:00 AM 12.04 53.672 0.201 7.84 8.75 11.27
5/5/2022 10:00:00 AM 12.19 53.942 0.198 7.9 8.47 11.39
5/5/2022 10:15:00 AM 12.32 54.176 0.197 7.94 8.36 11.5
5/5/2022 10:30:00 AM 12.46 54.428 0.196 8.02 8.59 11.57
5/5/2022 10:45:00 AM 12.62 54.716 0.195 8.08 8.81 11.65
5/5/2022 11:00:00 AM 12.77 54.986 0.195 8.14 8.75 11.72
5/5/2022 11:15:00 AM 12.95 55.31 0.193 8.2 8.63 11.77
5/5/2022 11:30:00 AM 13.13 55.634 0.193 8.26 8.64 11.81
5/5/2022 11:45:00 AM 13.31 55.958 0.194 8.31 8.41 11.86
5/5/2022 12:00:00 PM 13.48 56.264 0.197 8.35 8.43 11.9
5/5/2022 12:15:00 PM 13.68 56.624 0.197 8.37 8.44 11.93
5/5/2022 12:30:00 PM 13.84 56.912 0.197 8.43 8.42 11.93
5/5/2022 12:45:00 PM 14.01 57.218 0.195 8.46 8.42 11.92
5/5/2022 1:00:00 PM 14.18 57.524 0.194 8.52 8.26 11.93
5/5/2022 1:15:00 PM 14.39 57.902 0.194 8.56 8.4 11.93
5/5/2022 1:30:00 PM 14.58 58.244 0.194 8.6 8.39 11.93
5/5/2022 1:45:00 PM 14.79 58.622 0.194 8.62 8.42 11.9
5/5/2022 2:00:00 PM 14.99 58.982 0.194 8.64 8.57 11.89
5/5/2022 2:15:00 PM 15.19 59.342 0.195 8.67 8.38 11.85
5/5/2022 2:30:00 PM 15.37 59.666 0.197 8.69 8.59 11.83
5/5/2022 2:45:00 PM 15.52 59.936 0.201 8.69 8.67 11.78
5/5/2022 3:00:00 PM 15.67 60.206 0.205 8.69 8.48 11.75
5/5/2022 3:15:00 PM 15.84 60.512 0.207 8.67 8.5 11.67
5/5/2022 3:30:00 PM 15.98 60.764 0.207 8.68 8.55 11.6
5/5/2022 3:45:00 PM 16.1 60.98 0.208 8.68 8.36 11.53
5/5/2022 4:00:00 PM 16.17 61.106 0.208 8.66 8.42 11.43
5/5/2022 4:15:00 PM 16.21 61.178 0.208 8.67 8.52 11.35
5/5/2022 4:30:00 PM 16.27 61.286 0.209 8.65 8.27 11.27
5/5/2022 4:45:00 PM 16.3 61.34 0.209 8.61 8.55 11.17
5/5/2022 5:00:00 PM 16.32 61.376 0.209 8.6 8.59 11.06
5/5/2022 5:15:00 PM 16.32 61.376 0.209 8.55 8.73 10.94
5/5/2022 5:30:00 PM 16.28 61.304 0.212 8.51 8.81 10.85
5/5/2022 5:45:00 PM 16.25 61.25 0.213 8.44 8.83 10.72
5/5/2022 6:00:00 PM 16.21 61.178 0.214 8.36 8.74 10.58
5/5/2022 6:15:00 PM 16.16 61.088 0.214 8.3 8.9 10.47
5/5/2022 6:30:00 PM 16.12 61.016 0.212 8.23 8.92 10.37
5/5/2022 6:45:00 PM 16.06 60.908 0.211 8.17 9.07 10.27
5/5/2022 7:00:00 PM 15.98 60.764 0.212 8.07 8.96 10.1
5/5/2022 7:15:00 PM 15.91 60.638 0.212 7.98 8.82 9.93
5/5/2022 7:30:00 PM 15.84 60.512 0.211 7.92 9.44 9.8
5/5/2022 7:45:00 PM 15.75 60.35 0.211 7.85 9.05 9.67
5/5/2022 8:00:00 PM 15.66 60.188 0.212 7.79 9.3 9.56
5/5/2022 8:15:00 PM 15.56 60.008 0.214 7.72 9.51 9.46
5/5/2022 8:30:00 PM 15.45 59.81 0.217 7.69 9.91 9.38
5/5/2022 8:45:00 PM 15.34 59.612 0.216 7.66 10.45 9.33
5/5/2022 9:00:00 PM 15.24 59.432 0.215 7.63 10.14 9.28
5/5/2022 9:15:00 PM 15.14 59.252 0.213 7.59 9.96 9.25
5/5/2022 9:30:00 PM 15.04 59.072 0.213 7.6 10.49 9.22
5/5/2022 9:45:00 PM 14.95 58.91 0.212 7.59 10.23 9.2
5/5/2022 10:00:00 PM 14.84 58.712 0.211 7.58 10.48 9.2
5/5/2022 10:15:00 PM 14.74 58.532 0.21 7.54 10.09 9.19
5/5/2022 10:30:00 PM 14.63 58.334 0.21 7.54 10.23 9.2
5/5/2022 10:45:00 PM 14.52 58.136 0.211 7.54 10.22 9.2
5/5/2022 11:00:00 PM 14.41 57.938 0.212 7.54 9.78 9.21
5/5/2022 11:15:00 PM 14.31 57.758 0.212 7.52 9.96 9.22
5/5/2022 11:30:00 PM 14.22 57.596 0.209 7.52 9.79 9.23
5/5/2022 11:45:00 PM 14.14 57.452 0.206 7.5 9.74 9.24
5/6/2022 12:00:00 AM 14.07 57.326 0.205 7.52 9.81 9.26
5/6/2022 12:15:00 AM 14.01 57.218 0.203 7.49 9.71 9.27
5/6/2022 12:30:00 AM 13.94 57.092 0.202 7.51 9.68 9.28
5/6/2022 12:45:00 AM 13.86 56.948 0.2 7.49 9.64 9.29
5/6/2022 1:00:00 AM 13.78 56.804 0.199 7.49 9.79 9.32
5/6/2022 1:15:00 AM 13.7 56.66 0.2 7.48 9.69 9.33
5/6/2022 1:30:00 AM 13.62 56.516 0.201 7.49 9.49 9.34
5/6/2022 1:45:00 AM 13.54 56.372 0.203 7.49 9.55 9.36
5/6/2022 2:00:00 AM 13.47 56.246 0.204 7.48 9.47 9.36
5/6/2022 2:15:00 AM 13.4 56.12 0.202 7.48 9.52 9.39
5/6/2022 2:30:00 AM 13.34 56.012 0.2 7.48 9.56 9.4
5/6/2022 2:45:00 AM 13.28 55.904 0.199 7.48 9.19 9.42
5/6/2022 3:00:00 AM 13.23 55.814 0.199 7.47 9.26 9.43
5/6/2022 3:15:00 AM 13.18 55.724 0.198 7.47 9.5 9.44
5/6/2022 3:30:00 AM 13.12 55.616 0.197 7.46 9.32 9.47
5/6/2022 3:45:00 AM 13.06 55.508 0.197 7.47 9.61 9.48
5/6/2022 4:00:00 AM 13 55.4 0.198 7.46 9.34 9.49
5/6/2022 4:15:00 AM 12.95 55.31 0.199 7.47 9.16 9.5
5/6/2022 4:30:00 AM 12.89 55.202 0.201 7.48 9.12 9.51
5/6/2022 4:45:00 AM 12.84 55.112 0.2 7.46 9.02 9.53
5/6/2022 5:00:00 AM 12.8 55.04 0.199 7.48 8.69 9.54
5/6/2022 5:15:00 AM 12.75 54.95 0.197 7.46 9.26 9.56
5/6/2022 5:30:00 AM 12.72 54.896 0.196 7.48 9.2 9.58
5/6/2022 5:45:00 AM 12.68 54.824 0.195 7.46 9.46 9.58
5/6/2022 6:00:00 AM 12.64 54.752 0.193 7.48 9.97 9.61
5/6/2022 6:15:00 AM 12.59 54.662 0.19 7.48 11.44 9.64
5/6/2022 6:30:00 AM 12.54 54.572 0.187 7.48 14.32 9.67
5/6/2022 6:45:00 AM 12.49 54.482 0.184 7.46 26.5 9.72
5/6/2022 7:00:00 AM 12.47 54.446 0.182 7.47 49.2 9.76
5/6/2022 7:15:00 AM 12.48 54.464 0.174 7.46 86.03 9.81
5/6/2022 7:30:00 AM 12.5 54.5 0.165 7.44 117.07 9.84
5/6/2022 7:45:00 AM 12.51 54.518 0.163 7.43 127.99 9.86
5/6/2022 8:00:00 AM 12.5 54.5 0.163 7.43 116.72 9.86
5/6/2022 8:15:00 AM 12.47 54.446 0.168 7.44 98.78 9.86
5/6/2022 8:30:00 AM 12.43 54.374 0.169 7.45 88.62 9.87
5/6/2022 8:45:00 AM 12.39 54.302 0.169 7.46 80.26 9.87
5/6/2022 9:00:00 AM 12.33 54.194 0.17 7.44 71.21 9.89
5/6/2022 9:15:00 AM 12.26 54.068 0.171 7.47 68.16 9.91
5/6/2022 9:30:00 AM 12.22 53.996 0.167 7.46 69.54 9.93
5/6/2022 9:45:00 AM 12.2 53.96 0.168 7.46 84.13 9.92
5/6/2022 10:00:00 AM 12.19 53.942 0.171 7.45 93.92 9.9
5/6/2022 10:15:00 AM 12.21 53.978 0.177 7.44 102.3 9.86
5/6/2022 10:30:00 AM 12.25 54.05 0.188 7.43 107.46 9.83
5/6/2022 10:45:00 AM 12.3 54.14 0.2 7.44 105.97 9.79
5/6/2022 11:00:00 AM 12.33 54.194 0.198 7.43 104.74 9.77
5/6/2022 11:15:00 AM 12.36 54.248 0.188 7.43 104.54 9.77
5/6/2022 11:30:00 AM 12.4 54.32 0.178 7.4 107.25 9.77
5/6/2022 11:45:00 AM 12.43 54.374 0.166 7.41 131.52 9.79
5/6/2022 12:00:00 PM 12.45 54.41 0.152 7.38 237.44 9.83
5/6/2022 12:15:00 PM 12.48 54.464 0.145 7.36 287.41 9.86
5/6/2022 12:30:00 PM 12.47 54.446 0.147 7.37 252.5 9.86
5/6/2022 12:45:00 PM 12.45 54.41 0.149 7.38 202.39 9.83
5/6/2022 1:00:00 PM 12.43 54.374 0.15 7.36 163.19 9.82
5/6/2022 1:15:00 PM 12.41 54.338 0.149 7.38 143.13 9.84
5/6/2022 1:30:00 PM 12.39 54.302 0.147 7.4 139.29 9.84
5/6/2022 1:45:00 PM 12.38 54.284 0.148 7.38 147.38 9.82
5/6/2022 2:00:00 PM 12.38 54.284 0.151 7.38 159.07 9.78
5/6/2022 2:15:00 PM 12.38 54.284 0.15 7.37 164.75 9.8
5/6/2022 2:30:00 PM 12.4 54.32 0.147 7.38 177.87 9.79
5/6/2022 2:45:00 PM 12.42 54.356 0.151 7.37 182.89 9.79
5/6/2022 3:00:00 PM 12.44 54.392 0.156 7.36 178.74 9.8
5/6/2022 3:15:00 PM 12.45 54.41 0.148 7.35 178.19 9.81
5/6/2022 3:30:00 PM 12.46 54.428 0.142 7.34 177.76 9.82
5/6/2022 3:45:00 PM 12.46 54.428 0.138 7.32 173.1 9.84
5/6/2022 4:00:00 PM 12.45 54.41 0.138 7.36 166.73 9.85
5/6/2022 4:15:00 PM 12.44 54.392 0.137 7.35 159.16 9.86
5/6/2022 4:30:00 PM 12.42 54.356 0.136 7.41 155.98 9.87
5/6/2022 4:45:00 PM 12.41 54.338 0.135 7.42 170.96 9.86
5/6/2022 5:00:00 PM 12.42 54.356 0.135 7.43 214.36 9.83
5/6/2022 5:15:00 PM 12.44 54.392 0.134 7.42 250.31 9.79
5/6/2022 5:30:00 PM 12.46 54.428 0.131 7.43 252.39 9.74
5/6/2022 5:45:00 PM 12.46 54.428 0.129 7.42 250.78 9.71
5/6/2022 6:00:00 PM 12.43 54.374 0.127 7.34 253.62 9.72
5/6/2022 6:15:00 PM 12.39 54.302 0.129 7.39 255.79 9.73
5/6/2022 6:30:00 PM 12.34 54.212 0.13 7.4 238.54 9.75
5/6/2022 6:45:00 PM 12.31 54.158 0.132 7.39 228.71 9.75
5/6/2022 7:00:00 PM 12.27 54.086 0.134 7.4 210.8 9.77
5/6/2022 7:15:00 PM 12.22 53.996 0.136 7.35 199.54 9.78
5/6/2022 7:30:00 PM 12.16 53.888 0.136 7.39 184.82 9.8
5/6/2022 7:45:00 PM 12.12 53.816 0.137 7.38 172.6 9.81
5/6/2022 8:00:00 PM 12.06 53.708 0.136 7.35 163.93 9.83
5/6/2022 8:15:00 PM 11.99 53.582 0.135 7.36 159.64 9.85
5/6/2022 8:30:00 PM 11.93 53.474 0.134 7.35 171.08 9.87
5/6/2022 8:45:00 PM 11.87 53.366 0.133 7.34 175.7 9.89
5/6/2022 9:00:00 PM 11.82 53.276 0.134 7.33 195.54 9.91
5/6/2022 9:15:00 PM 11.76 53.168 0.135 7.33 159.17 9.93
5/6/2022 9:30:00 PM 11.7 53.06 0.136 7.31 156.89 9.96
5/6/2022 9:45:00 PM 11.63 52.934 0.135 7.31 146.43 9.98
5/6/2022 10:00:00 PM 11.57 52.826 0.136 7.31 136.83 10.01
5/6/2022 10:15:00 PM 11.52 52.736 0.136 7.29 134.7 10.03
5/6/2022 10:30:00 PM 11.47 52.646 0.136 7.3 130.85 10.06
5/6/2022 10:45:00 PM 11.42 52.556 0.137 7.28 126.59 10.07
5/6/2022 11:00:00 PM 11.38 52.484 0.138 7.28 121.95 10.08
5/6/2022 11:15:00 PM 11.34 52.412 0.137 7.31 119.03 10.1
5/6/2022 11:30:00 PM 11.31 52.358 0.138 7.3 114.41 10.11
5/6/2022 11:45:00 PM 11.27 52.286 0.138 7.3 110.21 10.11
5/7/2022 12:00:00 AM 11.22 52.196 0.137 7.31 107.27 10.12
5/7/2022 12:15:00 AM 11.19 52.142 0.138 7.3 101.54 10.13
5/7/2022 12:30:00 AM 11.15 52.07 0.138 7.32 97.08 10.14
5/7/2022 12:45:00 AM 11.11 51.998 0.139 7.31 92.53 10.16
5/7/2022 1:00:00 AM 11.07 51.926 0.139 7.32 88.37 10.16
5/7/2022 1:15:00 AM 11.03 51.854 0.139 7.31 87.2 10.18
5/7/2022 1:30:00 AM 10.99 51.782 0.139 7.33 81.71 10.21
5/7/2022 1:45:00 AM 10.95 51.71 0.139 7.3 80.43 10.23
5/7/2022 2:00:00 AM 10.93 51.674 0.139 7.3 80.3 10.23
5/7/2022 2:15:00 AM 10.9 51.62 0.138 7.31 78.08 10.25
5/7/2022 2:30:00 AM 10.88 51.584 0.137 7.3 78.25 10.26
5/7/2022 2:45:00 AM 10.87 51.566 0.137 7.27 75.9 10.27
5/7/2022 3:00:00 AM 10.85 51.53 0.137 7.29 73.42 10.28
5/7/2022 3:15:00 AM 10.83 51.494 0.137 7.3 70.19 10.29
5/7/2022 3:30:00 AM 10.81 51.458 0.137 7.3 69 10.3
5/7/2022 3:45:00 AM 10.8 51.44 0.137 7.27 337.81 10.32
5/7/2022 4:00:00 AM 10.79 51.422 0.139 7.28 64.39 10.32
5/7/2022 4:15:00 AM 10.77 51.386 0.139 7.29 107.43 10.32
5/7/2022 4:30:00 AM 10.76 51.368 0.137 7.3 71.52 10.34
5/7/2022 4:45:00 AM 10.73 51.314 0.135 7.29 64.65 10.35
5/7/2022 5:00:00 AM 10.72 51.296 0.136 7.27 72.36 10.36
5/7/2022 5:15:00 AM 10.7 51.26 0.136 7.31 62.67 10.37
5/7/2022 5:30:00 AM 10.68 51.224 0.136 7.28 156.46 10.38
5/7/2022 5:45:00 AM 10.66 51.188 0.136 7.28 59.59 10.4
5/7/2022 6:00:00 AM 10.64 51.152 0.136 7.3 58.19 10.4
5/7/2022 6:15:00 AM 10.63 51.134 0.136 7.3 57.12 10.41
5/7/2022 6:30:00 AM 10.62 51.116 0.135 7.29 56.53 10.42
5/7/2022 6:45:00 AM 10.6 51.08 0.133 7.3 57.12 10.43
5/7/2022 7:00:00 AM 10.59 51.062 0.133 7.24 59.31 10.45
5/7/2022 7:15:00 AM 10.58 51.044 0.132 7.31 61.24 10.45
5/7/2022 7:30:00 AM 10.57 51.026 0.131 7.33 63.36 10.47
5/7/2022 7:45:00 AM 10.56 51.008 0.129 7.32 64.92 10.48
5/7/2022 8:00:00 AM 10.55 50.99 0.129 7.33 65.29 10.49
5/7/2022 8:15:00 AM 10.54 50.972 0.13 7.33 68.96 10.5
5/7/2022 8:30:00 AM 10.54 50.972 0.129 7.32 70.29 10.51
5/7/2022 8:45:00 AM 10.52 50.936 0.127 7.32 77.97 10.52
5/7/2022 9:00:00 AM 10.51 50.918 0.125 7.34 80.59 10.53
5/7/2022 9:15:00 AM 10.51 50.918 0.125 7.35 81.59 10.55
5/7/2022 9:30:00 AM 10.5 50.9 0.125 7.35 81.25 10.56
5/7/2022 9:45:00 AM 10.51 50.918 0.126 7.35 81.32 10.56
5/7/2022 10:00:00 AM